<?xml version="1.0" encoding="UTF-8" standalone="no" ?>
<gpx xmlns="http://www.topografix.com/GPX/1/1" xmlns:xsi="http://www.w3.org/2001/XMLSchema-instance" xsi:schemaLocation="http://www.topografix.com/GPX/1/1 http://www.topografix.com/GPX/1/1/gpx.xsd" version="1.1" creator="VisuGPX - https://www.visugpx.com">
  <metadata>
    <name>De St Mard à Meaux</name>
    <desc><![CDATA[Départ à la gare SNCF de St Mard-Dammartin, arrivée à la gare SNCF de Meaux.
Nous passerons par la forêt de Montgé, Montgé en Goele, le bois du Four, Montyon, le bois de Pentchar (détour pour voir la borne géodésique), Crégy les Meaux (détour pour voir le couvent des Carmes), Meaux (Basilique, parc Bossuet). Daniel BAIJOT]]></desc>
  </metadata>
  <trk>
    <name><![CDATA[Tracé actuel: 23 FEV 2014 08:34]]></name>
    <trkseg>
      <trkpt lat="49.03235" lon="2.69925">
        <ele>109.73</ele>
        <time>2014-02-23T07:34:43Z</time>
      </trkpt>
      <trkpt lat="49.03239" lon="2.69921">
        <ele>108.77</ele>
        <time>2014-02-23T07:34:59Z</time>
      </trkpt>
      <trkpt lat="49.03243" lon="2.6991">
        <ele>106.84</ele>
        <time>2014-02-23T07:35:17Z</time>
      </trkpt>
      <trkpt lat="49.03239" lon="2.69897">
        <ele>106.36</ele>
        <time>2014-02-23T07:35:33Z</time>
      </trkpt>
      <trkpt lat="49.03233" lon="2.69897">
        <ele>106.36</ele>
        <time>2014-02-23T07:35:48Z</time>
      </trkpt>
      <trkpt lat="49.03233" lon="2.69896">
        <ele>106.36</ele>
        <time>2014-02-23T07:36:06Z</time>
      </trkpt>
      <trkpt lat="49.03232" lon="2.69896">
        <ele>106.36</ele>
        <time>2014-02-23T07:36:23Z</time>
      </trkpt>
      <trkpt lat="49.03232" lon="2.69895">
        <ele>106.36</ele>
        <time>2014-02-23T07:36:51Z</time>
      </trkpt>
      <trkpt lat="49.03231" lon="2.69895">
        <ele>106.84</ele>
        <time>2014-02-23T07:37:10Z</time>
      </trkpt>
      <trkpt lat="49.03231" lon="2.69895">
        <ele>107.32</ele>
        <time>2014-02-23T07:37:42Z</time>
      </trkpt>
      <trkpt lat="49.03231" lon="2.69893">
        <ele>107.32</ele>
        <time>2014-02-23T07:38:07Z</time>
      </trkpt>
      <trkpt lat="49.03237" lon="2.69884">
        <ele>107.32</ele>
        <time>2014-02-23T07:38:23Z</time>
      </trkpt>
      <trkpt lat="49.03239" lon="2.69869">
        <ele>105.88</ele>
        <time>2014-02-23T07:38:38Z</time>
      </trkpt>
      <trkpt lat="49.03232" lon="2.69852">
        <ele>105.4</ele>
        <time>2014-02-23T07:38:54Z</time>
      </trkpt>
      <trkpt lat="49.03242" lon="2.69829">
        <ele>105.88</ele>
        <time>2014-02-23T07:39:11Z</time>
      </trkpt>
      <trkpt lat="49.03251" lon="2.69827">
        <ele>104.92</ele>
        <time>2014-02-23T07:39:27Z</time>
      </trkpt>
      <trkpt lat="49.03255" lon="2.69829">
        <ele>105.4</ele>
        <time>2014-02-23T07:39:31Z</time>
      </trkpt>
      <trkpt lat="49.0326" lon="2.69834">
        <ele>105.88</ele>
        <time>2014-02-23T07:39:36Z</time>
      </trkpt>
      <trkpt lat="49.03271" lon="2.69841">
        <ele>105.88</ele>
        <time>2014-02-23T07:39:51Z</time>
      </trkpt>
      <trkpt lat="49.03283" lon="2.6985">
        <ele>106.36</ele>
        <time>2014-02-23T07:40:07Z</time>
      </trkpt>
      <trkpt lat="49.03297" lon="2.69862">
        <ele>105.4</ele>
        <time>2014-02-23T07:40:23Z</time>
      </trkpt>
      <trkpt lat="49.03311" lon="2.69875">
        <ele>105.4</ele>
        <time>2014-02-23T07:40:38Z</time>
      </trkpt>
      <trkpt lat="49.03315" lon="2.69879">
        <ele>105.4</ele>
        <time>2014-02-23T07:40:42Z</time>
      </trkpt>
      <trkpt lat="49.03329" lon="2.69896">
        <ele>104.92</ele>
        <time>2014-02-23T07:40:58Z</time>
      </trkpt>
      <trkpt lat="49.03347" lon="2.69911">
        <ele>101.56</ele>
        <time>2014-02-23T07:41:14Z</time>
      </trkpt>
      <trkpt lat="49.03367" lon="2.69924">
        <ele>100.6</ele>
        <time>2014-02-23T07:41:31Z</time>
      </trkpt>
      <trkpt lat="49.03389" lon="2.69944">
        <ele>99.63</ele>
        <time>2014-02-23T07:41:52Z</time>
      </trkpt>
      <trkpt lat="49.03403" lon="2.69956">
        <ele>100.6</ele>
        <time>2014-02-23T07:42:08Z</time>
      </trkpt>
      <trkpt lat="49.03421" lon="2.69975">
        <ele>101.56</ele>
        <time>2014-02-23T07:42:26Z</time>
      </trkpt>
      <trkpt lat="49.03436" lon="2.69991">
        <ele>102.52</ele>
        <time>2014-02-23T07:42:42Z</time>
      </trkpt>
      <trkpt lat="49.03458" lon="2.70009">
        <ele>105.4</ele>
        <time>2014-02-23T07:43:02Z</time>
      </trkpt>
      <trkpt lat="49.03479" lon="2.70031">
        <ele>110.21</ele>
        <time>2014-02-23T07:43:22Z</time>
      </trkpt>
      <trkpt lat="49.035" lon="2.70054">
        <ele>113.09</ele>
        <time>2014-02-23T07:43:43Z</time>
      </trkpt>
      <trkpt lat="49.03517" lon="2.70072">
        <ele>112.13</ele>
        <time>2014-02-23T07:44:00Z</time>
      </trkpt>
      <trkpt lat="49.03532" lon="2.70091">
        <ele>112.61</ele>
        <time>2014-02-23T07:44:17Z</time>
      </trkpt>
      <trkpt lat="49.03537" lon="2.70097">
        <ele>111.65</ele>
        <time>2014-02-23T07:44:22Z</time>
      </trkpt>
      <trkpt lat="49.03543" lon="2.70104">
        <ele>110.69</ele>
        <time>2014-02-23T07:44:28Z</time>
      </trkpt>
      <trkpt lat="49.03562" lon="2.70126">
        <ele>111.17</ele>
        <time>2014-02-23T07:44:45Z</time>
      </trkpt>
      <trkpt lat="49.03575" lon="2.70141">
        <ele>110.69</ele>
        <time>2014-02-23T07:44:59Z</time>
      </trkpt>
      <trkpt lat="49.03589" lon="2.70157">
        <ele>111.17</ele>
        <time>2014-02-23T07:45:13Z</time>
      </trkpt>
      <trkpt lat="49.03604" lon="2.70172">
        <ele>111.17</ele>
        <time>2014-02-23T07:45:28Z</time>
      </trkpt>
      <trkpt lat="49.03621" lon="2.70185">
        <ele>111.17</ele>
        <time>2014-02-23T07:45:44Z</time>
      </trkpt>
      <trkpt lat="49.03632" lon="2.70197">
        <ele>107.81</ele>
        <time>2014-02-23T07:45:57Z</time>
      </trkpt>
      <trkpt lat="49.03633" lon="2.702">
        <ele>107.32</ele>
        <time>2014-02-23T07:45:59Z</time>
      </trkpt>
      <trkpt lat="49.03644" lon="2.70225">
        <ele>106.36</ele>
        <time>2014-02-23T07:46:15Z</time>
      </trkpt>
      <trkpt lat="49.03649" lon="2.70237">
        <ele>111.17</ele>
        <time>2014-02-23T07:46:23Z</time>
      </trkpt>
      <trkpt lat="49.03642" lon="2.70272">
        <ele>116.94</ele>
        <time>2014-02-23T07:46:42Z</time>
      </trkpt>
      <trkpt lat="49.03642" lon="2.70309">
        <ele>115.5</ele>
        <time>2014-02-23T07:47:03Z</time>
      </trkpt>
      <trkpt lat="49.03643" lon="2.70321">
        <ele>115.98</ele>
        <time>2014-02-23T07:47:11Z</time>
      </trkpt>
      <trkpt lat="49.03647" lon="2.70336">
        <ele>115.01</ele>
        <time>2014-02-23T07:47:21Z</time>
      </trkpt>
      <trkpt lat="49.03655" lon="2.70392">
        <ele>115.01</ele>
        <time>2014-02-23T07:47:48Z</time>
      </trkpt>
      <trkpt lat="49.03664" lon="2.70427">
        <ele>115.01</ele>
        <time>2014-02-23T07:48:07Z</time>
      </trkpt>
      <trkpt lat="49.03671" lon="2.70463">
        <ele>115.98</ele>
        <time>2014-02-23T07:48:27Z</time>
      </trkpt>
      <trkpt lat="49.03682" lon="2.70505">
        <ele>115.01</ele>
        <time>2014-02-23T07:48:49Z</time>
      </trkpt>
      <trkpt lat="49.03692" lon="2.70539">
        <ele>115.01</ele>
        <time>2014-02-23T07:49:08Z</time>
      </trkpt>
      <trkpt lat="49.03701" lon="2.70575">
        <ele>113.09</ele>
        <time>2014-02-23T07:49:28Z</time>
      </trkpt>
      <trkpt lat="49.03712" lon="2.70615">
        <ele>112.61</ele>
        <time>2014-02-23T07:49:50Z</time>
      </trkpt>
      <trkpt lat="49.03719" lon="2.70657">
        <ele>112.13</ele>
        <time>2014-02-23T07:50:12Z</time>
      </trkpt>
      <trkpt lat="49.03725" lon="2.70705">
        <ele>112.13</ele>
        <time>2014-02-23T07:50:36Z</time>
      </trkpt>
      <trkpt lat="49.03732" lon="2.70743">
        <ele>111.65</ele>
        <time>2014-02-23T07:50:57Z</time>
      </trkpt>
      <trkpt lat="49.03735" lon="2.70779">
        <ele>111.17</ele>
        <time>2014-02-23T07:51:16Z</time>
      </trkpt>
      <trkpt lat="49.0374" lon="2.70806">
        <ele>110.69</ele>
        <time>2014-02-23T07:51:31Z</time>
      </trkpt>
      <trkpt lat="49.0374" lon="2.70815">
        <ele>111.17</ele>
        <time>2014-02-23T07:51:36Z</time>
      </trkpt>
      <trkpt lat="49.03747" lon="2.70863">
        <ele>111.17</ele>
        <time>2014-02-23T07:52:01Z</time>
      </trkpt>
      <trkpt lat="49.03753" lon="2.70906">
        <ele>111.65</ele>
        <time>2014-02-23T07:52:23Z</time>
      </trkpt>
      <trkpt lat="49.0376" lon="2.70943">
        <ele>111.17</ele>
        <time>2014-02-23T07:52:44Z</time>
      </trkpt>
      <trkpt lat="49.03765" lon="2.7098">
        <ele>110.69</ele>
        <time>2014-02-23T07:53:05Z</time>
      </trkpt>
      <trkpt lat="49.03776" lon="2.71019">
        <ele>111.17</ele>
        <time>2014-02-23T07:53:27Z</time>
      </trkpt>
      <trkpt lat="49.03792" lon="2.71059">
        <ele>112.13</ele>
        <time>2014-02-23T07:53:51Z</time>
      </trkpt>
      <trkpt lat="49.03809" lon="2.71085">
        <ele>112.13</ele>
        <time>2014-02-23T07:54:11Z</time>
      </trkpt>
      <trkpt lat="49.03829" lon="2.71113">
        <ele>111.17</ele>
        <time>2014-02-23T07:54:34Z</time>
      </trkpt>
      <trkpt lat="49.03838" lon="2.71132">
        <ele>110.69</ele>
        <time>2014-02-23T07:55:51Z</time>
      </trkpt>
      <trkpt lat="49.03828" lon="2.71151">
        <ele>110.69</ele>
        <time>2014-02-23T07:56:08Z</time>
      </trkpt>
      <trkpt lat="49.03816" lon="2.71171">
        <ele>110.69</ele>
        <time>2014-02-23T07:56:25Z</time>
      </trkpt>
      <trkpt lat="49.03802" lon="2.71195">
        <ele>110.69</ele>
        <time>2014-02-23T07:56:45Z</time>
      </trkpt>
      <trkpt lat="49.03785" lon="2.71217">
        <ele>111.17</ele>
        <time>2014-02-23T07:57:04Z</time>
      </trkpt>
      <trkpt lat="49.03768" lon="2.71238">
        <ele>111.65</ele>
        <time>2014-02-23T07:57:24Z</time>
      </trkpt>
      <trkpt lat="49.03746" lon="2.71262">
        <ele>111.65</ele>
        <time>2014-02-23T07:57:46Z</time>
      </trkpt>
      <trkpt lat="49.0373" lon="2.71282">
        <ele>112.13</ele>
        <time>2014-02-23T07:58:05Z</time>
      </trkpt>
      <trkpt lat="49.03721" lon="2.71292">
        <ele>113.09</ele>
        <time>2014-02-23T07:58:15Z</time>
      </trkpt>
      <trkpt lat="49.0371" lon="2.71305">
        <ele>111.65</ele>
        <time>2014-02-23T07:58:30Z</time>
      </trkpt>
      <trkpt lat="49.0371" lon="2.71306">
        <ele>111.65</ele>
        <time>2014-02-23T07:58:31Z</time>
      </trkpt>
      <trkpt lat="49.03693" lon="2.71331">
        <ele>112.13</ele>
        <time>2014-02-23T07:58:50Z</time>
      </trkpt>
      <trkpt lat="49.03676" lon="2.71359">
        <ele>112.61</ele>
        <time>2014-02-23T07:59:12Z</time>
      </trkpt>
      <trkpt lat="49.03666" lon="2.71379">
        <ele>111.17</ele>
        <time>2014-02-23T07:59:28Z</time>
      </trkpt>
      <trkpt lat="49.03656" lon="2.71408">
        <ele>112.13</ele>
        <time>2014-02-23T07:59:46Z</time>
      </trkpt>
      <trkpt lat="49.03642" lon="2.71436">
        <ele>110.21</ele>
        <time>2014-02-23T08:00:05Z</time>
      </trkpt>
      <trkpt lat="49.0363" lon="2.71466">
        <ele>109.73</ele>
        <time>2014-02-23T08:00:24Z</time>
      </trkpt>
      <trkpt lat="49.03617" lon="2.71499">
        <ele>110.21</ele>
        <time>2014-02-23T08:00:44Z</time>
      </trkpt>
      <trkpt lat="49.03607" lon="2.71523">
        <ele>110.69</ele>
        <time>2014-02-23T08:01:00Z</time>
      </trkpt>
      <trkpt lat="49.03593" lon="2.71553">
        <ele>109.25</ele>
        <time>2014-02-23T08:01:20Z</time>
      </trkpt>
      <trkpt lat="49.03577" lon="2.71585">
        <ele>108.29</ele>
        <time>2014-02-23T08:01:41Z</time>
      </trkpt>
      <trkpt lat="49.03562" lon="2.71617">
        <ele>106.84</ele>
        <time>2014-02-23T08:02:00Z</time>
      </trkpt>
      <trkpt lat="49.03545" lon="2.71653">
        <ele>105.4</ele>
        <time>2014-02-23T08:02:23Z</time>
      </trkpt>
      <trkpt lat="49.03534" lon="2.71676">
        <ele>104.92</ele>
        <time>2014-02-23T08:02:39Z</time>
      </trkpt>
      <trkpt lat="49.03521" lon="2.71702">
        <ele>104.44</ele>
        <time>2014-02-23T08:02:57Z</time>
      </trkpt>
      <trkpt lat="49.03507" lon="2.71737">
        <ele>106.84</ele>
        <time>2014-02-23T08:03:17Z</time>
      </trkpt>
      <trkpt lat="49.03498" lon="2.71777">
        <ele>106.84</ele>
        <time>2014-02-23T08:03:39Z</time>
      </trkpt>
      <trkpt lat="49.03493" lon="2.71816">
        <ele>105.4</ele>
        <time>2014-02-23T08:04:00Z</time>
      </trkpt>
      <trkpt lat="49.03487" lon="2.71858">
        <ele>104.92</ele>
        <time>2014-02-23T08:04:22Z</time>
      </trkpt>
      <trkpt lat="49.03485" lon="2.71893">
        <ele>103.96</ele>
        <time>2014-02-23T08:04:40Z</time>
      </trkpt>
      <trkpt lat="49.03481" lon="2.7193">
        <ele>103.48</ele>
        <time>2014-02-23T08:05:00Z</time>
      </trkpt>
      <trkpt lat="49.03476" lon="2.71962">
        <ele>102.04</ele>
        <time>2014-02-23T08:05:18Z</time>
      </trkpt>
      <trkpt lat="49.03473" lon="2.72">
        <ele>102.04</ele>
        <time>2014-02-23T08:05:38Z</time>
      </trkpt>
      <trkpt lat="49.03471" lon="2.72017">
        <ele>101.56</ele>
        <time>2014-02-23T08:05:54Z</time>
      </trkpt>
      <trkpt lat="49.0347" lon="2.72027">
        <ele>101.56</ele>
        <time>2014-02-23T08:06:01Z</time>
      </trkpt>
      <trkpt lat="49.03467" lon="2.72053">
        <ele>101.56</ele>
        <time>2014-02-23T08:06:16Z</time>
      </trkpt>
      <trkpt lat="49.03465" lon="2.7209">
        <ele>100.11</ele>
        <time>2014-02-23T08:06:38Z</time>
      </trkpt>
      <trkpt lat="49.03462" lon="2.72127">
        <ele>104.44</ele>
        <time>2014-02-23T08:06:58Z</time>
      </trkpt>
      <trkpt lat="49.03458" lon="2.72157">
        <ele>108.29</ele>
        <time>2014-02-23T08:07:15Z</time>
      </trkpt>
      <trkpt lat="49.03455" lon="2.72189">
        <ele>108.29</ele>
        <time>2014-02-23T08:07:34Z</time>
      </trkpt>
      <trkpt lat="49.03452" lon="2.72222">
        <ele>106.36</ele>
        <time>2014-02-23T08:07:52Z</time>
      </trkpt>
      <trkpt lat="49.03452" lon="2.72245">
        <ele>102.52</ele>
        <time>2014-02-23T08:08:07Z</time>
      </trkpt>
      <trkpt lat="49.0345" lon="2.72277">
        <ele>99.15</ele>
        <time>2014-02-23T08:08:26Z</time>
      </trkpt>
      <trkpt lat="49.03451" lon="2.72306">
        <ele>99.15</ele>
        <time>2014-02-23T08:08:43Z</time>
      </trkpt>
      <trkpt lat="49.0345" lon="2.7232">
        <ele>99.63</ele>
        <time>2014-02-23T08:08:55Z</time>
      </trkpt>
      <trkpt lat="49.03447" lon="2.72334">
        <ele>100.6</ele>
        <time>2014-02-23T08:09:07Z</time>
      </trkpt>
      <trkpt lat="49.03447" lon="2.72347">
        <ele>99.15</ele>
        <time>2014-02-23T08:09:21Z</time>
      </trkpt>
      <trkpt lat="49.03443" lon="2.72367">
        <ele>100.11</ele>
        <time>2014-02-23T08:09:36Z</time>
      </trkpt>
      <trkpt lat="49.03442" lon="2.72386">
        <ele>101.08</ele>
        <time>2014-02-23T08:09:51Z</time>
      </trkpt>
      <trkpt lat="49.03441" lon="2.72412">
        <ele>102.52</ele>
        <time>2014-02-23T08:10:05Z</time>
      </trkpt>
      <trkpt lat="49.03439" lon="2.7248">
        <ele>112.61</ele>
        <time>2014-02-23T08:19:45Z</time>
      </trkpt>
      <trkpt lat="49.03434" lon="2.72515">
        <ele>110.69</ele>
        <time>2014-02-23T08:20:03Z</time>
      </trkpt>
      <trkpt lat="49.03427" lon="2.72566">
        <ele>106.84</ele>
        <time>2014-02-23T08:20:23Z</time>
      </trkpt>
      <trkpt lat="49.0342" lon="2.72598">
        <ele>107.81</ele>
        <time>2014-02-23T08:20:41Z</time>
      </trkpt>
      <trkpt lat="49.03414" lon="2.72618">
        <ele>109.25</ele>
        <time>2014-02-23T08:20:59Z</time>
      </trkpt>
      <trkpt lat="49.03411" lon="2.7262">
        <ele>109.73</ele>
        <time>2014-02-23T08:21:17Z</time>
      </trkpt>
      <trkpt lat="49.03402" lon="2.72635">
        <ele>106.84</ele>
        <time>2014-02-23T08:21:38Z</time>
      </trkpt>
      <trkpt lat="49.03384" lon="2.72677">
        <ele>104.92</ele>
        <time>2014-02-23T08:21:57Z</time>
      </trkpt>
      <trkpt lat="49.03381" lon="2.72686">
        <ele>105.88</ele>
        <time>2014-02-23T08:22:17Z</time>
      </trkpt>
      <trkpt lat="49.03362" lon="2.72738">
        <ele>108.29</ele>
        <time>2014-02-23T08:22:38Z</time>
      </trkpt>
      <trkpt lat="49.03335" lon="2.72783">
        <ele>114.53</ele>
        <time>2014-02-23T08:22:56Z</time>
      </trkpt>
      <trkpt lat="49.03327" lon="2.72814">
        <ele>116.94</ele>
        <time>2014-02-23T08:23:16Z</time>
      </trkpt>
      <trkpt lat="49.03328" lon="2.7282">
        <ele>115.01</ele>
        <time>2014-02-23T08:23:35Z</time>
      </trkpt>
      <trkpt lat="49.03313" lon="2.72868">
        <ele>112.61</ele>
        <time>2014-02-23T08:23:56Z</time>
      </trkpt>
      <trkpt lat="49.03302" lon="2.72892">
        <ele>111.65</ele>
        <time>2014-02-23T08:24:15Z</time>
      </trkpt>
      <trkpt lat="49.03291" lon="2.7293">
        <ele>109.73</ele>
        <time>2014-02-23T08:24:36Z</time>
      </trkpt>
      <trkpt lat="49.03279" lon="2.72964">
        <ele>113.57</ele>
        <time>2014-02-23T08:24:55Z</time>
      </trkpt>
      <trkpt lat="49.03268" lon="2.72985">
        <ele>116.46</ele>
        <time>2014-02-23T08:25:09Z</time>
      </trkpt>
      <trkpt lat="49.0326" lon="2.72996">
        <ele>116.46</ele>
        <time>2014-02-23T08:25:20Z</time>
      </trkpt>
      <trkpt lat="49.03254" lon="2.73004">
        <ele>118.86</ele>
        <time>2014-02-23T08:25:33Z</time>
      </trkpt>
      <trkpt lat="49.03247" lon="2.7302">
        <ele>120.3</ele>
        <time>2014-02-23T08:25:47Z</time>
      </trkpt>
      <trkpt lat="49.03241" lon="2.73039">
        <ele>121.26</ele>
        <time>2014-02-23T08:26:00Z</time>
      </trkpt>
      <trkpt lat="49.03232" lon="2.7305">
        <ele>122.22</ele>
        <time>2014-02-23T08:26:15Z</time>
      </trkpt>
      <trkpt lat="49.03226" lon="2.73062">
        <ele>124.15</ele>
        <time>2014-02-23T08:26:28Z</time>
      </trkpt>
      <trkpt lat="49.03219" lon="2.73075">
        <ele>126.07</ele>
        <time>2014-02-23T08:26:38Z</time>
      </trkpt>
      <trkpt lat="49.03209" lon="2.73088">
        <ele>127.03</ele>
        <time>2014-02-23T08:26:52Z</time>
      </trkpt>
      <trkpt lat="49.03196" lon="2.73102">
        <ele>128.47</ele>
        <time>2014-02-23T08:27:04Z</time>
      </trkpt>
      <trkpt lat="49.03188" lon="2.73118">
        <ele>127.03</ele>
        <time>2014-02-23T08:27:19Z</time>
      </trkpt>
      <trkpt lat="49.03182" lon="2.73133">
        <ele>125.59</ele>
        <time>2014-02-23T08:27:31Z</time>
      </trkpt>
      <trkpt lat="49.03181" lon="2.73141">
        <ele>125.11</ele>
        <time>2014-02-23T08:27:44Z</time>
      </trkpt>
      <trkpt lat="49.0318" lon="2.73152">
        <ele>124.15</ele>
        <time>2014-02-23T08:27:59Z</time>
      </trkpt>
      <trkpt lat="49.03179" lon="2.73157">
        <ele>121.74</ele>
        <time>2014-02-23T08:28:17Z</time>
      </trkpt>
      <trkpt lat="49.03179" lon="2.73163">
        <ele>120.3</ele>
        <time>2014-02-23T08:28:30Z</time>
      </trkpt>
      <trkpt lat="49.03179" lon="2.7319">
        <ele>113.57</ele>
        <time>2014-02-23T08:28:43Z</time>
      </trkpt>
      <trkpt lat="49.03174" lon="2.73194">
        <ele>114.05</ele>
        <time>2014-02-23T08:28:50Z</time>
      </trkpt>
      <trkpt lat="49.03175" lon="2.73201">
        <ele>114.05</ele>
        <time>2014-02-23T08:28:54Z</time>
      </trkpt>
      <trkpt lat="49.03177" lon="2.73228">
        <ele>115.98</ele>
        <time>2014-02-23T08:29:08Z</time>
      </trkpt>
      <trkpt lat="49.03181" lon="2.73253">
        <ele>115.5</ele>
        <time>2014-02-23T08:29:22Z</time>
      </trkpt>
      <trkpt lat="49.03183" lon="2.73272">
        <ele>113.57</ele>
        <time>2014-02-23T08:29:35Z</time>
      </trkpt>
      <trkpt lat="49.03183" lon="2.73273">
        <ele>113.09</ele>
        <time>2014-02-23T08:29:50Z</time>
      </trkpt>
      <trkpt lat="49.03185" lon="2.73272">
        <ele>112.61</ele>
        <time>2014-02-23T08:30:04Z</time>
      </trkpt>
      <trkpt lat="49.03188" lon="2.73272">
        <ele>110.69</ele>
        <time>2014-02-23T08:30:14Z</time>
      </trkpt>
      <trkpt lat="49.03183" lon="2.73291">
        <ele>109.25</ele>
        <time>2014-02-23T08:32:51Z</time>
      </trkpt>
      <trkpt lat="49.03188" lon="2.73292">
        <ele>107.32</ele>
        <time>2014-02-23T08:33:14Z</time>
      </trkpt>
      <trkpt lat="49.03182" lon="2.73297">
        <ele>104.92</ele>
        <time>2014-02-23T08:33:43Z</time>
      </trkpt>
      <trkpt lat="49.03154" lon="2.73308">
        <ele>112.61</ele>
        <time>2014-02-23T08:34:04Z</time>
      </trkpt>
      <trkpt lat="49.03138" lon="2.73309">
        <ele>111.65</ele>
        <time>2014-02-23T08:34:26Z</time>
      </trkpt>
      <trkpt lat="49.03118" lon="2.73315">
        <ele>110.21</ele>
        <time>2014-02-23T08:34:53Z</time>
      </trkpt>
      <trkpt lat="49.03086" lon="2.73332">
        <ele>104.44</ele>
        <time>2014-02-23T08:35:18Z</time>
      </trkpt>
      <trkpt lat="49.03061" lon="2.7333">
        <ele>103.96</ele>
        <time>2014-02-23T08:35:38Z</time>
      </trkpt>
      <trkpt lat="49.03037" lon="2.73328">
        <ele>106.84</ele>
        <time>2014-02-23T08:35:57Z</time>
      </trkpt>
      <trkpt lat="49.03026" lon="2.73327">
        <ele>107.81</ele>
        <time>2014-02-23T08:36:14Z</time>
      </trkpt>
      <trkpt lat="49.03015" lon="2.73331">
        <ele>107.81</ele>
        <time>2014-02-23T08:36:29Z</time>
      </trkpt>
      <trkpt lat="49.03014" lon="2.7335">
        <ele>107.32</ele>
        <time>2014-02-23T08:36:43Z</time>
      </trkpt>
      <trkpt lat="49.03015" lon="2.73388">
        <ele>108.77</ele>
        <time>2014-02-23T08:37:05Z</time>
      </trkpt>
      <trkpt lat="49.03015" lon="2.73423">
        <ele>110.69</ele>
        <time>2014-02-23T08:37:26Z</time>
      </trkpt>
      <trkpt lat="49.03016" lon="2.73463">
        <ele>111.17</ele>
        <time>2014-02-23T08:37:48Z</time>
      </trkpt>
      <trkpt lat="49.03018" lon="2.73502">
        <ele>111.17</ele>
        <time>2014-02-23T08:38:11Z</time>
      </trkpt>
      <trkpt lat="49.03013" lon="2.73536">
        <ele>112.13</ele>
        <time>2014-02-23T08:38:29Z</time>
      </trkpt>
      <trkpt lat="49.03011" lon="2.73563">
        <ele>114.53</ele>
        <time>2014-02-23T08:38:47Z</time>
      </trkpt>
      <trkpt lat="49.03012" lon="2.73582">
        <ele>113.57</ele>
        <time>2014-02-23T08:39:06Z</time>
      </trkpt>
      <trkpt lat="49.03012" lon="2.73587">
        <ele>113.09</ele>
        <time>2014-02-23T08:39:24Z</time>
      </trkpt>
      <trkpt lat="49.03012" lon="2.73586">
        <ele>112.61</ele>
        <time>2014-02-23T08:39:43Z</time>
      </trkpt>
      <trkpt lat="49.03012" lon="2.73587">
        <ele>112.61</ele>
        <time>2014-02-23T08:40:10Z</time>
      </trkpt>
      <trkpt lat="49.03011" lon="2.73598">
        <ele>113.09</ele>
        <time>2014-02-23T08:40:18Z</time>
      </trkpt>
      <trkpt lat="49.03006" lon="2.73627">
        <ele>112.61</ele>
        <time>2014-02-23T08:40:35Z</time>
      </trkpt>
      <trkpt lat="49.02999" lon="2.73661">
        <ele>113.09</ele>
        <time>2014-02-23T08:40:56Z</time>
      </trkpt>
      <trkpt lat="49.02991" lon="2.73694">
        <ele>112.13</ele>
        <time>2014-02-23T08:41:16Z</time>
      </trkpt>
      <trkpt lat="49.02982" lon="2.73724">
        <ele>111.65</ele>
        <time>2014-02-23T08:41:37Z</time>
      </trkpt>
      <trkpt lat="49.02981" lon="2.73736">
        <ele>110.69</ele>
        <time>2014-02-23T08:41:52Z</time>
      </trkpt>
      <trkpt lat="49.02992" lon="2.7373">
        <ele>110.69</ele>
        <time>2014-02-23T08:42:08Z</time>
      </trkpt>
      <trkpt lat="49.03004" lon="2.7373">
        <ele>110.69</ele>
        <time>2014-02-23T08:42:20Z</time>
      </trkpt>
      <trkpt lat="49.03032" lon="2.73735">
        <ele>110.69</ele>
        <time>2014-02-23T08:42:43Z</time>
      </trkpt>
      <trkpt lat="49.03059" lon="2.73745">
        <ele>111.17</ele>
        <time>2014-02-23T08:43:06Z</time>
      </trkpt>
      <trkpt lat="49.03072" lon="2.73759">
        <ele>113.09</ele>
        <time>2014-02-23T08:43:24Z</time>
      </trkpt>
      <trkpt lat="49.03086" lon="2.73776">
        <ele>111.65</ele>
        <time>2014-02-23T08:43:46Z</time>
      </trkpt>
      <trkpt lat="49.03112" lon="2.73792">
        <ele>111.17</ele>
        <time>2014-02-23T08:44:10Z</time>
      </trkpt>
      <trkpt lat="49.03134" lon="2.73806">
        <ele>113.57</ele>
        <time>2014-02-23T08:44:33Z</time>
      </trkpt>
      <trkpt lat="49.03151" lon="2.73827">
        <ele>114.05</ele>
        <time>2014-02-23T08:44:55Z</time>
      </trkpt>
      <trkpt lat="49.03154" lon="2.73845">
        <ele>113.57</ele>
        <time>2014-02-23T08:45:09Z</time>
      </trkpt>
      <trkpt lat="49.03155" lon="2.73873">
        <ele>115.98</ele>
        <time>2014-02-23T08:45:28Z</time>
      </trkpt>
      <trkpt lat="49.03156" lon="2.73912">
        <ele>119.82</ele>
        <time>2014-02-23T08:45:50Z</time>
      </trkpt>
      <trkpt lat="49.03157" lon="2.73943">
        <ele>121.74</ele>
        <time>2014-02-23T08:46:12Z</time>
      </trkpt>
      <trkpt lat="49.03157" lon="2.73979">
        <ele>124.63</ele>
        <time>2014-02-23T08:46:35Z</time>
      </trkpt>
      <trkpt lat="49.03154" lon="2.73991">
        <ele>125.11</ele>
        <time>2014-02-23T08:46:55Z</time>
      </trkpt>
      <trkpt lat="49.03157" lon="2.7403">
        <ele>122.22</ele>
        <time>2014-02-23T08:47:13Z</time>
      </trkpt>
      <trkpt lat="49.03159" lon="2.74067">
        <ele>124.15</ele>
        <time>2014-02-23T08:47:34Z</time>
      </trkpt>
      <trkpt lat="49.03148" lon="2.74095">
        <ele>126.07</ele>
        <time>2014-02-23T08:47:58Z</time>
      </trkpt>
      <trkpt lat="49.03133" lon="2.74131">
        <ele>126.07</ele>
        <time>2014-02-23T08:48:20Z</time>
      </trkpt>
      <trkpt lat="49.03117" lon="2.74161">
        <ele>127.99</ele>
        <time>2014-02-23T08:48:42Z</time>
      </trkpt>
      <trkpt lat="49.031" lon="2.74178">
        <ele>127.51</ele>
        <time>2014-02-23T08:49:03Z</time>
      </trkpt>
      <trkpt lat="49.03086" lon="2.74196">
        <ele>126.55</ele>
        <time>2014-02-23T08:49:25Z</time>
      </trkpt>
      <trkpt lat="49.03071" lon="2.74241">
        <ele>126.07</ele>
        <time>2014-02-23T08:49:49Z</time>
      </trkpt>
      <trkpt lat="49.03059" lon="2.74277">
        <ele>126.07</ele>
        <time>2014-02-23T08:50:13Z</time>
      </trkpt>
      <trkpt lat="49.03052" lon="2.74297">
        <ele>127.03</ele>
        <time>2014-02-23T08:50:32Z</time>
      </trkpt>
      <trkpt lat="49.03045" lon="2.7431">
        <ele>126.55</ele>
        <time>2014-02-23T08:50:54Z</time>
      </trkpt>
      <trkpt lat="49.03025" lon="2.74341">
        <ele>123.19</ele>
        <time>2014-02-23T08:51:17Z</time>
      </trkpt>
      <trkpt lat="49.03008" lon="2.74366">
        <ele>125.59</ele>
        <time>2014-02-23T08:51:37Z</time>
      </trkpt>
      <trkpt lat="49.03" lon="2.7438">
        <ele>128.47</ele>
        <time>2014-02-23T08:51:48Z</time>
      </trkpt>
      <trkpt lat="49.0299" lon="2.74402">
        <ele>127.99</ele>
        <time>2014-02-23T08:52:03Z</time>
      </trkpt>
      <trkpt lat="49.02989" lon="2.74406">
        <ele>127.99</ele>
        <time>2014-02-23T08:52:05Z</time>
      </trkpt>
      <trkpt lat="49.02977" lon="2.74431">
        <ele>130.4</ele>
        <time>2014-02-23T08:52:22Z</time>
      </trkpt>
      <trkpt lat="49.02969" lon="2.74453">
        <ele>130.4</ele>
        <time>2014-02-23T08:52:38Z</time>
      </trkpt>
      <trkpt lat="49.02961" lon="2.74474">
        <ele>128.95</ele>
        <time>2014-02-23T08:52:52Z</time>
      </trkpt>
      <trkpt lat="49.02951" lon="2.74493">
        <ele>128.47</ele>
        <time>2014-02-23T08:53:07Z</time>
      </trkpt>
      <trkpt lat="49.02943" lon="2.74512">
        <ele>127.51</ele>
        <time>2014-02-23T08:53:23Z</time>
      </trkpt>
      <trkpt lat="49.02931" lon="2.74537">
        <ele>130.4</ele>
        <time>2014-02-23T08:53:40Z</time>
      </trkpt>
      <trkpt lat="49.02923" lon="2.74563">
        <ele>134.24</ele>
        <time>2014-02-23T08:54:00Z</time>
      </trkpt>
      <trkpt lat="49.02916" lon="2.74586">
        <ele>136.64</ele>
        <time>2014-02-23T08:54:15Z</time>
      </trkpt>
      <trkpt lat="49.02906" lon="2.74622">
        <ele>140.49</ele>
        <time>2014-02-23T08:54:34Z</time>
      </trkpt>
      <trkpt lat="49.029" lon="2.74649">
        <ele>140.49</ele>
        <time>2014-02-23T08:54:53Z</time>
      </trkpt>
      <trkpt lat="49.02896" lon="2.74675">
        <ele>142.41</ele>
        <time>2014-02-23T08:55:10Z</time>
      </trkpt>
      <trkpt lat="49.02895" lon="2.74703">
        <ele>148.66</ele>
        <time>2014-02-23T08:55:26Z</time>
      </trkpt>
      <trkpt lat="49.02887" lon="2.7473">
        <ele>152.03</ele>
        <time>2014-02-23T08:55:42Z</time>
      </trkpt>
      <trkpt lat="49.02877" lon="2.74752">
        <ele>152.99</ele>
        <time>2014-02-23T08:55:57Z</time>
      </trkpt>
      <trkpt lat="49.02868" lon="2.74774">
        <ele>154.91</ele>
        <time>2014-02-23T08:56:15Z</time>
      </trkpt>
      <trkpt lat="49.0287" lon="2.7478">
        <ele>154.43</ele>
        <time>2014-02-23T08:56:20Z</time>
      </trkpt>
      <trkpt lat="49.02877" lon="2.74796">
        <ele>155.87</ele>
        <time>2014-02-23T08:56:35Z</time>
      </trkpt>
      <trkpt lat="49.02878" lon="2.74795">
        <ele>156.35</ele>
        <time>2014-02-23T08:56:53Z</time>
      </trkpt>
      <trkpt lat="49.02878" lon="2.74797">
        <ele>156.83</ele>
        <time>2014-02-23T08:57:07Z</time>
      </trkpt>
      <trkpt lat="49.02874" lon="2.74813">
        <ele>157.79</ele>
        <time>2014-02-23T08:57:22Z</time>
      </trkpt>
      <trkpt lat="49.02873" lon="2.74821">
        <ele>158.27</ele>
        <time>2014-02-23T08:57:35Z</time>
      </trkpt>
      <trkpt lat="49.02874" lon="2.74827">
        <ele>159.24</ele>
        <time>2014-02-23T08:57:48Z</time>
      </trkpt>
      <trkpt lat="49.02874" lon="2.74827">
        <ele>159.72</ele>
        <time>2014-02-23T08:58:08Z</time>
      </trkpt>
      <trkpt lat="49.02873" lon="2.74831">
        <ele>161.16</ele>
        <time>2014-02-23T08:58:32Z</time>
      </trkpt>
      <trkpt lat="49.02873" lon="2.74831">
        <ele>162.6</ele>
        <time>2014-02-23T08:59:03Z</time>
      </trkpt>
      <trkpt lat="49.02874" lon="2.7483">
        <ele>162.6</ele>
        <time>2014-02-23T08:59:27Z</time>
      </trkpt>
      <trkpt lat="49.02874" lon="2.74828">
        <ele>163.56</ele>
        <time>2014-02-23T08:59:55Z</time>
      </trkpt>
      <trkpt lat="49.02874" lon="2.74827">
        <ele>164.04</ele>
        <time>2014-02-23T09:00:16Z</time>
      </trkpt>
      <trkpt lat="49.02874" lon="2.74829">
        <ele>164.52</ele>
        <time>2014-02-23T09:00:36Z</time>
      </trkpt>
      <trkpt lat="49.02873" lon="2.74831">
        <ele>165</ele>
        <time>2014-02-23T09:01:00Z</time>
      </trkpt>
      <trkpt lat="49.02872" lon="2.7483">
        <ele>166.45</ele>
        <time>2014-02-23T09:01:28Z</time>
      </trkpt>
      <trkpt lat="49.02868" lon="2.74834">
        <ele>165</ele>
        <time>2014-02-23T09:01:42Z</time>
      </trkpt>
      <trkpt lat="49.02867" lon="2.74837">
        <ele>164.52</ele>
        <time>2014-02-23T09:01:45Z</time>
      </trkpt>
      <trkpt lat="49.02861" lon="2.74856">
        <ele>162.12</ele>
        <time>2014-02-23T09:02:01Z</time>
      </trkpt>
      <trkpt lat="49.02851" lon="2.74882">
        <ele>163.08</ele>
        <time>2014-02-23T09:02:19Z</time>
      </trkpt>
      <trkpt lat="49.0285" lon="2.74887">
        <ele>163.56</ele>
        <time>2014-02-23T09:02:22Z</time>
      </trkpt>
      <trkpt lat="49.0285" lon="2.74897">
        <ele>164.04</ele>
        <time>2014-02-23T09:02:29Z</time>
      </trkpt>
      <trkpt lat="49.02855" lon="2.74921">
        <ele>162.12</ele>
        <time>2014-02-23T09:02:45Z</time>
      </trkpt>
      <trkpt lat="49.02859" lon="2.74929">
        <ele>160.2</ele>
        <time>2014-02-23T09:02:55Z</time>
      </trkpt>
      <trkpt lat="49.02861" lon="2.74955">
        <ele>158.27</ele>
        <time>2014-02-23T09:03:09Z</time>
      </trkpt>
      <trkpt lat="49.02862" lon="2.74958">
        <ele>159.24</ele>
        <time>2014-02-23T09:03:11Z</time>
      </trkpt>
      <trkpt lat="49.0287" lon="2.7497">
        <ele>162.12</ele>
        <time>2014-02-23T09:03:20Z</time>
      </trkpt>
      <trkpt lat="49.0288" lon="2.74981">
        <ele>165</ele>
        <time>2014-02-23T09:03:33Z</time>
      </trkpt>
      <trkpt lat="49.02893" lon="2.7499">
        <ele>164.52</ele>
        <time>2014-02-23T09:03:48Z</time>
      </trkpt>
      <trkpt lat="49.02904" lon="2.74997">
        <ele>165.48</ele>
        <time>2014-02-23T09:04:02Z</time>
      </trkpt>
      <trkpt lat="49.02915" lon="2.75006">
        <ele>166.93</ele>
        <time>2014-02-23T09:04:14Z</time>
      </trkpt>
      <trkpt lat="49.02929" lon="2.75018">
        <ele>169.33</ele>
        <time>2014-02-23T09:04:28Z</time>
      </trkpt>
      <trkpt lat="49.02932" lon="2.75019">
        <ele>169.33</ele>
        <time>2014-02-23T09:04:32Z</time>
      </trkpt>
      <trkpt lat="49.02948" lon="2.7503">
        <ele>170.77</ele>
        <time>2014-02-23T09:04:48Z</time>
      </trkpt>
      <trkpt lat="49.02966" lon="2.75043">
        <ele>172.69</ele>
        <time>2014-02-23T09:05:02Z</time>
      </trkpt>
      <trkpt lat="49.02969" lon="2.75045">
        <ele>173.66</ele>
        <time>2014-02-23T09:05:04Z</time>
      </trkpt>
      <trkpt lat="49.02971" lon="2.75049">
        <ele>174.62</ele>
        <time>2014-02-23T09:05:09Z</time>
      </trkpt>
      <trkpt lat="49.02983" lon="2.75068">
        <ele>176.54</ele>
        <time>2014-02-23T09:05:25Z</time>
      </trkpt>
      <trkpt lat="49.02993" lon="2.75083">
        <ele>177.02</ele>
        <time>2014-02-23T09:05:40Z</time>
      </trkpt>
      <trkpt lat="49.03004" lon="2.75096">
        <ele>179.42</ele>
        <time>2014-02-23T09:05:54Z</time>
      </trkpt>
      <trkpt lat="49.0301" lon="2.75104">
        <ele>183.75</ele>
        <time>2014-02-23T09:06:06Z</time>
      </trkpt>
      <trkpt lat="49.03014" lon="2.75115">
        <ele>194.32</ele>
        <time>2014-02-23T09:08:30Z</time>
      </trkpt>
      <trkpt lat="49.03004" lon="2.75126">
        <ele>196.25</ele>
        <time>2014-02-23T09:08:45Z</time>
      </trkpt>
      <trkpt lat="49.02998" lon="2.75143">
        <ele>192.4</ele>
        <time>2014-02-23T09:08:56Z</time>
      </trkpt>
      <trkpt lat="49.02984" lon="2.75163">
        <ele>187.59</ele>
        <time>2014-02-23T09:09:11Z</time>
      </trkpt>
      <trkpt lat="49.02981" lon="2.75168">
        <ele>187.59</ele>
        <time>2014-02-23T09:09:19Z</time>
      </trkpt>
      <trkpt lat="49.02964" lon="2.75192">
        <ele>190</ele>
        <time>2014-02-23T09:09:34Z</time>
      </trkpt>
      <trkpt lat="49.02955" lon="2.75203">
        <ele>190.48</ele>
        <time>2014-02-23T09:09:42Z</time>
      </trkpt>
      <trkpt lat="49.02947" lon="2.75229">
        <ele>190.48</ele>
        <time>2014-02-23T09:09:56Z</time>
      </trkpt>
      <trkpt lat="49.02946" lon="2.75258">
        <ele>188.08</ele>
        <time>2014-02-23T09:10:11Z</time>
      </trkpt>
      <trkpt lat="49.02944" lon="2.7528">
        <ele>189.04</ele>
        <time>2014-02-23T09:10:24Z</time>
      </trkpt>
      <trkpt lat="49.02939" lon="2.75312">
        <ele>189.52</ele>
        <time>2014-02-23T09:10:39Z</time>
      </trkpt>
      <trkpt lat="49.0293" lon="2.75338">
        <ele>189.52</ele>
        <time>2014-02-23T09:10:54Z</time>
      </trkpt>
      <trkpt lat="49.02916" lon="2.75362">
        <ele>189.04</ele>
        <time>2014-02-23T09:11:11Z</time>
      </trkpt>
      <trkpt lat="49.02905" lon="2.7538">
        <ele>189.52</ele>
        <time>2014-02-23T09:11:24Z</time>
      </trkpt>
      <trkpt lat="49.02891" lon="2.75405">
        <ele>189.52</ele>
        <time>2014-02-23T09:11:39Z</time>
      </trkpt>
      <trkpt lat="49.0288" lon="2.75425">
        <ele>191.44</ele>
        <time>2014-02-23T09:11:53Z</time>
      </trkpt>
      <trkpt lat="49.0287" lon="2.75434">
        <ele>194.8</ele>
        <time>2014-02-23T09:12:08Z</time>
      </trkpt>
      <trkpt lat="49.02863" lon="2.75442">
        <ele>194.8</ele>
        <time>2014-02-23T09:12:26Z</time>
      </trkpt>
      <trkpt lat="49.0285" lon="2.75453">
        <ele>192.88</ele>
        <time>2014-02-23T09:12:40Z</time>
      </trkpt>
      <trkpt lat="49.02841" lon="2.75477">
        <ele>190.96</ele>
        <time>2014-02-23T09:12:56Z</time>
      </trkpt>
      <trkpt lat="49.02835" lon="2.75497">
        <ele>188.56</ele>
        <time>2014-02-23T09:13:10Z</time>
      </trkpt>
      <trkpt lat="49.02828" lon="2.75518">
        <ele>187.11</ele>
        <time>2014-02-23T09:13:25Z</time>
      </trkpt>
      <trkpt lat="49.02818" lon="2.7553">
        <ele>185.19</ele>
        <time>2014-02-23T09:13:39Z</time>
      </trkpt>
      <trkpt lat="49.02812" lon="2.75543">
        <ele>184.71</ele>
        <time>2014-02-23T09:13:52Z</time>
      </trkpt>
      <trkpt lat="49.02805" lon="2.75565">
        <ele>185.19</ele>
        <time>2014-02-23T09:14:06Z</time>
      </trkpt>
      <trkpt lat="49.02803" lon="2.7557">
        <ele>185.19</ele>
        <time>2014-02-23T09:14:11Z</time>
      </trkpt>
      <trkpt lat="49.02798" lon="2.75588">
        <ele>185.67</ele>
        <time>2014-02-23T09:14:28Z</time>
      </trkpt>
      <trkpt lat="49.02794" lon="2.75614">
        <ele>185.19</ele>
        <time>2014-02-23T09:14:44Z</time>
      </trkpt>
      <trkpt lat="49.02791" lon="2.75637">
        <ele>184.71</ele>
        <time>2014-02-23T09:15:00Z</time>
      </trkpt>
      <trkpt lat="49.02781" lon="2.75657">
        <ele>184.23</ele>
        <time>2014-02-23T09:15:15Z</time>
      </trkpt>
      <trkpt lat="49.02777" lon="2.75675">
        <ele>185.67</ele>
        <time>2014-02-23T09:15:30Z</time>
      </trkpt>
      <trkpt lat="49.02778" lon="2.75696">
        <ele>184.71</ele>
        <time>2014-02-23T09:15:46Z</time>
      </trkpt>
      <trkpt lat="49.02786" lon="2.75723">
        <ele>184.23</ele>
        <time>2014-02-23T09:16:05Z</time>
      </trkpt>
      <trkpt lat="49.02789" lon="2.75752">
        <ele>186.15</ele>
        <time>2014-02-23T09:16:22Z</time>
      </trkpt>
      <trkpt lat="49.0279" lon="2.75754">
        <ele>186.15</ele>
        <time>2014-02-23T09:16:23Z</time>
      </trkpt>
      <trkpt lat="49.02796" lon="2.75781">
        <ele>186.63</ele>
        <time>2014-02-23T09:16:39Z</time>
      </trkpt>
      <trkpt lat="49.02796" lon="2.75802">
        <ele>187.59</ele>
        <time>2014-02-23T09:16:51Z</time>
      </trkpt>
      <trkpt lat="49.02794" lon="2.75827">
        <ele>188.56</ele>
        <time>2014-02-23T09:17:06Z</time>
      </trkpt>
      <trkpt lat="49.02791" lon="2.7585">
        <ele>188.08</ele>
        <time>2014-02-23T09:17:22Z</time>
      </trkpt>
      <trkpt lat="49.02792" lon="2.75866">
        <ele>183.75</ele>
        <time>2014-02-23T09:17:35Z</time>
      </trkpt>
      <trkpt lat="49.02795" lon="2.75884">
        <ele>180.87</ele>
        <time>2014-02-23T09:17:51Z</time>
      </trkpt>
      <trkpt lat="49.0279" lon="2.75908">
        <ele>180.87</ele>
        <time>2014-02-23T09:18:05Z</time>
      </trkpt>
      <trkpt lat="49.02789" lon="2.75938">
        <ele>183.27</ele>
        <time>2014-02-23T09:18:23Z</time>
      </trkpt>
      <trkpt lat="49.02792" lon="2.75961">
        <ele>184.71</ele>
        <time>2014-02-23T09:18:39Z</time>
      </trkpt>
      <trkpt lat="49.02792" lon="2.75964">
        <ele>184.71</ele>
        <time>2014-02-23T09:18:41Z</time>
      </trkpt>
      <trkpt lat="49.02786" lon="2.75995">
        <ele>185.67</ele>
        <time>2014-02-23T09:18:56Z</time>
      </trkpt>
      <trkpt lat="49.02782" lon="2.76021">
        <ele>183.75</ele>
        <time>2014-02-23T09:19:11Z</time>
      </trkpt>
      <trkpt lat="49.02779" lon="2.7604">
        <ele>181.83</ele>
        <time>2014-02-23T09:19:25Z</time>
      </trkpt>
      <trkpt lat="49.02777" lon="2.76074">
        <ele>185.19</ele>
        <time>2014-02-23T09:19:40Z</time>
      </trkpt>
      <trkpt lat="49.02778" lon="2.76102">
        <ele>185.19</ele>
        <time>2014-02-23T09:19:56Z</time>
      </trkpt>
      <trkpt lat="49.0278" lon="2.76119">
        <ele>184.71</ele>
        <time>2014-02-23T09:20:14Z</time>
      </trkpt>
      <trkpt lat="49.0278" lon="2.7614">
        <ele>184.23</ele>
        <time>2014-02-23T09:20:30Z</time>
      </trkpt>
      <trkpt lat="49.02779" lon="2.76159">
        <ele>184.71</ele>
        <time>2014-02-23T09:20:44Z</time>
      </trkpt>
      <trkpt lat="49.02787" lon="2.76185">
        <ele>188.08</ele>
        <time>2014-02-23T09:20:58Z</time>
      </trkpt>
      <trkpt lat="49.02799" lon="2.76205">
        <ele>189.04</ele>
        <time>2014-02-23T09:21:16Z</time>
      </trkpt>
      <trkpt lat="49.02807" lon="2.76226">
        <ele>186.63</ele>
        <time>2014-02-23T09:21:33Z</time>
      </trkpt>
      <trkpt lat="49.0281" lon="2.76251">
        <ele>182.79</ele>
        <time>2014-02-23T09:21:52Z</time>
      </trkpt>
      <trkpt lat="49.02813" lon="2.76261">
        <ele>181.83</ele>
        <time>2014-02-23T09:22:05Z</time>
      </trkpt>
      <trkpt lat="49.02815" lon="2.76286">
        <ele>182.31</ele>
        <time>2014-02-23T09:22:19Z</time>
      </trkpt>
      <trkpt lat="49.02815" lon="2.76306">
        <ele>180.87</ele>
        <time>2014-02-23T09:22:35Z</time>
      </trkpt>
      <trkpt lat="49.0281" lon="2.76326">
        <ele>179.42</ele>
        <time>2014-02-23T09:22:50Z</time>
      </trkpt>
      <trkpt lat="49.02804" lon="2.76337">
        <ele>178.46</ele>
        <time>2014-02-23T09:23:10Z</time>
      </trkpt>
      <trkpt lat="49.02802" lon="2.76339">
        <ele>178.94</ele>
        <time>2014-02-23T09:23:28Z</time>
      </trkpt>
      <trkpt lat="49.02802" lon="2.76341">
        <ele>178.46</ele>
        <time>2014-02-23T09:23:50Z</time>
      </trkpt>
      <trkpt lat="49.02799" lon="2.76346">
        <ele>178.94</ele>
        <time>2014-02-23T09:24:10Z</time>
      </trkpt>
      <trkpt lat="49.02792" lon="2.76351">
        <ele>182.31</ele>
        <time>2014-02-23T09:24:28Z</time>
      </trkpt>
      <trkpt lat="49.02781" lon="2.76355">
        <ele>188.08</ele>
        <time>2014-02-23T09:24:45Z</time>
      </trkpt>
      <trkpt lat="49.02775" lon="2.76357">
        <ele>191.92</ele>
        <time>2014-02-23T09:25:01Z</time>
      </trkpt>
      <trkpt lat="49.02776" lon="2.76362">
        <ele>193.36</ele>
        <time>2014-02-23T09:25:24Z</time>
      </trkpt>
      <trkpt lat="49.02767" lon="2.76374">
        <ele>195.28</ele>
        <time>2014-02-23T09:25:37Z</time>
      </trkpt>
      <trkpt lat="49.0274" lon="2.76406">
        <ele>190.96</ele>
        <time>2014-02-23T09:25:55Z</time>
      </trkpt>
      <trkpt lat="49.02731" lon="2.76421">
        <ele>190.48</ele>
        <time>2014-02-23T09:26:10Z</time>
      </trkpt>
      <trkpt lat="49.02717" lon="2.76438">
        <ele>188.56</ele>
        <time>2014-02-23T09:26:23Z</time>
      </trkpt>
      <trkpt lat="49.02712" lon="2.76453">
        <ele>184.71</ele>
        <time>2014-02-23T09:26:39Z</time>
      </trkpt>
      <trkpt lat="49.02711" lon="2.76462">
        <ele>183.27</ele>
        <time>2014-02-23T09:26:52Z</time>
      </trkpt>
      <trkpt lat="49.02708" lon="2.7648">
        <ele>182.79</ele>
        <time>2014-02-23T09:27:05Z</time>
      </trkpt>
      <trkpt lat="49.02706" lon="2.76502">
        <ele>185.19</ele>
        <time>2014-02-23T09:27:19Z</time>
      </trkpt>
      <trkpt lat="49.02706" lon="2.76524">
        <ele>185.19</ele>
        <time>2014-02-23T09:27:34Z</time>
      </trkpt>
      <trkpt lat="49.02709" lon="2.76542">
        <ele>186.63</ele>
        <time>2014-02-23T09:27:47Z</time>
      </trkpt>
      <trkpt lat="49.0271" lon="2.76558">
        <ele>188.08</ele>
        <time>2014-02-23T09:27:58Z</time>
      </trkpt>
      <trkpt lat="49.02714" lon="2.76578">
        <ele>188.56</ele>
        <time>2014-02-23T09:28:10Z</time>
      </trkpt>
      <trkpt lat="49.02719" lon="2.766">
        <ele>185.67</ele>
        <time>2014-02-23T09:28:24Z</time>
      </trkpt>
      <trkpt lat="49.02722" lon="2.76618">
        <ele>185.67</ele>
        <time>2014-02-23T09:28:38Z</time>
      </trkpt>
      <trkpt lat="49.02721" lon="2.76634">
        <ele>187.11</ele>
        <time>2014-02-23T09:28:49Z</time>
      </trkpt>
      <trkpt lat="49.02721" lon="2.76655">
        <ele>183.75</ele>
        <time>2014-02-23T09:29:03Z</time>
      </trkpt>
      <trkpt lat="49.02716" lon="2.7667">
        <ele>180.87</ele>
        <time>2014-02-23T09:29:16Z</time>
      </trkpt>
      <trkpt lat="49.02716" lon="2.76676">
        <ele>180.87</ele>
        <time>2014-02-23T09:29:27Z</time>
      </trkpt>
      <trkpt lat="49.02713" lon="2.76699">
        <ele>183.27</ele>
        <time>2014-02-23T09:29:40Z</time>
      </trkpt>
      <trkpt lat="49.02711" lon="2.76718">
        <ele>184.71</ele>
        <time>2014-02-23T09:29:51Z</time>
      </trkpt>
      <trkpt lat="49.0271" lon="2.76745">
        <ele>184.71</ele>
        <time>2014-02-23T09:30:06Z</time>
      </trkpt>
      <trkpt lat="49.0271" lon="2.76769">
        <ele>187.11</ele>
        <time>2014-02-23T09:30:19Z</time>
      </trkpt>
      <trkpt lat="49.02709" lon="2.76774">
        <ele>188.08</ele>
        <time>2014-02-23T09:30:36Z</time>
      </trkpt>
      <trkpt lat="49.02707" lon="2.76795">
        <ele>187.59</ele>
        <time>2014-02-23T09:30:49Z</time>
      </trkpt>
      <trkpt lat="49.02708" lon="2.76809">
        <ele>187.11</ele>
        <time>2014-02-23T09:31:01Z</time>
      </trkpt>
      <trkpt lat="49.02708" lon="2.76814">
        <ele>187.11</ele>
        <time>2014-02-23T09:31:04Z</time>
      </trkpt>
      <trkpt lat="49.02708" lon="2.7684">
        <ele>187.11</ele>
        <time>2014-02-23T09:31:20Z</time>
      </trkpt>
      <trkpt lat="49.02705" lon="2.76859">
        <ele>185.67</ele>
        <time>2014-02-23T09:31:32Z</time>
      </trkpt>
      <trkpt lat="49.02707" lon="2.76877">
        <ele>183.75</ele>
        <time>2014-02-23T09:31:44Z</time>
      </trkpt>
      <trkpt lat="49.02708" lon="2.76897">
        <ele>181.83</ele>
        <time>2014-02-23T09:31:56Z</time>
      </trkpt>
      <trkpt lat="49.02709" lon="2.76917">
        <ele>180.38</ele>
        <time>2014-02-23T09:32:09Z</time>
      </trkpt>
      <trkpt lat="49.02711" lon="2.76928">
        <ele>179.42</ele>
        <time>2014-02-23T09:32:16Z</time>
      </trkpt>
      <trkpt lat="49.02712" lon="2.76941">
        <ele>179.42</ele>
        <time>2014-02-23T09:32:23Z</time>
      </trkpt>
      <trkpt lat="49.02716" lon="2.76963">
        <ele>180.38</ele>
        <time>2014-02-23T09:32:38Z</time>
      </trkpt>
      <trkpt lat="49.0272" lon="2.76987">
        <ele>184.23</ele>
        <time>2014-02-23T09:32:52Z</time>
      </trkpt>
      <trkpt lat="49.02724" lon="2.77003">
        <ele>185.67</ele>
        <time>2014-02-23T09:33:05Z</time>
      </trkpt>
      <trkpt lat="49.02725" lon="2.77028">
        <ele>184.71</ele>
        <time>2014-02-23T09:33:20Z</time>
      </trkpt>
      <trkpt lat="49.02729" lon="2.77045">
        <ele>182.79</ele>
        <time>2014-02-23T09:33:32Z</time>
      </trkpt>
      <trkpt lat="49.02731" lon="2.77066">
        <ele>182.79</ele>
        <time>2014-02-23T09:33:45Z</time>
      </trkpt>
      <trkpt lat="49.02734" lon="2.77086">
        <ele>183.27</ele>
        <time>2014-02-23T09:33:58Z</time>
      </trkpt>
      <trkpt lat="49.02741" lon="2.77102">
        <ele>181.83</ele>
        <time>2014-02-23T09:34:12Z</time>
      </trkpt>
      <trkpt lat="49.02746" lon="2.77117">
        <ele>183.27</ele>
        <time>2014-02-23T09:34:25Z</time>
      </trkpt>
      <trkpt lat="49.02753" lon="2.77136">
        <ele>184.71</ele>
        <time>2014-02-23T09:34:36Z</time>
      </trkpt>
      <trkpt lat="49.02757" lon="2.77161">
        <ele>187.59</ele>
        <time>2014-02-23T09:34:48Z</time>
      </trkpt>
      <trkpt lat="49.02763" lon="2.7718">
        <ele>183.75</ele>
        <time>2014-02-23T09:35:01Z</time>
      </trkpt>
      <trkpt lat="49.0277" lon="2.77196">
        <ele>182.31</ele>
        <time>2014-02-23T09:35:14Z</time>
      </trkpt>
      <trkpt lat="49.02772" lon="2.77202">
        <ele>183.27</ele>
        <time>2014-02-23T09:35:18Z</time>
      </trkpt>
      <trkpt lat="49.0278" lon="2.77227">
        <ele>186.63</ele>
        <time>2014-02-23T09:35:32Z</time>
      </trkpt>
      <trkpt lat="49.02777" lon="2.77279">
        <ele>195.28</ele>
        <time>2014-02-23T09:53:04Z</time>
      </trkpt>
      <trkpt lat="49.02768" lon="2.77288">
        <ele>199.13</ele>
        <time>2014-02-23T09:53:18Z</time>
      </trkpt>
      <trkpt lat="49.02764" lon="2.77295">
        <ele>200.57</ele>
        <time>2014-02-23T09:53:31Z</time>
      </trkpt>
      <trkpt lat="49.02759" lon="2.77312">
        <ele>202.98</ele>
        <time>2014-02-23T09:53:42Z</time>
      </trkpt>
      <trkpt lat="49.02753" lon="2.77324">
        <ele>203.94</ele>
        <time>2014-02-23T09:53:52Z</time>
      </trkpt>
      <trkpt lat="49.02738" lon="2.77338">
        <ele>203.46</ele>
        <time>2014-02-23T09:54:07Z</time>
      </trkpt>
      <trkpt lat="49.02723" lon="2.77361">
        <ele>202.01</ele>
        <time>2014-02-23T09:54:21Z</time>
      </trkpt>
      <trkpt lat="49.02723" lon="2.77361">
        <ele>202.01</ele>
        <time>2014-02-23T09:54:22Z</time>
      </trkpt>
      <trkpt lat="49.02721" lon="2.77366">
        <ele>202.01</ele>
        <time>2014-02-23T09:54:25Z</time>
      </trkpt>
      <trkpt lat="49.02707" lon="2.7739">
        <ele>200.57</ele>
        <time>2014-02-23T09:54:38Z</time>
      </trkpt>
      <trkpt lat="49.02703" lon="2.7741">
        <ele>195.77</ele>
        <time>2014-02-23T09:54:53Z</time>
      </trkpt>
      <trkpt lat="49.02699" lon="2.77418">
        <ele>193.84</ele>
        <time>2014-02-23T09:55:06Z</time>
      </trkpt>
      <trkpt lat="49.02686" lon="2.77444">
        <ele>190.96</ele>
        <time>2014-02-23T09:55:21Z</time>
      </trkpt>
      <trkpt lat="49.02677" lon="2.77455">
        <ele>188.08</ele>
        <time>2014-02-23T09:55:33Z</time>
      </trkpt>
      <trkpt lat="49.02666" lon="2.77462">
        <ele>181.35</ele>
        <time>2014-02-23T09:55:46Z</time>
      </trkpt>
      <trkpt lat="49.02659" lon="2.77468">
        <ele>178.94</ele>
        <time>2014-02-23T09:55:59Z</time>
      </trkpt>
      <trkpt lat="49.02647" lon="2.77477">
        <ele>178.46</ele>
        <time>2014-02-23T09:56:12Z</time>
      </trkpt>
      <trkpt lat="49.02638" lon="2.77482">
        <ele>180.38</ele>
        <time>2014-02-23T09:56:25Z</time>
      </trkpt>
      <trkpt lat="49.02628" lon="2.77487">
        <ele>178.94</ele>
        <time>2014-02-23T09:56:34Z</time>
      </trkpt>
      <trkpt lat="49.02613" lon="2.7749">
        <ele>175.58</ele>
        <time>2014-02-23T09:56:47Z</time>
      </trkpt>
      <trkpt lat="49.02605" lon="2.77493">
        <ele>174.62</ele>
        <time>2014-02-23T09:57:00Z</time>
      </trkpt>
      <trkpt lat="49.02605" lon="2.77493">
        <ele>174.62</ele>
        <time>2014-02-23T09:57:03Z</time>
      </trkpt>
      <trkpt lat="49.0259" lon="2.77501">
        <ele>175.58</ele>
        <time>2014-02-23T09:57:15Z</time>
      </trkpt>
      <trkpt lat="49.02565" lon="2.77518">
        <ele>176.54</ele>
        <time>2014-02-23T09:57:30Z</time>
      </trkpt>
      <trkpt lat="49.02555" lon="2.77525">
        <ele>176.06</ele>
        <time>2014-02-23T09:57:42Z</time>
      </trkpt>
      <trkpt lat="49.02539" lon="2.77541">
        <ele>178.46</ele>
        <time>2014-02-23T09:57:56Z</time>
      </trkpt>
      <trkpt lat="49.02538" lon="2.77543">
        <ele>177.98</ele>
        <time>2014-02-23T09:57:57Z</time>
      </trkpt>
      <trkpt lat="49.02525" lon="2.77554">
        <ele>177.02</ele>
        <time>2014-02-23T09:58:10Z</time>
      </trkpt>
      <trkpt lat="49.02513" lon="2.77569">
        <ele>174.62</ele>
        <time>2014-02-23T09:58:23Z</time>
      </trkpt>
      <trkpt lat="49.02504" lon="2.77581">
        <ele>173.17</ele>
        <time>2014-02-23T09:58:34Z</time>
      </trkpt>
      <trkpt lat="49.02492" lon="2.77603">
        <ele>173.66</ele>
        <time>2014-02-23T09:58:45Z</time>
      </trkpt>
      <trkpt lat="49.02482" lon="2.77625">
        <ele>175.1</ele>
        <time>2014-02-23T09:58:58Z</time>
      </trkpt>
      <trkpt lat="49.02482" lon="2.77642">
        <ele>174.62</ele>
        <time>2014-02-23T09:59:10Z</time>
      </trkpt>
      <trkpt lat="49.02476" lon="2.7767">
        <ele>172.69</ele>
        <time>2014-02-23T09:59:26Z</time>
      </trkpt>
      <trkpt lat="49.02476" lon="2.77672">
        <ele>172.69</ele>
        <time>2014-02-23T09:59:27Z</time>
      </trkpt>
      <trkpt lat="49.02475" lon="2.77686">
        <ele>170.77</ele>
        <time>2014-02-23T09:59:34Z</time>
      </trkpt>
      <trkpt lat="49.02474" lon="2.77709">
        <ele>167.89</ele>
        <time>2014-02-23T09:59:49Z</time>
      </trkpt>
      <trkpt lat="49.02473" lon="2.7771">
        <ele>167.89</ele>
        <time>2014-02-23T09:59:50Z</time>
      </trkpt>
      <trkpt lat="49.02469" lon="2.77736">
        <ele>168.85</ele>
        <time>2014-02-23T10:00:04Z</time>
      </trkpt>
      <trkpt lat="49.02461" lon="2.77757">
        <ele>167.41</ele>
        <time>2014-02-23T10:00:18Z</time>
      </trkpt>
      <trkpt lat="49.02449" lon="2.77768">
        <ele>167.41</ele>
        <time>2014-02-23T10:00:33Z</time>
      </trkpt>
      <trkpt lat="49.02434" lon="2.77774">
        <ele>167.41</ele>
        <time>2014-02-23T10:00:46Z</time>
      </trkpt>
      <trkpt lat="49.02427" lon="2.7778">
        <ele>167.41</ele>
        <time>2014-02-23T10:00:54Z</time>
      </trkpt>
      <trkpt lat="49.02409" lon="2.77788">
        <ele>165.48</ele>
        <time>2014-02-23T10:01:08Z</time>
      </trkpt>
      <trkpt lat="49.02398" lon="2.77795">
        <ele>164.52</ele>
        <time>2014-02-23T10:01:21Z</time>
      </trkpt>
      <trkpt lat="49.02393" lon="2.77798">
        <ele>165</ele>
        <time>2014-02-23T10:01:42Z</time>
      </trkpt>
      <trkpt lat="49.02388" lon="2.77803">
        <ele>165.96</ele>
        <time>2014-02-23T10:02:06Z</time>
      </trkpt>
      <trkpt lat="49.02382" lon="2.77816">
        <ele>167.89</ele>
        <time>2014-02-23T10:02:21Z</time>
      </trkpt>
      <trkpt lat="49.02368" lon="2.7785">
        <ele>167.89</ele>
        <time>2014-02-23T10:02:37Z</time>
      </trkpt>
      <trkpt lat="49.0236" lon="2.77873">
        <ele>167.41</ele>
        <time>2014-02-23T10:02:50Z</time>
      </trkpt>
      <trkpt lat="49.02357" lon="2.77886">
        <ele>163.56</ele>
        <time>2014-02-23T10:02:58Z</time>
      </trkpt>
      <trkpt lat="49.02353" lon="2.77896">
        <ele>158.75</ele>
        <time>2014-02-23T10:03:06Z</time>
      </trkpt>
      <trkpt lat="49.02346" lon="2.77925">
        <ele>152.03</ele>
        <time>2014-02-23T10:03:23Z</time>
      </trkpt>
      <trkpt lat="49.02339" lon="2.77939">
        <ele>154.91</ele>
        <time>2014-02-23T10:03:36Z</time>
      </trkpt>
      <trkpt lat="49.02335" lon="2.77954">
        <ele>155.87</ele>
        <time>2014-02-23T10:03:47Z</time>
      </trkpt>
      <trkpt lat="49.02329" lon="2.77971">
        <ele>157.79</ele>
        <time>2014-02-23T10:03:58Z</time>
      </trkpt>
      <trkpt lat="49.02318" lon="2.78001">
        <ele>161.64</ele>
        <time>2014-02-23T10:04:13Z</time>
      </trkpt>
      <trkpt lat="49.02305" lon="2.78026">
        <ele>162.12</ele>
        <time>2014-02-23T10:04:27Z</time>
      </trkpt>
      <trkpt lat="49.02301" lon="2.78037">
        <ele>162.6</ele>
        <time>2014-02-23T10:04:37Z</time>
      </trkpt>
      <trkpt lat="49.02296" lon="2.78055">
        <ele>165</ele>
        <time>2014-02-23T10:04:49Z</time>
      </trkpt>
      <trkpt lat="49.02287" lon="2.78076">
        <ele>166.45</ele>
        <time>2014-02-23T10:05:03Z</time>
      </trkpt>
      <trkpt lat="49.02284" lon="2.78097">
        <ele>166.93</ele>
        <time>2014-02-23T10:05:17Z</time>
      </trkpt>
      <trkpt lat="49.0228" lon="2.78112">
        <ele>167.89</ele>
        <time>2014-02-23T10:05:25Z</time>
      </trkpt>
      <trkpt lat="49.02274" lon="2.78124">
        <ele>169.33</ele>
        <time>2014-02-23T10:05:31Z</time>
      </trkpt>
      <trkpt lat="49.02267" lon="2.78142">
        <ele>169.33</ele>
        <time>2014-02-23T10:05:44Z</time>
      </trkpt>
      <trkpt lat="49.02256" lon="2.78168">
        <ele>170.29</ele>
        <time>2014-02-23T10:05:58Z</time>
      </trkpt>
      <trkpt lat="49.02253" lon="2.78174">
        <ele>169.81</ele>
        <time>2014-02-23T10:06:03Z</time>
      </trkpt>
      <trkpt lat="49.02249" lon="2.78197">
        <ele>168.37</ele>
        <time>2014-02-23T10:06:15Z</time>
      </trkpt>
      <trkpt lat="49.02241" lon="2.78216">
        <ele>167.41</ele>
        <time>2014-02-23T10:06:30Z</time>
      </trkpt>
      <trkpt lat="49.02235" lon="2.78232">
        <ele>167.41</ele>
        <time>2014-02-23T10:06:42Z</time>
      </trkpt>
      <trkpt lat="49.02226" lon="2.78242">
        <ele>165.48</ele>
        <time>2014-02-23T10:06:55Z</time>
      </trkpt>
      <trkpt lat="49.0222" lon="2.78257">
        <ele>164.52</ele>
        <time>2014-02-23T10:07:09Z</time>
      </trkpt>
      <trkpt lat="49.02212" lon="2.78271">
        <ele>163.56</ele>
        <time>2014-02-23T10:07:22Z</time>
      </trkpt>
      <trkpt lat="49.02205" lon="2.78284">
        <ele>161.16</ele>
        <time>2014-02-23T10:07:34Z</time>
      </trkpt>
      <trkpt lat="49.02198" lon="2.78293">
        <ele>162.6</ele>
        <time>2014-02-23T10:07:44Z</time>
      </trkpt>
      <trkpt lat="49.02182" lon="2.78314">
        <ele>162.12</ele>
        <time>2014-02-23T10:07:55Z</time>
      </trkpt>
      <trkpt lat="49.02174" lon="2.78325">
        <ele>155.39</ele>
        <time>2014-02-23T10:08:07Z</time>
      </trkpt>
      <trkpt lat="49.02166" lon="2.7834">
        <ele>151.54</ele>
        <time>2014-02-23T10:08:19Z</time>
      </trkpt>
      <trkpt lat="49.02161" lon="2.78357">
        <ele>150.58</ele>
        <time>2014-02-23T10:08:31Z</time>
      </trkpt>
      <trkpt lat="49.02156" lon="2.7837">
        <ele>146.74</ele>
        <time>2014-02-23T10:08:44Z</time>
      </trkpt>
      <trkpt lat="49.02153" lon="2.78383">
        <ele>148.66</ele>
        <time>2014-02-23T10:08:57Z</time>
      </trkpt>
      <trkpt lat="49.02145" lon="2.78415">
        <ele>150.58</ele>
        <time>2014-02-23T10:09:11Z</time>
      </trkpt>
      <trkpt lat="49.02144" lon="2.78443">
        <ele>157.31</ele>
        <time>2014-02-23T10:09:24Z</time>
      </trkpt>
      <trkpt lat="49.02146" lon="2.78473">
        <ele>162.6</ele>
        <time>2014-02-23T10:09:39Z</time>
      </trkpt>
      <trkpt lat="49.02149" lon="2.78486">
        <ele>163.56</ele>
        <time>2014-02-23T10:09:50Z</time>
      </trkpt>
      <trkpt lat="49.02147" lon="2.78494">
        <ele>164.52</ele>
        <time>2014-02-23T10:09:56Z</time>
      </trkpt>
      <trkpt lat="49.02145" lon="2.78508">
        <ele>162.12</ele>
        <time>2014-02-23T10:10:11Z</time>
      </trkpt>
      <trkpt lat="49.02154" lon="2.78528">
        <ele>162.6</ele>
        <time>2014-02-23T10:10:26Z</time>
      </trkpt>
      <trkpt lat="49.02162" lon="2.78549">
        <ele>165</ele>
        <time>2014-02-23T10:10:39Z</time>
      </trkpt>
      <trkpt lat="49.02168" lon="2.78569">
        <ele>164.04</ele>
        <time>2014-02-23T10:10:53Z</time>
      </trkpt>
      <trkpt lat="49.02174" lon="2.78577">
        <ele>159.24</ele>
        <time>2014-02-23T10:11:05Z</time>
      </trkpt>
      <trkpt lat="49.02178" lon="2.78589">
        <ele>157.31</ele>
        <time>2014-02-23T10:11:16Z</time>
      </trkpt>
      <trkpt lat="49.0218" lon="2.78604">
        <ele>157.79</ele>
        <time>2014-02-23T10:11:28Z</time>
      </trkpt>
      <trkpt lat="49.02183" lon="2.78616">
        <ele>157.79</ele>
        <time>2014-02-23T10:11:38Z</time>
      </trkpt>
      <trkpt lat="49.02183" lon="2.78627">
        <ele>157.31</ele>
        <time>2014-02-23T10:11:45Z</time>
      </trkpt>
      <trkpt lat="49.02183" lon="2.78635">
        <ele>157.79</ele>
        <time>2014-02-23T10:11:49Z</time>
      </trkpt>
      <trkpt lat="49.02183" lon="2.78657">
        <ele>157.31</ele>
        <time>2014-02-23T10:12:02Z</time>
      </trkpt>
      <trkpt lat="49.02191" lon="2.78675">
        <ele>157.79</ele>
        <time>2014-02-23T10:12:15Z</time>
      </trkpt>
      <trkpt lat="49.02196" lon="2.78686">
        <ele>155.87</ele>
        <time>2014-02-23T10:12:23Z</time>
      </trkpt>
      <trkpt lat="49.02197" lon="2.78706">
        <ele>155.87</ele>
        <time>2014-02-23T10:12:36Z</time>
      </trkpt>
      <trkpt lat="49.02198" lon="2.78707">
        <ele>155.87</ele>
        <time>2014-02-23T10:12:37Z</time>
      </trkpt>
      <trkpt lat="49.02206" lon="2.78734">
        <ele>158.75</ele>
        <time>2014-02-23T10:12:52Z</time>
      </trkpt>
      <trkpt lat="49.02208" lon="2.78746">
        <ele>157.79</ele>
        <time>2014-02-23T10:13:03Z</time>
      </trkpt>
      <trkpt lat="49.02213" lon="2.78766">
        <ele>167.41</ele>
        <time>2014-02-23T10:13:16Z</time>
      </trkpt>
      <trkpt lat="49.02217" lon="2.78775">
        <ele>168.85</ele>
        <time>2014-02-23T10:13:23Z</time>
      </trkpt>
      <trkpt lat="49.02223" lon="2.78797">
        <ele>170.77</ele>
        <time>2014-02-23T10:13:38Z</time>
      </trkpt>
      <trkpt lat="49.02223" lon="2.78802">
        <ele>173.17</ele>
        <time>2014-02-23T10:13:53Z</time>
      </trkpt>
      <trkpt lat="49.02224" lon="2.78809">
        <ele>173.17</ele>
        <time>2014-02-23T10:13:59Z</time>
      </trkpt>
      <trkpt lat="49.02221" lon="2.78815">
        <ele>173.66</ele>
        <time>2014-02-23T10:14:04Z</time>
      </trkpt>
      <trkpt lat="49.02222" lon="2.78841">
        <ele>179.42</ele>
        <time>2014-02-23T10:14:15Z</time>
      </trkpt>
      <trkpt lat="49.02224" lon="2.78849">
        <ele>181.83</ele>
        <time>2014-02-23T10:14:18Z</time>
      </trkpt>
      <trkpt lat="49.02225" lon="2.78855">
        <ele>183.27</ele>
        <time>2014-02-23T10:14:20Z</time>
      </trkpt>
      <trkpt lat="49.0223" lon="2.78874">
        <ele>183.75</ele>
        <time>2014-02-23T10:14:31Z</time>
      </trkpt>
      <trkpt lat="49.02233" lon="2.78894">
        <ele>178.94</ele>
        <time>2014-02-23T10:14:44Z</time>
      </trkpt>
      <trkpt lat="49.02231" lon="2.78903">
        <ele>173.66</ele>
        <time>2014-02-23T10:14:56Z</time>
      </trkpt>
      <trkpt lat="49.02232" lon="2.78903">
        <ele>171.73</ele>
        <time>2014-02-23T10:15:10Z</time>
      </trkpt>
      <trkpt lat="49.02234" lon="2.78904">
        <ele>171.25</ele>
        <time>2014-02-23T10:15:29Z</time>
      </trkpt>
      <trkpt lat="49.02234" lon="2.78904">
        <ele>171.73</ele>
        <time>2014-02-23T10:15:49Z</time>
      </trkpt>
      <trkpt lat="49.02233" lon="2.78906">
        <ele>171.73</ele>
        <time>2014-02-23T10:16:08Z</time>
      </trkpt>
      <trkpt lat="49.02233" lon="2.78907">
        <ele>172.21</ele>
        <time>2014-02-23T10:16:30Z</time>
      </trkpt>
      <trkpt lat="49.02233" lon="2.78908">
        <ele>172.21</ele>
        <time>2014-02-23T10:16:50Z</time>
      </trkpt>
      <trkpt lat="49.02234" lon="2.78905">
        <ele>173.66</ele>
        <time>2014-02-23T10:17:02Z</time>
      </trkpt>
      <trkpt lat="49.02234" lon="2.78907">
        <ele>173.66</ele>
        <time>2014-02-23T10:17:25Z</time>
      </trkpt>
      <trkpt lat="49.02233" lon="2.78908">
        <ele>174.62</ele>
        <time>2014-02-23T10:17:47Z</time>
      </trkpt>
      <trkpt lat="49.02233" lon="2.78909">
        <ele>174.62</ele>
        <time>2014-02-23T10:18:06Z</time>
      </trkpt>
      <trkpt lat="49.02233" lon="2.78911">
        <ele>174.14</ele>
        <time>2014-02-23T10:18:23Z</time>
      </trkpt>
      <trkpt lat="49.02233" lon="2.78913">
        <ele>173.66</ele>
        <time>2014-02-23T10:18:48Z</time>
      </trkpt>
      <trkpt lat="49.02234" lon="2.7891">
        <ele>173.66</ele>
        <time>2014-02-23T10:19:07Z</time>
      </trkpt>
      <trkpt lat="49.02235" lon="2.78907">
        <ele>172.69</ele>
        <time>2014-02-23T10:19:31Z</time>
      </trkpt>
      <trkpt lat="49.02236" lon="2.78905">
        <ele>173.17</ele>
        <time>2014-02-23T10:19:53Z</time>
      </trkpt>
      <trkpt lat="49.02237" lon="2.78903">
        <ele>173.17</ele>
        <time>2014-02-23T10:20:16Z</time>
      </trkpt>
      <trkpt lat="49.02237" lon="2.78902">
        <ele>172.69</ele>
        <time>2014-02-23T10:20:40Z</time>
      </trkpt>
      <trkpt lat="49.0223" lon="2.78899">
        <ele>172.69</ele>
        <time>2014-02-23T10:20:58Z</time>
      </trkpt>
      <trkpt lat="49.02228" lon="2.78898">
        <ele>172.69</ele>
        <time>2014-02-23T10:21:13Z</time>
      </trkpt>
      <trkpt lat="49.02223" lon="2.78899">
        <ele>175.1</ele>
        <time>2014-02-23T10:21:23Z</time>
      </trkpt>
      <trkpt lat="49.02217" lon="2.78901">
        <ele>176.06</ele>
        <time>2014-02-23T10:21:37Z</time>
      </trkpt>
      <trkpt lat="49.02212" lon="2.78903">
        <ele>176.06</ele>
        <time>2014-02-23T10:21:53Z</time>
      </trkpt>
      <trkpt lat="49.02207" lon="2.78907">
        <ele>175.1</ele>
        <time>2014-02-23T10:22:08Z</time>
      </trkpt>
      <trkpt lat="49.02198" lon="2.78907">
        <ele>173.17</ele>
        <time>2014-02-23T10:22:21Z</time>
      </trkpt>
      <trkpt lat="49.0219" lon="2.78907">
        <ele>173.17</ele>
        <time>2014-02-23T10:22:33Z</time>
      </trkpt>
      <trkpt lat="49.02177" lon="2.78911">
        <ele>173.17</ele>
        <time>2014-02-23T10:22:44Z</time>
      </trkpt>
      <trkpt lat="49.02175" lon="2.78911">
        <ele>173.17</ele>
        <time>2014-02-23T10:22:47Z</time>
      </trkpt>
      <trkpt lat="49.02165" lon="2.78914">
        <ele>172.69</ele>
        <time>2014-02-23T10:22:59Z</time>
      </trkpt>
      <trkpt lat="49.02155" lon="2.78915">
        <ele>171.73</ele>
        <time>2014-02-23T10:23:11Z</time>
      </trkpt>
      <trkpt lat="49.02148" lon="2.78914">
        <ele>168.85</ele>
        <time>2014-02-23T10:23:21Z</time>
      </trkpt>
      <trkpt lat="49.0214" lon="2.78915">
        <ele>168.37</ele>
        <time>2014-02-23T10:23:31Z</time>
      </trkpt>
      <trkpt lat="49.02131" lon="2.78916">
        <ele>167.89</ele>
        <time>2014-02-23T10:23:42Z</time>
      </trkpt>
      <trkpt lat="49.02124" lon="2.78919">
        <ele>166.45</ele>
        <time>2014-02-23T10:23:54Z</time>
      </trkpt>
      <trkpt lat="49.02117" lon="2.78922">
        <ele>162.6</ele>
        <time>2014-02-23T10:24:06Z</time>
      </trkpt>
      <trkpt lat="49.02107" lon="2.78933">
        <ele>159.24</ele>
        <time>2014-02-23T10:24:21Z</time>
      </trkpt>
      <trkpt lat="49.02093" lon="2.78951">
        <ele>157.79</ele>
        <time>2014-02-23T10:24:35Z</time>
      </trkpt>
      <trkpt lat="49.02086" lon="2.78956">
        <ele>157.31</ele>
        <time>2014-02-23T10:24:47Z</time>
      </trkpt>
      <trkpt lat="49.0208" lon="2.78963">
        <ele>154.91</ele>
        <time>2014-02-23T10:24:58Z</time>
      </trkpt>
      <trkpt lat="49.02075" lon="2.7898">
        <ele>149.62</ele>
        <time>2014-02-23T10:25:08Z</time>
      </trkpt>
      <trkpt lat="49.0207" lon="2.7899">
        <ele>145.78</ele>
        <time>2014-02-23T10:25:13Z</time>
      </trkpt>
      <trkpt lat="49.0206" lon="2.79003">
        <ele>142.89</ele>
        <time>2014-02-23T10:25:25Z</time>
      </trkpt>
      <trkpt lat="49.02042" lon="2.79">
        <ele>142.41</ele>
        <time>2014-02-23T10:25:38Z</time>
      </trkpt>
      <trkpt lat="49.02026" lon="2.79003">
        <ele>141.93</ele>
        <time>2014-02-23T10:25:52Z</time>
      </trkpt>
      <trkpt lat="49.02015" lon="2.79007">
        <ele>140.01</ele>
        <time>2014-02-23T10:26:12Z</time>
      </trkpt>
      <trkpt lat="49.02015" lon="2.7901">
        <ele>139.53</ele>
        <time>2014-02-23T10:26:32Z</time>
      </trkpt>
      <trkpt lat="49.02014" lon="2.79011">
        <ele>140.97</ele>
        <time>2014-02-23T10:26:54Z</time>
      </trkpt>
      <trkpt lat="49.02014" lon="2.7901">
        <ele>141.45</ele>
        <time>2014-02-23T10:27:13Z</time>
      </trkpt>
      <trkpt lat="49.02014" lon="2.7901">
        <ele>141.45</ele>
        <time>2014-02-23T10:27:33Z</time>
      </trkpt>
      <trkpt lat="49.02014" lon="2.7901">
        <ele>141.45</ele>
        <time>2014-02-23T10:27:55Z</time>
      </trkpt>
      <trkpt lat="49.02013" lon="2.7901">
        <ele>141.45</ele>
        <time>2014-02-23T10:28:09Z</time>
      </trkpt>
      <trkpt lat="49.01997" lon="2.79006">
        <ele>140.01</ele>
        <time>2014-02-23T10:28:23Z</time>
      </trkpt>
      <trkpt lat="49.01977" lon="2.78999">
        <ele>138.57</ele>
        <time>2014-02-23T10:28:41Z</time>
      </trkpt>
      <trkpt lat="49.01958" lon="2.78995">
        <ele>137.13</ele>
        <time>2014-02-23T10:28:58Z</time>
      </trkpt>
      <trkpt lat="49.01939" lon="2.7899">
        <ele>133.76</ele>
        <time>2014-02-23T10:29:15Z</time>
      </trkpt>
      <trkpt lat="49.01937" lon="2.7899">
        <ele>133.28</ele>
        <time>2014-02-23T10:29:17Z</time>
      </trkpt>
      <trkpt lat="49.0192" lon="2.78986">
        <ele>129.43</ele>
        <time>2014-02-23T10:29:31Z</time>
      </trkpt>
      <trkpt lat="49.01904" lon="2.78984">
        <ele>127.51</ele>
        <time>2014-02-23T10:29:45Z</time>
      </trkpt>
      <trkpt lat="49.0189" lon="2.78979">
        <ele>126.55</ele>
        <time>2014-02-23T10:29:58Z</time>
      </trkpt>
      <trkpt lat="49.0187" lon="2.78974">
        <ele>127.99</ele>
        <time>2014-02-23T10:30:14Z</time>
      </trkpt>
      <trkpt lat="49.01847" lon="2.78969">
        <ele>129.43</ele>
        <time>2014-02-23T10:30:33Z</time>
      </trkpt>
      <trkpt lat="49.01827" lon="2.78965">
        <ele>127.99</ele>
        <time>2014-02-23T10:30:48Z</time>
      </trkpt>
      <trkpt lat="49.01807" lon="2.78961">
        <ele>126.55</ele>
        <time>2014-02-23T10:31:05Z</time>
      </trkpt>
      <trkpt lat="49.01783" lon="2.78957">
        <ele>125.11</ele>
        <time>2014-02-23T10:31:23Z</time>
      </trkpt>
      <trkpt lat="49.01763" lon="2.78956">
        <ele>125.11</ele>
        <time>2014-02-23T10:31:39Z</time>
      </trkpt>
      <trkpt lat="49.01735" lon="2.78955">
        <ele>125.59</ele>
        <time>2014-02-23T10:31:59Z</time>
      </trkpt>
      <trkpt lat="49.0171" lon="2.78957">
        <ele>126.55</ele>
        <time>2014-02-23T10:32:18Z</time>
      </trkpt>
      <trkpt lat="49.01693" lon="2.78965">
        <ele>127.99</ele>
        <time>2014-02-23T10:32:34Z</time>
      </trkpt>
      <trkpt lat="49.01692" lon="2.7897">
        <ele>128.47</ele>
        <time>2014-02-23T10:32:37Z</time>
      </trkpt>
      <trkpt lat="49.01695" lon="2.78998">
        <ele>130.88</ele>
        <time>2014-02-23T10:32:53Z</time>
      </trkpt>
      <trkpt lat="49.01702" lon="2.79027">
        <ele>131.84</ele>
        <time>2014-02-23T10:33:10Z</time>
      </trkpt>
      <trkpt lat="49.01707" lon="2.79061">
        <ele>129.92</ele>
        <time>2014-02-23T10:33:30Z</time>
      </trkpt>
      <trkpt lat="49.01714" lon="2.79086">
        <ele>129.92</ele>
        <time>2014-02-23T10:33:44Z</time>
      </trkpt>
      <trkpt lat="49.01719" lon="2.79106">
        <ele>129.92</ele>
        <time>2014-02-23T10:33:55Z</time>
      </trkpt>
      <trkpt lat="49.01721" lon="2.79117">
        <ele>129.43</ele>
        <time>2014-02-23T10:34:01Z</time>
      </trkpt>
      <trkpt lat="49.01722" lon="2.79121">
        <ele>129.43</ele>
        <time>2014-02-23T10:34:04Z</time>
      </trkpt>
      <trkpt lat="49.01727" lon="2.79154">
        <ele>128.47</ele>
        <time>2014-02-23T10:34:22Z</time>
      </trkpt>
      <trkpt lat="49.01735" lon="2.7919">
        <ele>124.63</ele>
        <time>2014-02-23T10:34:43Z</time>
      </trkpt>
      <trkpt lat="49.01743" lon="2.79225">
        <ele>125.59</ele>
        <time>2014-02-23T10:35:03Z</time>
      </trkpt>
      <trkpt lat="49.01749" lon="2.79254">
        <ele>125.59</ele>
        <time>2014-02-23T10:35:20Z</time>
      </trkpt>
      <trkpt lat="49.01753" lon="2.79279">
        <ele>124.15</ele>
        <time>2014-02-23T10:35:35Z</time>
      </trkpt>
      <trkpt lat="49.01761" lon="2.79306">
        <ele>124.63</ele>
        <time>2014-02-23T10:35:52Z</time>
      </trkpt>
      <trkpt lat="49.01765" lon="2.79333">
        <ele>125.59</ele>
        <time>2014-02-23T10:36:07Z</time>
      </trkpt>
      <trkpt lat="49.01771" lon="2.79368">
        <ele>125.59</ele>
        <time>2014-02-23T10:36:27Z</time>
      </trkpt>
      <trkpt lat="49.01779" lon="2.79414">
        <ele>125.59</ele>
        <time>2014-02-23T10:36:49Z</time>
      </trkpt>
      <trkpt lat="49.01781" lon="2.79443">
        <ele>125.11</ele>
        <time>2014-02-23T10:37:04Z</time>
      </trkpt>
      <trkpt lat="49.01784" lon="2.79475">
        <ele>126.07</ele>
        <time>2014-02-23T10:37:19Z</time>
      </trkpt>
      <trkpt lat="49.01787" lon="2.79517">
        <ele>124.15</ele>
        <time>2014-02-23T10:37:39Z</time>
      </trkpt>
      <trkpt lat="49.01787" lon="2.79525">
        <ele>124.15</ele>
        <time>2014-02-23T10:37:43Z</time>
      </trkpt>
      <trkpt lat="49.01786" lon="2.7957">
        <ele>126.07</ele>
        <time>2014-02-23T10:38:06Z</time>
      </trkpt>
      <trkpt lat="49.01785" lon="2.79606">
        <ele>127.51</ele>
        <time>2014-02-23T10:38:24Z</time>
      </trkpt>
      <trkpt lat="49.01782" lon="2.79647">
        <ele>128.95</ele>
        <time>2014-02-23T10:38:45Z</time>
      </trkpt>
      <trkpt lat="49.01776" lon="2.79686">
        <ele>131.36</ele>
        <time>2014-02-23T10:39:06Z</time>
      </trkpt>
      <trkpt lat="49.01768" lon="2.79729">
        <ele>132.32</ele>
        <time>2014-02-23T10:39:28Z</time>
      </trkpt>
      <trkpt lat="49.01761" lon="2.79768">
        <ele>131.84</ele>
        <time>2014-02-23T10:39:48Z</time>
      </trkpt>
      <trkpt lat="49.01749" lon="2.79805">
        <ele>131.36</ele>
        <time>2014-02-23T10:40:08Z</time>
      </trkpt>
      <trkpt lat="49.01738" lon="2.79834">
        <ele>134.24</ele>
        <time>2014-02-23T10:40:26Z</time>
      </trkpt>
      <trkpt lat="49.01729" lon="2.79865">
        <ele>136.64</ele>
        <time>2014-02-23T10:40:42Z</time>
      </trkpt>
      <trkpt lat="49.01724" lon="2.79897">
        <ele>136.16</ele>
        <time>2014-02-23T10:41:00Z</time>
      </trkpt>
      <trkpt lat="49.01723" lon="2.79938">
        <ele>133.76</ele>
        <time>2014-02-23T10:41:22Z</time>
      </trkpt>
      <trkpt lat="49.01728" lon="2.79974">
        <ele>133.28</ele>
        <time>2014-02-23T10:41:41Z</time>
      </trkpt>
      <trkpt lat="49.01729" lon="2.79983">
        <ele>133.76</ele>
        <time>2014-02-23T10:41:46Z</time>
      </trkpt>
      <trkpt lat="49.01736" lon="2.80014">
        <ele>135.2</ele>
        <time>2014-02-23T10:42:03Z</time>
      </trkpt>
      <trkpt lat="49.01741" lon="2.80039">
        <ele>136.64</ele>
        <time>2014-02-23T10:42:18Z</time>
      </trkpt>
      <trkpt lat="49.01747" lon="2.80065">
        <ele>134.72</ele>
        <time>2014-02-23T10:42:33Z</time>
      </trkpt>
      <trkpt lat="49.01745" lon="2.80097">
        <ele>134.72</ele>
        <time>2014-02-23T10:42:49Z</time>
      </trkpt>
      <trkpt lat="49.01729" lon="2.80111">
        <ele>131.84</ele>
        <time>2014-02-23T10:43:04Z</time>
      </trkpt>
      <trkpt lat="49.01711" lon="2.80125">
        <ele>131.36</ele>
        <time>2014-02-23T10:43:21Z</time>
      </trkpt>
      <trkpt lat="49.01692" lon="2.80138">
        <ele>130.88</ele>
        <time>2014-02-23T10:43:39Z</time>
      </trkpt>
      <trkpt lat="49.01671" lon="2.80154">
        <ele>131.84</ele>
        <time>2014-02-23T10:43:58Z</time>
      </trkpt>
      <trkpt lat="49.0165" lon="2.8017">
        <ele>132.32</ele>
        <time>2014-02-23T10:44:16Z</time>
      </trkpt>
      <trkpt lat="49.01627" lon="2.80187">
        <ele>131.84</ele>
        <time>2014-02-23T10:44:35Z</time>
      </trkpt>
      <trkpt lat="49.01615" lon="2.80202">
        <ele>131.36</ele>
        <time>2014-02-23T10:44:47Z</time>
      </trkpt>
      <trkpt lat="49.01601" lon="2.80231">
        <ele>131.84</ele>
        <time>2014-02-23T10:45:05Z</time>
      </trkpt>
      <trkpt lat="49.01589" lon="2.80263">
        <ele>129.43</ele>
        <time>2014-02-23T10:45:24Z</time>
      </trkpt>
      <trkpt lat="49.01577" lon="2.803">
        <ele>127.99</ele>
        <time>2014-02-23T10:45:46Z</time>
      </trkpt>
      <trkpt lat="49.01569" lon="2.80333">
        <ele>127.51</ele>
        <time>2014-02-23T10:46:03Z</time>
      </trkpt>
      <trkpt lat="49.01557" lon="2.80361">
        <ele>126.55</ele>
        <time>2014-02-23T10:46:22Z</time>
      </trkpt>
      <trkpt lat="49.01548" lon="2.80395">
        <ele>125.59</ele>
        <time>2014-02-23T10:46:40Z</time>
      </trkpt>
      <trkpt lat="49.01538" lon="2.80424">
        <ele>123.67</ele>
        <time>2014-02-23T10:46:57Z</time>
      </trkpt>
      <trkpt lat="49.0153" lon="2.80453">
        <ele>120.78</ele>
        <time>2014-02-23T10:47:14Z</time>
      </trkpt>
      <trkpt lat="49.01523" lon="2.8047">
        <ele>119.82</ele>
        <time>2014-02-23T10:47:28Z</time>
      </trkpt>
      <trkpt lat="49.01512" lon="2.80503">
        <ele>119.82</ele>
        <time>2014-02-23T10:47:45Z</time>
      </trkpt>
      <trkpt lat="49.01509" lon="2.80514">
        <ele>120.3</ele>
        <time>2014-02-23T10:47:58Z</time>
      </trkpt>
      <trkpt lat="49.01505" lon="2.80527">
        <ele>120.3</ele>
        <time>2014-02-23T10:48:14Z</time>
      </trkpt>
      <trkpt lat="49.01495" lon="2.80556">
        <ele>120.3</ele>
        <time>2014-02-23T10:48:32Z</time>
      </trkpt>
      <trkpt lat="49.01485" lon="2.80587">
        <ele>117.9</ele>
        <time>2014-02-23T10:48:50Z</time>
      </trkpt>
      <trkpt lat="49.01479" lon="2.80606">
        <ele>117.42</ele>
        <time>2014-02-23T10:49:06Z</time>
      </trkpt>
      <trkpt lat="49.0147" lon="2.80634">
        <ele>117.42</ele>
        <time>2014-02-23T10:49:21Z</time>
      </trkpt>
      <trkpt lat="49.01461" lon="2.80661">
        <ele>118.38</ele>
        <time>2014-02-23T10:49:38Z</time>
      </trkpt>
      <trkpt lat="49.01454" lon="2.80684">
        <ele>117.9</ele>
        <time>2014-02-23T10:49:53Z</time>
      </trkpt>
      <trkpt lat="49.01452" lon="2.80697">
        <ele>117.9</ele>
        <time>2014-02-23T10:50:07Z</time>
      </trkpt>
      <trkpt lat="49.01447" lon="2.80726">
        <ele>117.42</ele>
        <time>2014-02-23T10:50:23Z</time>
      </trkpt>
      <trkpt lat="49.01445" lon="2.80745">
        <ele>116.46</ele>
        <time>2014-02-23T10:50:37Z</time>
      </trkpt>
      <trkpt lat="49.01446" lon="2.80745">
        <ele>116.46</ele>
        <time>2014-02-23T10:50:57Z</time>
      </trkpt>
      <trkpt lat="49.01446" lon="2.80744">
        <ele>116.46</ele>
        <time>2014-02-23T10:51:17Z</time>
      </trkpt>
      <trkpt lat="49.01443" lon="2.80755">
        <ele>116.46</ele>
        <time>2014-02-23T10:51:31Z</time>
      </trkpt>
      <trkpt lat="49.01439" lon="2.80785">
        <ele>117.42</ele>
        <time>2014-02-23T10:51:51Z</time>
      </trkpt>
      <trkpt lat="49.01435" lon="2.80814">
        <ele>117.42</ele>
        <time>2014-02-23T10:52:08Z</time>
      </trkpt>
      <trkpt lat="49.01431" lon="2.80839">
        <ele>118.38</ele>
        <time>2014-02-23T10:52:24Z</time>
      </trkpt>
      <trkpt lat="49.01427" lon="2.80867">
        <ele>118.38</ele>
        <time>2014-02-23T10:52:42Z</time>
      </trkpt>
      <trkpt lat="49.01426" lon="2.80872">
        <ele>118.38</ele>
        <time>2014-02-23T10:52:45Z</time>
      </trkpt>
      <trkpt lat="49.01423" lon="2.8091">
        <ele>119.34</ele>
        <time>2014-02-23T10:53:06Z</time>
      </trkpt>
      <trkpt lat="49.0142" lon="2.80948">
        <ele>121.26</ele>
        <time>2014-02-23T10:53:26Z</time>
      </trkpt>
      <trkpt lat="49.01417" lon="2.80993">
        <ele>122.22</ele>
        <time>2014-02-23T10:53:48Z</time>
      </trkpt>
      <trkpt lat="49.01414" lon="2.81023">
        <ele>121.26</ele>
        <time>2014-02-23T10:54:06Z</time>
      </trkpt>
      <trkpt lat="49.01413" lon="2.81033">
        <ele>120.78</ele>
        <time>2014-02-23T10:54:13Z</time>
      </trkpt>
      <trkpt lat="49.01412" lon="2.81049">
        <ele>120.3</ele>
        <time>2014-02-23T10:54:22Z</time>
      </trkpt>
      <trkpt lat="49.01409" lon="2.81089">
        <ele>117.42</ele>
        <time>2014-02-23T10:54:44Z</time>
      </trkpt>
      <trkpt lat="49.01407" lon="2.81123">
        <ele>115.98</ele>
        <time>2014-02-23T10:55:03Z</time>
      </trkpt>
      <trkpt lat="49.01405" lon="2.8115">
        <ele>115.01</ele>
        <time>2014-02-23T10:55:20Z</time>
      </trkpt>
      <trkpt lat="49.01403" lon="2.81191">
        <ele>114.53</ele>
        <time>2014-02-23T10:55:41Z</time>
      </trkpt>
      <trkpt lat="49.01399" lon="2.81228">
        <ele>113.57</ele>
        <time>2014-02-23T10:56:01Z</time>
      </trkpt>
      <trkpt lat="49.01397" lon="2.81262">
        <ele>113.57</ele>
        <time>2014-02-23T10:56:19Z</time>
      </trkpt>
      <trkpt lat="49.01398" lon="2.81279">
        <ele>114.53</ele>
        <time>2014-02-23T10:56:34Z</time>
      </trkpt>
      <trkpt lat="49.01394" lon="2.81319">
        <ele>115.5</ele>
        <time>2014-02-23T10:56:54Z</time>
      </trkpt>
      <trkpt lat="49.01388" lon="2.81356">
        <ele>115.01</ele>
        <time>2014-02-23T10:57:13Z</time>
      </trkpt>
      <trkpt lat="49.01382" lon="2.8139">
        <ele>114.05</ele>
        <time>2014-02-23T10:57:35Z</time>
      </trkpt>
      <trkpt lat="49.01381" lon="2.81419">
        <ele>115.5</ele>
        <time>2014-02-23T10:57:50Z</time>
      </trkpt>
      <trkpt lat="49.0138" lon="2.81451">
        <ele>115.5</ele>
        <time>2014-02-23T10:58:06Z</time>
      </trkpt>
      <trkpt lat="49.01381" lon="2.81481">
        <ele>115.98</ele>
        <time>2014-02-23T10:58:21Z</time>
      </trkpt>
      <trkpt lat="49.01381" lon="2.81515">
        <ele>116.94</ele>
        <time>2014-02-23T10:58:38Z</time>
      </trkpt>
      <trkpt lat="49.01381" lon="2.81539">
        <ele>118.86</ele>
        <time>2014-02-23T10:58:50Z</time>
      </trkpt>
      <trkpt lat="49.01382" lon="2.8157">
        <ele>116.94</ele>
        <time>2014-02-23T10:59:06Z</time>
      </trkpt>
      <trkpt lat="49.01372" lon="2.81597">
        <ele>115.98</ele>
        <time>2014-02-23T10:59:23Z</time>
      </trkpt>
      <trkpt lat="49.01357" lon="2.81616">
        <ele>118.38</ele>
        <time>2014-02-23T10:59:40Z</time>
      </trkpt>
      <trkpt lat="49.01339" lon="2.81637">
        <ele>119.34</ele>
        <time>2014-02-23T11:00:00Z</time>
      </trkpt>
      <trkpt lat="49.01323" lon="2.81652">
        <ele>120.3</ele>
        <time>2014-02-23T11:00:18Z</time>
      </trkpt>
      <trkpt lat="49.01304" lon="2.81671">
        <ele>120.78</ele>
        <time>2014-02-23T11:00:37Z</time>
      </trkpt>
      <trkpt lat="49.0128" lon="2.81686">
        <ele>122.71</ele>
        <time>2014-02-23T11:00:57Z</time>
      </trkpt>
      <trkpt lat="49.01277" lon="2.81684">
        <ele>122.22</ele>
        <time>2014-02-23T11:01:13Z</time>
      </trkpt>
      <trkpt lat="49.01278" lon="2.81684">
        <ele>121.26</ele>
        <time>2014-02-23T11:01:31Z</time>
      </trkpt>
      <trkpt lat="49.01272" lon="2.81689">
        <ele>119.82</ele>
        <time>2014-02-23T11:01:50Z</time>
      </trkpt>
      <trkpt lat="49.01269" lon="2.81695">
        <ele>119.34</ele>
        <time>2014-02-23T11:02:07Z</time>
      </trkpt>
      <trkpt lat="49.01269" lon="2.81698">
        <ele>118.86</ele>
        <time>2014-02-23T11:02:34Z</time>
      </trkpt>
      <trkpt lat="49.01269" lon="2.81699">
        <ele>118.86</ele>
        <time>2014-02-23T11:03:07Z</time>
      </trkpt>
      <trkpt lat="49.01269" lon="2.81699">
        <ele>118.38</ele>
        <time>2014-02-23T11:03:34Z</time>
      </trkpt>
      <trkpt lat="49.01272" lon="2.81696">
        <ele>118.38</ele>
        <time>2014-02-23T11:03:52Z</time>
      </trkpt>
      <trkpt lat="49.01272" lon="2.81686">
        <ele>117.42</ele>
        <time>2014-02-23T11:03:59Z</time>
      </trkpt>
      <trkpt lat="49.01262" lon="2.81657">
        <ele>114.53</ele>
        <time>2014-02-23T11:04:18Z</time>
      </trkpt>
      <trkpt lat="49.0126" lon="2.81654">
        <ele>114.05</ele>
        <time>2014-02-23T11:04:21Z</time>
      </trkpt>
      <trkpt lat="49.01254" lon="2.81633">
        <ele>110.69</ele>
        <time>2014-02-23T11:04:37Z</time>
      </trkpt>
      <trkpt lat="49.01258" lon="2.81619">
        <ele>111.17</ele>
        <time>2014-02-23T11:04:52Z</time>
      </trkpt>
      <trkpt lat="49.01257" lon="2.81618">
        <ele>112.61</ele>
        <time>2014-02-23T11:05:16Z</time>
      </trkpt>
      <trkpt lat="49.01258" lon="2.81618">
        <ele>112.13</ele>
        <time>2014-02-23T11:05:37Z</time>
      </trkpt>
      <trkpt lat="49.01256" lon="2.81616">
        <ele>113.09</ele>
        <time>2014-02-23T11:06:01Z</time>
      </trkpt>
      <trkpt lat="49.01256" lon="2.81616">
        <ele>112.13</ele>
        <time>2014-02-23T11:06:22Z</time>
      </trkpt>
      <trkpt lat="49.01256" lon="2.81616">
        <ele>112.61</ele>
        <time>2014-02-23T11:06:49Z</time>
      </trkpt>
      <trkpt lat="49.01256" lon="2.81615">
        <ele>112.61</ele>
        <time>2014-02-23T11:07:19Z</time>
      </trkpt>
      <trkpt lat="49.01256" lon="2.81615">
        <ele>113.09</ele>
        <time>2014-02-23T11:07:45Z</time>
      </trkpt>
      <trkpt lat="49.01256" lon="2.81615">
        <ele>113.09</ele>
        <time>2014-02-23T11:08:14Z</time>
      </trkpt>
      <trkpt lat="49.01256" lon="2.81615">
        <ele>113.09</ele>
        <time>2014-02-23T11:08:45Z</time>
      </trkpt>
      <trkpt lat="49.01256" lon="2.81615">
        <ele>113.57</ele>
        <time>2014-02-23T11:09:18Z</time>
      </trkpt>
      <trkpt lat="49.01256" lon="2.81615">
        <ele>113.57</ele>
        <time>2014-02-23T11:09:50Z</time>
      </trkpt>
      <trkpt lat="49.01255" lon="2.81616">
        <ele>114.05</ele>
        <time>2014-02-23T11:10:16Z</time>
      </trkpt>
      <trkpt lat="49.01256" lon="2.81614">
        <ele>113.57</ele>
        <time>2014-02-23T11:10:48Z</time>
      </trkpt>
      <trkpt lat="49.01257" lon="2.81615">
        <ele>114.05</ele>
        <time>2014-02-23T11:11:22Z</time>
      </trkpt>
      <trkpt lat="49.01257" lon="2.81616">
        <ele>114.05</ele>
        <time>2014-02-23T11:11:49Z</time>
      </trkpt>
      <trkpt lat="49.01257" lon="2.81616">
        <ele>115.01</ele>
        <time>2014-02-23T11:12:30Z</time>
      </trkpt>
      <trkpt lat="49.01257" lon="2.81616">
        <ele>115.01</ele>
        <time>2014-02-23T11:13:00Z</time>
      </trkpt>
      <trkpt lat="49.01257" lon="2.81616">
        <ele>114.53</ele>
        <time>2014-02-23T11:13:33Z</time>
      </trkpt>
      <trkpt lat="49.01257" lon="2.81619">
        <ele>114.53</ele>
        <time>2014-02-23T11:14:05Z</time>
      </trkpt>
      <trkpt lat="49.01259" lon="2.81618">
        <ele>115.01</ele>
        <time>2014-02-23T11:14:29Z</time>
      </trkpt>
      <trkpt lat="49.01255" lon="2.8166">
        <ele>115.01</ele>
        <time>2014-02-23T11:15:38Z</time>
      </trkpt>
      <trkpt lat="49.01256" lon="2.81638">
        <ele>116.94</ele>
        <time>2014-02-23T11:16:01Z</time>
      </trkpt>
      <trkpt lat="49.01255" lon="2.81611">
        <ele>125.59</ele>
        <time>2014-02-23T11:16:27Z</time>
      </trkpt>
      <trkpt lat="49.01251" lon="2.81609">
        <ele>121.26</ele>
        <time>2014-02-23T11:16:53Z</time>
      </trkpt>
      <trkpt lat="49.01255" lon="2.81605">
        <ele>124.63</ele>
        <time>2014-02-23T11:17:27Z</time>
      </trkpt>
      <trkpt lat="49.01256" lon="2.81607">
        <ele>122.22</ele>
        <time>2014-02-23T11:17:53Z</time>
      </trkpt>
      <trkpt lat="49.01255" lon="2.81609">
        <ele>124.15</ele>
        <time>2014-02-23T11:18:16Z</time>
      </trkpt>
      <trkpt lat="49.01255" lon="2.81608">
        <ele>125.59</ele>
        <time>2014-02-23T11:18:40Z</time>
      </trkpt>
      <trkpt lat="49.01256" lon="2.81609">
        <ele>126.55</ele>
        <time>2014-02-23T11:19:11Z</time>
      </trkpt>
      <trkpt lat="49.01256" lon="2.81609">
        <ele>125.59</ele>
        <time>2014-02-23T11:19:39Z</time>
      </trkpt>
      <trkpt lat="49.01257" lon="2.8161">
        <ele>124.15</ele>
        <time>2014-02-23T11:20:11Z</time>
      </trkpt>
      <trkpt lat="49.01257" lon="2.81613">
        <ele>123.19</ele>
        <time>2014-02-23T11:20:35Z</time>
      </trkpt>
      <trkpt lat="49.01258" lon="2.81617">
        <ele>123.67</ele>
        <time>2014-02-23T11:21:00Z</time>
      </trkpt>
      <trkpt lat="49.01258" lon="2.81617">
        <ele>124.15</ele>
        <time>2014-02-23T11:21:26Z</time>
      </trkpt>
      <trkpt lat="49.01257" lon="2.81617">
        <ele>124.15</ele>
        <time>2014-02-23T11:21:54Z</time>
      </trkpt>
      <trkpt lat="49.01258" lon="2.81617">
        <ele>123.67</ele>
        <time>2014-02-23T11:22:21Z</time>
      </trkpt>
      <trkpt lat="49.01258" lon="2.81617">
        <ele>123.67</ele>
        <time>2014-02-23T11:22:45Z</time>
      </trkpt>
      <trkpt lat="49.01259" lon="2.81616">
        <ele>123.67</ele>
        <time>2014-02-23T11:23:07Z</time>
      </trkpt>
      <trkpt lat="49.01259" lon="2.81614">
        <ele>124.15</ele>
        <time>2014-02-23T11:23:34Z</time>
      </trkpt>
      <trkpt lat="49.01259" lon="2.81614">
        <ele>124.15</ele>
        <time>2014-02-23T11:24:00Z</time>
      </trkpt>
      <trkpt lat="49.01259" lon="2.81614">
        <ele>125.11</ele>
        <time>2014-02-23T11:24:27Z</time>
      </trkpt>
      <trkpt lat="49.01259" lon="2.81614">
        <ele>124.63</ele>
        <time>2014-02-23T11:24:52Z</time>
      </trkpt>
      <trkpt lat="49.01259" lon="2.81613">
        <ele>125.11</ele>
        <time>2014-02-23T11:25:20Z</time>
      </trkpt>
      <trkpt lat="49.01259" lon="2.81612">
        <ele>124.63</ele>
        <time>2014-02-23T11:25:48Z</time>
      </trkpt>
      <trkpt lat="49.01259" lon="2.8161">
        <ele>125.11</ele>
        <time>2014-02-23T11:26:13Z</time>
      </trkpt>
      <trkpt lat="49.01258" lon="2.8161">
        <ele>125.11</ele>
        <time>2014-02-23T11:26:41Z</time>
      </trkpt>
      <trkpt lat="49.01258" lon="2.81612">
        <ele>123.67</ele>
        <time>2014-02-23T11:27:12Z</time>
      </trkpt>
      <trkpt lat="49.01259" lon="2.81613">
        <ele>122.71</ele>
        <time>2014-02-23T11:27:39Z</time>
      </trkpt>
      <trkpt lat="49.01259" lon="2.81614">
        <ele>123.19</ele>
        <time>2014-02-23T11:28:00Z</time>
      </trkpt>
      <trkpt lat="49.01258" lon="2.81615">
        <ele>123.19</ele>
        <time>2014-02-23T11:28:02Z</time>
      </trkpt>
      <trkpt lat="49.01257" lon="2.8163">
        <ele>121.26</ele>
        <time>2014-02-23T11:28:11Z</time>
      </trkpt>
      <trkpt lat="49.01262" lon="2.81664">
        <ele>118.86</ele>
        <time>2014-02-23T11:28:29Z</time>
      </trkpt>
      <trkpt lat="49.01268" lon="2.81685">
        <ele>120.3</ele>
        <time>2014-02-23T11:28:44Z</time>
      </trkpt>
      <trkpt lat="49.01273" lon="2.81695">
        <ele>120.3</ele>
        <time>2014-02-23T11:28:58Z</time>
      </trkpt>
      <trkpt lat="49.01271" lon="2.81698">
        <ele>119.34</ele>
        <time>2014-02-23T11:29:10Z</time>
      </trkpt>
      <trkpt lat="49.01271" lon="2.81697">
        <ele>118.86</ele>
        <time>2014-02-23T11:29:21Z</time>
      </trkpt>
      <trkpt lat="49.01257" lon="2.81705">
        <ele>119.34</ele>
        <time>2014-02-23T11:29:36Z</time>
      </trkpt>
      <trkpt lat="49.01252" lon="2.81716">
        <ele>120.78</ele>
        <time>2014-02-23T11:29:57Z</time>
      </trkpt>
      <trkpt lat="49.01254" lon="2.81714">
        <ele>119.82</ele>
        <time>2014-02-23T11:30:18Z</time>
      </trkpt>
      <trkpt lat="49.01256" lon="2.81716">
        <ele>117.9</ele>
        <time>2014-02-23T11:30:31Z</time>
      </trkpt>
      <trkpt lat="49.01255" lon="2.81715">
        <ele>117.9</ele>
        <time>2014-02-23T11:30:36Z</time>
      </trkpt>
      <trkpt lat="49.01254" lon="2.81711">
        <ele>117.42</ele>
        <time>2014-02-23T11:30:39Z</time>
      </trkpt>
      <trkpt lat="49.01255" lon="2.81706">
        <ele>117.42</ele>
        <time>2014-02-23T11:30:42Z</time>
      </trkpt>
      <trkpt lat="49.01272" lon="2.81692">
        <ele>114.05</ele>
        <time>2014-02-23T11:30:59Z</time>
      </trkpt>
      <trkpt lat="49.01275" lon="2.81691">
        <ele>114.05</ele>
        <time>2014-02-23T11:31:03Z</time>
      </trkpt>
      <trkpt lat="49.01267" lon="2.81667">
        <ele>113.09</ele>
        <time>2014-02-23T11:31:19Z</time>
      </trkpt>
      <trkpt lat="49.01257" lon="2.81625">
        <ele>112.61</ele>
        <time>2014-02-23T11:31:46Z</time>
      </trkpt>
      <trkpt lat="49.01256" lon="2.81619">
        <ele>113.09</ele>
        <time>2014-02-23T11:32:05Z</time>
      </trkpt>
      <trkpt lat="49.01256" lon="2.81619">
        <ele>112.61</ele>
        <time>2014-02-23T11:32:30Z</time>
      </trkpt>
      <trkpt lat="49.01256" lon="2.81619">
        <ele>112.61</ele>
        <time>2014-02-23T11:32:58Z</time>
      </trkpt>
      <trkpt lat="49.01257" lon="2.81618">
        <ele>112.13</ele>
        <time>2014-02-23T11:33:27Z</time>
      </trkpt>
      <trkpt lat="49.01257" lon="2.81617">
        <ele>111.65</ele>
        <time>2014-02-23T11:33:51Z</time>
      </trkpt>
      <trkpt lat="49.01258" lon="2.81603">
        <ele>110.69</ele>
        <time>2014-02-23T11:34:12Z</time>
      </trkpt>
      <trkpt lat="49.01258" lon="2.81605">
        <ele>110.69</ele>
        <time>2014-02-23T11:34:36Z</time>
      </trkpt>
      <trkpt lat="49.01257" lon="2.81618">
        <ele>112.13</ele>
        <time>2014-02-23T11:35:04Z</time>
      </trkpt>
      <trkpt lat="49.0126" lon="2.81626">
        <ele>114.05</ele>
        <time>2014-02-23T11:35:24Z</time>
      </trkpt>
      <trkpt lat="49.01254" lon="2.81627">
        <ele>114.53</ele>
        <time>2014-02-23T11:36:14Z</time>
      </trkpt>
      <trkpt lat="49.01259" lon="2.81622">
        <ele>114.53</ele>
        <time>2014-02-23T11:36:44Z</time>
      </trkpt>
      <trkpt lat="49.01264" lon="2.81617">
        <ele>115.01</ele>
        <time>2014-02-23T11:37:16Z</time>
      </trkpt>
      <trkpt lat="49.01263" lon="2.81616">
        <ele>115.01</ele>
        <time>2014-02-23T11:37:39Z</time>
      </trkpt>
      <trkpt lat="49.01264" lon="2.81616">
        <ele>115.01</ele>
        <time>2014-02-23T11:38:04Z</time>
      </trkpt>
      <trkpt lat="49.01264" lon="2.81616">
        <ele>116.46</ele>
        <time>2014-02-23T11:38:32Z</time>
      </trkpt>
      <trkpt lat="49.01265" lon="2.81617">
        <ele>117.42</ele>
        <time>2014-02-23T11:38:58Z</time>
      </trkpt>
      <trkpt lat="49.01274" lon="2.81617">
        <ele>120.3</ele>
        <time>2014-02-23T11:39:23Z</time>
      </trkpt>
      <trkpt lat="49.01257" lon="2.81614">
        <ele>121.26</ele>
        <time>2014-02-23T11:39:46Z</time>
      </trkpt>
      <trkpt lat="49.01258" lon="2.81616">
        <ele>121.26</ele>
        <time>2014-02-23T11:40:12Z</time>
      </trkpt>
      <trkpt lat="49.01256" lon="2.81616">
        <ele>121.74</ele>
        <time>2014-02-23T11:40:32Z</time>
      </trkpt>
      <trkpt lat="49.01256" lon="2.81617">
        <ele>120.3</ele>
        <time>2014-02-23T11:40:47Z</time>
      </trkpt>
      <trkpt lat="49.01258" lon="2.8162">
        <ele>118.38</ele>
        <time>2014-02-23T11:41:05Z</time>
      </trkpt>
      <trkpt lat="49.01258" lon="2.8162">
        <ele>117.42</ele>
        <time>2014-02-23T11:41:18Z</time>
      </trkpt>
      <trkpt lat="49.01259" lon="2.8162">
        <ele>115.01</ele>
        <time>2014-02-23T11:41:39Z</time>
      </trkpt>
      <trkpt lat="49.01259" lon="2.81621">
        <ele>115.01</ele>
        <time>2014-02-23T11:42:02Z</time>
      </trkpt>
      <trkpt lat="49.0126" lon="2.81619">
        <ele>114.53</ele>
        <time>2014-02-23T11:42:23Z</time>
      </trkpt>
      <trkpt lat="49.0126" lon="2.8162">
        <ele>113.57</ele>
        <time>2014-02-23T11:42:46Z</time>
      </trkpt>
      <trkpt lat="49.0126" lon="2.8162">
        <ele>113.09</ele>
        <time>2014-02-23T11:43:05Z</time>
      </trkpt>
      <trkpt lat="49.0126" lon="2.81617">
        <ele>113.57</ele>
        <time>2014-02-23T11:43:31Z</time>
      </trkpt>
      <trkpt lat="49.01261" lon="2.81614">
        <ele>113.57</ele>
        <time>2014-02-23T11:43:48Z</time>
      </trkpt>
      <trkpt lat="49.01262" lon="2.81612">
        <ele>113.57</ele>
        <time>2014-02-23T11:44:16Z</time>
      </trkpt>
      <trkpt lat="49.01261" lon="2.81614">
        <ele>113.57</ele>
        <time>2014-02-23T11:44:35Z</time>
      </trkpt>
      <trkpt lat="49.01258" lon="2.81619">
        <ele>113.57</ele>
        <time>2014-02-23T11:44:49Z</time>
      </trkpt>
      <trkpt lat="49.01259" lon="2.81618">
        <ele>114.05</ele>
        <time>2014-02-23T11:45:11Z</time>
      </trkpt>
      <trkpt lat="49.01258" lon="2.81618">
        <ele>114.53</ele>
        <time>2014-02-23T11:45:38Z</time>
      </trkpt>
      <trkpt lat="49.01258" lon="2.81618">
        <ele>115.5</ele>
        <time>2014-02-23T11:46:00Z</time>
      </trkpt>
      <trkpt lat="49.01258" lon="2.81619">
        <ele>115.5</ele>
        <time>2014-02-23T11:46:29Z</time>
      </trkpt>
      <trkpt lat="49.01257" lon="2.81621">
        <ele>115.98</ele>
        <time>2014-02-23T11:47:05Z</time>
      </trkpt>
      <trkpt lat="49.01258" lon="2.81621">
        <ele>116.94</ele>
        <time>2014-02-23T11:47:27Z</time>
      </trkpt>
      <trkpt lat="49.01256" lon="2.81634">
        <ele>117.9</ele>
        <time>2014-02-23T11:47:45Z</time>
      </trkpt>
      <trkpt lat="49.01256" lon="2.81655">
        <ele>118.86</ele>
        <time>2014-02-23T11:48:01Z</time>
      </trkpt>
      <trkpt lat="49.01265" lon="2.81672">
        <ele>118.86</ele>
        <time>2014-02-23T11:48:18Z</time>
      </trkpt>
      <trkpt lat="49.01269" lon="2.81677">
        <ele>118.86</ele>
        <time>2014-02-23T11:48:24Z</time>
      </trkpt>
      <trkpt lat="49.0127" lon="2.81696">
        <ele>119.34</ele>
        <time>2014-02-23T11:48:39Z</time>
      </trkpt>
      <trkpt lat="49.01254" lon="2.81703">
        <ele>122.22</ele>
        <time>2014-02-23T11:48:57Z</time>
      </trkpt>
      <trkpt lat="49.01235" lon="2.81722">
        <ele>124.63</ele>
        <time>2014-02-23T11:49:16Z</time>
      </trkpt>
      <trkpt lat="49.01216" lon="2.81747">
        <ele>126.07</ele>
        <time>2014-02-23T11:49:37Z</time>
      </trkpt>
      <trkpt lat="49.01197" lon="2.81772">
        <ele>126.55</ele>
        <time>2014-02-23T11:49:57Z</time>
      </trkpt>
      <trkpt lat="49.01173" lon="2.81792">
        <ele>128.47</ele>
        <time>2014-02-23T11:50:20Z</time>
      </trkpt>
      <trkpt lat="49.01158" lon="2.81802">
        <ele>129.43</ele>
        <time>2014-02-23T11:50:39Z</time>
      </trkpt>
      <trkpt lat="49.01137" lon="2.81812">
        <ele>132.8</ele>
        <time>2014-02-23T11:50:58Z</time>
      </trkpt>
      <trkpt lat="49.01117" lon="2.81829">
        <ele>135.2</ele>
        <time>2014-02-23T11:51:17Z</time>
      </trkpt>
      <trkpt lat="49.0111" lon="2.81838">
        <ele>135.68</ele>
        <time>2014-02-23T11:51:24Z</time>
      </trkpt>
      <trkpt lat="49.01096" lon="2.8187">
        <ele>135.2</ele>
        <time>2014-02-23T11:51:44Z</time>
      </trkpt>
      <trkpt lat="49.01083" lon="2.81904">
        <ele>135.68</ele>
        <time>2014-02-23T11:52:04Z</time>
      </trkpt>
      <trkpt lat="49.0107" lon="2.81945">
        <ele>137.61</ele>
        <time>2014-02-23T11:52:30Z</time>
      </trkpt>
      <trkpt lat="49.01067" lon="2.81954">
        <ele>138.09</ele>
        <time>2014-02-23T11:52:36Z</time>
      </trkpt>
      <trkpt lat="49.01057" lon="2.81971">
        <ele>139.53</ele>
        <time>2014-02-23T11:52:50Z</time>
      </trkpt>
      <trkpt lat="49.0105" lon="2.81988">
        <ele>141.93</ele>
        <time>2014-02-23T11:53:01Z</time>
      </trkpt>
      <trkpt lat="49.01038" lon="2.82022">
        <ele>143.37</ele>
        <time>2014-02-23T11:53:24Z</time>
      </trkpt>
      <trkpt lat="49.01024" lon="2.82058">
        <ele>145.78</ele>
        <time>2014-02-23T11:53:45Z</time>
      </trkpt>
      <trkpt lat="49.01015" lon="2.82082">
        <ele>149.14</ele>
        <time>2014-02-23T11:54:02Z</time>
      </trkpt>
      <trkpt lat="49.01003" lon="2.82112">
        <ele>152.03</ele>
        <time>2014-02-23T11:54:21Z</time>
      </trkpt>
      <trkpt lat="49.00992" lon="2.82145">
        <ele>153.95</ele>
        <time>2014-02-23T11:54:45Z</time>
      </trkpt>
      <trkpt lat="49.00991" lon="2.8215">
        <ele>152.51</ele>
        <time>2014-02-23T11:55:04Z</time>
      </trkpt>
      <trkpt lat="49.0099" lon="2.82161">
        <ele>151.54</ele>
        <time>2014-02-23T11:55:17Z</time>
      </trkpt>
      <trkpt lat="49.00986" lon="2.8218">
        <ele>151.54</ele>
        <time>2014-02-23T11:55:36Z</time>
      </trkpt>
      <trkpt lat="49.00977" lon="2.82213">
        <ele>152.51</ele>
        <time>2014-02-23T11:55:58Z</time>
      </trkpt>
      <trkpt lat="49.00969" lon="2.82239">
        <ele>154.43</ele>
        <time>2014-02-23T11:56:17Z</time>
      </trkpt>
      <trkpt lat="49.00958" lon="2.82266">
        <ele>157.31</ele>
        <time>2014-02-23T11:56:35Z</time>
      </trkpt>
      <trkpt lat="49.00945" lon="2.823">
        <ele>159.72</ele>
        <time>2014-02-23T11:56:55Z</time>
      </trkpt>
      <trkpt lat="49.00937" lon="2.82314">
        <ele>159.72</ele>
        <time>2014-02-23T11:57:06Z</time>
      </trkpt>
      <trkpt lat="49.00916" lon="2.82338">
        <ele>161.64</ele>
        <time>2014-02-23T11:57:27Z</time>
      </trkpt>
      <trkpt lat="49.00897" lon="2.82356">
        <ele>164.04</ele>
        <time>2014-02-23T11:57:42Z</time>
      </trkpt>
      <trkpt lat="49.00872" lon="2.82369">
        <ele>161.64</ele>
        <time>2014-02-23T11:58:00Z</time>
      </trkpt>
      <trkpt lat="49.00847" lon="2.82378">
        <ele>160.2</ele>
        <time>2014-02-23T11:58:20Z</time>
      </trkpt>
      <trkpt lat="49.00841" lon="2.82382">
        <ele>159.72</ele>
        <time>2014-02-23T11:58:25Z</time>
      </trkpt>
      <trkpt lat="49.00824" lon="2.82388">
        <ele>160.2</ele>
        <time>2014-02-23T11:58:39Z</time>
      </trkpt>
      <trkpt lat="49.00803" lon="2.82393">
        <ele>162.6</ele>
        <time>2014-02-23T11:58:55Z</time>
      </trkpt>
      <trkpt lat="49.00785" lon="2.82402">
        <ele>165</ele>
        <time>2014-02-23T11:59:11Z</time>
      </trkpt>
      <trkpt lat="49.0077" lon="2.82418">
        <ele>163.08</ele>
        <time>2014-02-23T11:59:29Z</time>
      </trkpt>
      <trkpt lat="49.00768" lon="2.82424">
        <ele>163.08</ele>
        <time>2014-02-23T11:59:32Z</time>
      </trkpt>
      <trkpt lat="49.00758" lon="2.82455">
        <ele>164.04</ele>
        <time>2014-02-23T11:59:51Z</time>
      </trkpt>
      <trkpt lat="49.00746" lon="2.82482">
        <ele>165.48</ele>
        <time>2014-02-23T12:00:10Z</time>
      </trkpt>
      <trkpt lat="49.00737" lon="2.82516">
        <ele>165</ele>
        <time>2014-02-23T12:00:30Z</time>
      </trkpt>
      <trkpt lat="49.00724" lon="2.82544">
        <ele>165</ele>
        <time>2014-02-23T12:00:48Z</time>
      </trkpt>
      <trkpt lat="49.00713" lon="2.82572">
        <ele>163.08</ele>
        <time>2014-02-23T12:01:09Z</time>
      </trkpt>
      <trkpt lat="49.00701" lon="2.82587">
        <ele>161.16</ele>
        <time>2014-02-23T12:01:29Z</time>
      </trkpt>
      <trkpt lat="49.00698" lon="2.82586">
        <ele>160.68</ele>
        <time>2014-02-23T12:01:44Z</time>
      </trkpt>
      <trkpt lat="49.007" lon="2.8259">
        <ele>158.75</ele>
        <time>2014-02-23T12:01:59Z</time>
      </trkpt>
      <trkpt lat="49.00701" lon="2.82611">
        <ele>157.79</ele>
        <time>2014-02-23T12:02:13Z</time>
      </trkpt>
      <trkpt lat="49.00706" lon="2.82626">
        <ele>157.79</ele>
        <time>2014-02-23T12:02:31Z</time>
      </trkpt>
      <trkpt lat="49.00707" lon="2.82624">
        <ele>157.31</ele>
        <time>2014-02-23T12:02:50Z</time>
      </trkpt>
      <trkpt lat="49.00706" lon="2.82613">
        <ele>154.91</ele>
        <time>2014-02-23T12:03:05Z</time>
      </trkpt>
      <trkpt lat="49.00707" lon="2.82612">
        <ele>155.39</ele>
        <time>2014-02-23T12:03:36Z</time>
      </trkpt>
      <trkpt lat="49.00706" lon="2.8261">
        <ele>155.39</ele>
        <time>2014-02-23T12:03:55Z</time>
      </trkpt>
      <trkpt lat="49.00706" lon="2.82609">
        <ele>154.91</ele>
        <time>2014-02-23T12:04:27Z</time>
      </trkpt>
      <trkpt lat="49.00706" lon="2.82608">
        <ele>154.43</ele>
        <time>2014-02-23T12:04:53Z</time>
      </trkpt>
      <trkpt lat="49.00705" lon="2.82608">
        <ele>154.43</ele>
        <time>2014-02-23T12:05:18Z</time>
      </trkpt>
      <trkpt lat="49.00704" lon="2.82607">
        <ele>155.39</ele>
        <time>2014-02-23T12:05:31Z</time>
      </trkpt>
      <trkpt lat="49.00705" lon="2.82623">
        <ele>155.39</ele>
        <time>2014-02-23T12:05:44Z</time>
      </trkpt>
      <trkpt lat="49.00709" lon="2.82624">
        <ele>156.35</ele>
        <time>2014-02-23T12:06:03Z</time>
      </trkpt>
      <trkpt lat="49.00728" lon="2.82622">
        <ele>156.83</ele>
        <time>2014-02-23T12:06:21Z</time>
      </trkpt>
      <trkpt lat="49.00729" lon="2.82629">
        <ele>154.91</ele>
        <time>2014-02-23T12:06:27Z</time>
      </trkpt>
      <trkpt lat="49.00731" lon="2.82642">
        <ele>155.87</ele>
        <time>2014-02-23T12:06:40Z</time>
      </trkpt>
      <trkpt lat="49.00734" lon="2.82658">
        <ele>153.47</ele>
        <time>2014-02-23T12:06:57Z</time>
      </trkpt>
      <trkpt lat="49.0073" lon="2.8267">
        <ele>153.47</ele>
        <time>2014-02-23T12:07:09Z</time>
      </trkpt>
      <trkpt lat="49.00726" lon="2.82672">
        <ele>153.47</ele>
        <time>2014-02-23T12:07:13Z</time>
      </trkpt>
      <trkpt lat="49.00711" lon="2.82675">
        <ele>153.95</ele>
        <time>2014-02-23T12:07:29Z</time>
      </trkpt>
      <trkpt lat="49.00719" lon="2.82672">
        <ele>152.99</ele>
        <time>2014-02-23T12:07:44Z</time>
      </trkpt>
      <trkpt lat="49.00712" lon="2.82677">
        <ele>151.54</ele>
        <time>2014-02-23T12:07:58Z</time>
      </trkpt>
      <trkpt lat="49.00698" lon="2.8268">
        <ele>151.54</ele>
        <time>2014-02-23T12:08:10Z</time>
      </trkpt>
      <trkpt lat="49.00683" lon="2.8268">
        <ele>151.54</ele>
        <time>2014-02-23T12:08:22Z</time>
      </trkpt>
      <trkpt lat="49.00668" lon="2.82701">
        <ele>151.54</ele>
        <time>2014-02-23T12:08:42Z</time>
      </trkpt>
      <trkpt lat="49.00655" lon="2.8272">
        <ele>152.51</ele>
        <time>2014-02-23T12:08:57Z</time>
      </trkpt>
      <trkpt lat="49.00641" lon="2.82743">
        <ele>154.91</ele>
        <time>2014-02-23T12:09:14Z</time>
      </trkpt>
      <trkpt lat="49.00628" lon="2.8276">
        <ele>153.47</ele>
        <time>2014-02-23T12:09:29Z</time>
      </trkpt>
      <trkpt lat="49.0061" lon="2.82786">
        <ele>152.51</ele>
        <time>2014-02-23T12:09:51Z</time>
      </trkpt>
      <trkpt lat="49.0059" lon="2.82813">
        <ele>149.14</ele>
        <time>2014-02-23T12:10:14Z</time>
      </trkpt>
      <trkpt lat="49.00585" lon="2.82821">
        <ele>148.66</ele>
        <time>2014-02-23T12:10:20Z</time>
      </trkpt>
      <trkpt lat="49.00564" lon="2.82842">
        <ele>151.54</ele>
        <time>2014-02-23T12:10:41Z</time>
      </trkpt>
      <trkpt lat="49.00545" lon="2.8286">
        <ele>148.18</ele>
        <time>2014-02-23T12:11:00Z</time>
      </trkpt>
      <trkpt lat="49.00524" lon="2.82882">
        <ele>142.41</ele>
        <time>2014-02-23T12:11:21Z</time>
      </trkpt>
      <trkpt lat="49.00506" lon="2.829">
        <ele>142.41</ele>
        <time>2014-02-23T12:11:38Z</time>
      </trkpt>
      <trkpt lat="49.00487" lon="2.8292">
        <ele>140.01</ele>
        <time>2014-02-23T12:11:57Z</time>
      </trkpt>
      <trkpt lat="49.00471" lon="2.82935">
        <ele>136.16</ele>
        <time>2014-02-23T12:12:13Z</time>
      </trkpt>
      <trkpt lat="49.00451" lon="2.82949">
        <ele>131.36</ele>
        <time>2014-02-23T12:12:32Z</time>
      </trkpt>
      <trkpt lat="49.00424" lon="2.82963">
        <ele>130.88</ele>
        <time>2014-02-23T12:12:53Z</time>
      </trkpt>
      <trkpt lat="49.004" lon="2.82974">
        <ele>126.55</ele>
        <time>2014-02-23T12:13:15Z</time>
      </trkpt>
      <trkpt lat="49.00382" lon="2.8299">
        <ele>127.03</ele>
        <time>2014-02-23T12:13:33Z</time>
      </trkpt>
      <trkpt lat="49.00365" lon="2.83009">
        <ele>125.59</ele>
        <time>2014-02-23T12:13:50Z</time>
      </trkpt>
      <trkpt lat="49.00352" lon="2.83026">
        <ele>124.63</ele>
        <time>2014-02-23T12:14:08Z</time>
      </trkpt>
      <trkpt lat="49.00341" lon="2.83032">
        <ele>123.67</ele>
        <time>2014-02-23T12:14:20Z</time>
      </trkpt>
      <trkpt lat="49.00313" lon="2.83055">
        <ele>123.19</ele>
        <time>2014-02-23T12:14:42Z</time>
      </trkpt>
      <trkpt lat="49.00285" lon="2.83063">
        <ele>123.67</ele>
        <time>2014-02-23T12:15:03Z</time>
      </trkpt>
      <trkpt lat="49.0026" lon="2.83075">
        <ele>127.51</ele>
        <time>2014-02-23T12:15:23Z</time>
      </trkpt>
      <trkpt lat="49.00239" lon="2.83093">
        <ele>128.47</ele>
        <time>2014-02-23T12:15:43Z</time>
      </trkpt>
      <trkpt lat="49.00225" lon="2.83124">
        <ele>124.15</ele>
        <time>2014-02-23T12:16:03Z</time>
      </trkpt>
      <trkpt lat="49.00212" lon="2.83144">
        <ele>122.22</ele>
        <time>2014-02-23T12:16:20Z</time>
      </trkpt>
      <trkpt lat="49.00198" lon="2.83155">
        <ele>120.3</ele>
        <time>2014-02-23T12:16:32Z</time>
      </trkpt>
      <trkpt lat="49.00174" lon="2.83164">
        <ele>121.74</ele>
        <time>2014-02-23T12:16:53Z</time>
      </trkpt>
      <trkpt lat="49.00148" lon="2.83174">
        <ele>122.22</ele>
        <time>2014-02-23T12:17:15Z</time>
      </trkpt>
      <trkpt lat="49.00121" lon="2.83185">
        <ele>120.3</ele>
        <time>2014-02-23T12:17:39Z</time>
      </trkpt>
      <trkpt lat="49.00097" lon="2.83193">
        <ele>118.38</ele>
        <time>2014-02-23T12:18:00Z</time>
      </trkpt>
      <trkpt lat="49.00072" lon="2.83203">
        <ele>119.34</ele>
        <time>2014-02-23T12:18:20Z</time>
      </trkpt>
      <trkpt lat="49.00053" lon="2.83215">
        <ele>117.9</ele>
        <time>2014-02-23T12:18:37Z</time>
      </trkpt>
      <trkpt lat="49.00029" lon="2.83236">
        <ele>116.94</ele>
        <time>2014-02-23T12:19:00Z</time>
      </trkpt>
      <trkpt lat="49.00007" lon="2.83257">
        <ele>116.46</ele>
        <time>2014-02-23T12:19:23Z</time>
      </trkpt>
      <trkpt lat="48.99989" lon="2.83275">
        <ele>115.5</ele>
        <time>2014-02-23T12:19:41Z</time>
      </trkpt>
      <trkpt lat="48.99964" lon="2.83296">
        <ele>115.01</ele>
        <time>2014-02-23T12:20:05Z</time>
      </trkpt>
      <trkpt lat="48.99945" lon="2.8332">
        <ele>114.53</ele>
        <time>2014-02-23T12:20:26Z</time>
      </trkpt>
      <trkpt lat="48.99925" lon="2.83343">
        <ele>115.01</ele>
        <time>2014-02-23T12:20:46Z</time>
      </trkpt>
      <trkpt lat="48.99903" lon="2.83369">
        <ele>114.05</ele>
        <time>2014-02-23T12:21:07Z</time>
      </trkpt>
      <trkpt lat="48.99882" lon="2.83391">
        <ele>112.61</ele>
        <time>2014-02-23T12:21:28Z</time>
      </trkpt>
      <trkpt lat="48.99861" lon="2.83411">
        <ele>111.65</ele>
        <time>2014-02-23T12:21:48Z</time>
      </trkpt>
      <trkpt lat="48.99842" lon="2.83429">
        <ele>110.69</ele>
        <time>2014-02-23T12:22:07Z</time>
      </trkpt>
      <trkpt lat="48.99824" lon="2.83445">
        <ele>109.25</ele>
        <time>2014-02-23T12:22:23Z</time>
      </trkpt>
      <trkpt lat="48.99802" lon="2.83466">
        <ele>110.21</ele>
        <time>2014-02-23T12:22:44Z</time>
      </trkpt>
      <trkpt lat="48.99782" lon="2.83485">
        <ele>109.73</ele>
        <time>2014-02-23T12:23:04Z</time>
      </trkpt>
      <trkpt lat="48.99765" lon="2.835">
        <ele>109.25</ele>
        <time>2014-02-23T12:23:21Z</time>
      </trkpt>
      <trkpt lat="48.99747" lon="2.83515">
        <ele>108.29</ele>
        <time>2014-02-23T12:23:38Z</time>
      </trkpt>
      <trkpt lat="48.99727" lon="2.83532">
        <ele>106.36</ele>
        <time>2014-02-23T12:23:57Z</time>
      </trkpt>
      <trkpt lat="48.9971" lon="2.83545">
        <ele>105.88</ele>
        <time>2014-02-23T12:24:13Z</time>
      </trkpt>
      <trkpt lat="48.99687" lon="2.83568">
        <ele>106.36</ele>
        <time>2014-02-23T12:24:34Z</time>
      </trkpt>
      <trkpt lat="48.99665" lon="2.83587">
        <ele>106.36</ele>
        <time>2014-02-23T12:24:54Z</time>
      </trkpt>
      <trkpt lat="48.99639" lon="2.83606">
        <ele>103.96</ele>
        <time>2014-02-23T12:25:17Z</time>
      </trkpt>
      <trkpt lat="48.99622" lon="2.8362">
        <ele>103</ele>
        <time>2014-02-23T12:25:35Z</time>
      </trkpt>
      <trkpt lat="48.99615" lon="2.83626">
        <ele>102.04</ele>
        <time>2014-02-23T12:25:50Z</time>
      </trkpt>
      <trkpt lat="48.99615" lon="2.83626">
        <ele>102.04</ele>
        <time>2014-02-23T12:26:07Z</time>
      </trkpt>
      <trkpt lat="48.99601" lon="2.83639">
        <ele>101.08</ele>
        <time>2014-02-23T12:26:22Z</time>
      </trkpt>
      <trkpt lat="48.99581" lon="2.83654">
        <ele>102.52</ele>
        <time>2014-02-23T12:26:42Z</time>
      </trkpt>
      <trkpt lat="48.99563" lon="2.83668">
        <ele>103.48</ele>
        <time>2014-02-23T12:27:01Z</time>
      </trkpt>
      <trkpt lat="48.99549" lon="2.83685">
        <ele>101.08</ele>
        <time>2014-02-23T12:27:22Z</time>
      </trkpt>
      <trkpt lat="48.99549" lon="2.83685">
        <ele>101.08</ele>
        <time>2014-02-23T12:27:25Z</time>
      </trkpt>
      <trkpt lat="48.99536" lon="2.83698">
        <ele>100.11</ele>
        <time>2014-02-23T12:27:38Z</time>
      </trkpt>
      <trkpt lat="48.99516" lon="2.83715">
        <ele>100.11</ele>
        <time>2014-02-23T12:27:58Z</time>
      </trkpt>
      <trkpt lat="48.99494" lon="2.83737">
        <ele>99.15</ele>
        <time>2014-02-23T12:28:21Z</time>
      </trkpt>
      <trkpt lat="48.99493" lon="2.83738">
        <ele>99.15</ele>
        <time>2014-02-23T12:28:22Z</time>
      </trkpt>
      <trkpt lat="48.99489" lon="2.83743">
        <ele>98.67</ele>
        <time>2014-02-23T12:28:41Z</time>
      </trkpt>
      <trkpt lat="48.99482" lon="2.83749">
        <ele>97.71</ele>
        <time>2014-02-23T12:28:54Z</time>
      </trkpt>
      <trkpt lat="48.99477" lon="2.83756">
        <ele>97.71</ele>
        <time>2014-02-23T12:29:07Z</time>
      </trkpt>
      <trkpt lat="48.99464" lon="2.83768">
        <ele>97.23</ele>
        <time>2014-02-23T12:29:24Z</time>
      </trkpt>
      <trkpt lat="48.99449" lon="2.83781">
        <ele>98.19</ele>
        <time>2014-02-23T12:29:39Z</time>
      </trkpt>
      <trkpt lat="48.99429" lon="2.8381">
        <ele>98.19</ele>
        <time>2014-02-23T12:30:02Z</time>
      </trkpt>
      <trkpt lat="48.99415" lon="2.83831">
        <ele>98.67</ele>
        <time>2014-02-23T12:30:21Z</time>
      </trkpt>
      <trkpt lat="48.99396" lon="2.8386">
        <ele>98.67</ele>
        <time>2014-02-23T12:30:43Z</time>
      </trkpt>
      <trkpt lat="48.99376" lon="2.83888">
        <ele>101.08</ele>
        <time>2014-02-23T12:31:05Z</time>
      </trkpt>
      <trkpt lat="48.99355" lon="2.83917">
        <ele>101.56</ele>
        <time>2014-02-23T12:31:29Z</time>
      </trkpt>
      <trkpt lat="48.99338" lon="2.83937">
        <ele>102.04</ele>
        <time>2014-02-23T12:31:53Z</time>
      </trkpt>
      <trkpt lat="48.99318" lon="2.83969">
        <ele>103.48</ele>
        <time>2014-02-23T12:32:19Z</time>
      </trkpt>
      <trkpt lat="48.99301" lon="2.8399">
        <ele>105.4</ele>
        <time>2014-02-23T12:32:43Z</time>
      </trkpt>
      <trkpt lat="48.99291" lon="2.84006">
        <ele>106.36</ele>
        <time>2014-02-23T12:33:04Z</time>
      </trkpt>
      <trkpt lat="48.99271" lon="2.84032">
        <ele>108.29</ele>
        <time>2014-02-23T12:33:26Z</time>
      </trkpt>
      <trkpt lat="48.9925" lon="2.84059">
        <ele>107.32</ele>
        <time>2014-02-23T12:33:53Z</time>
      </trkpt>
      <trkpt lat="48.99236" lon="2.84081">
        <ele>108.29</ele>
        <time>2014-02-23T12:34:15Z</time>
      </trkpt>
      <trkpt lat="48.99211" lon="2.84122">
        <ele>108.77</ele>
        <time>2014-02-23T12:34:39Z</time>
      </trkpt>
      <trkpt lat="48.99193" lon="2.84147">
        <ele>109.73</ele>
        <time>2014-02-23T12:35:02Z</time>
      </trkpt>
      <trkpt lat="48.99178" lon="2.84176">
        <ele>110.21</ele>
        <time>2014-02-23T12:35:25Z</time>
      </trkpt>
      <trkpt lat="48.99159" lon="2.84205">
        <ele>106.36</ele>
        <time>2014-02-23T12:35:51Z</time>
      </trkpt>
      <trkpt lat="48.9914" lon="2.84229">
        <ele>104.92</ele>
        <time>2014-02-23T12:36:16Z</time>
      </trkpt>
      <trkpt lat="48.99123" lon="2.84251">
        <ele>108.77</ele>
        <time>2014-02-23T12:36:40Z</time>
      </trkpt>
      <trkpt lat="48.99109" lon="2.84272">
        <ele>113.09</ele>
        <time>2014-02-23T12:37:02Z</time>
      </trkpt>
      <trkpt lat="48.99093" lon="2.84292">
        <ele>116.46</ele>
        <time>2014-02-23T12:37:22Z</time>
      </trkpt>
      <trkpt lat="48.99078" lon="2.84316">
        <ele>116.94</ele>
        <time>2014-02-23T12:37:44Z</time>
      </trkpt>
      <trkpt lat="48.99074" lon="2.84325">
        <ele>117.9</ele>
        <time>2014-02-23T12:38:02Z</time>
      </trkpt>
      <trkpt lat="48.99074" lon="2.84324">
        <ele>118.38</ele>
        <time>2014-02-23T12:38:30Z</time>
      </trkpt>
      <trkpt lat="48.99074" lon="2.84324">
        <ele>118.86</ele>
        <time>2014-02-23T12:38:47Z</time>
      </trkpt>
      <trkpt lat="48.99073" lon="2.84324">
        <ele>119.34</ele>
        <time>2014-02-23T12:39:18Z</time>
      </trkpt>
      <trkpt lat="48.99073" lon="2.84324">
        <ele>120.3</ele>
        <time>2014-02-23T12:39:43Z</time>
      </trkpt>
      <trkpt lat="48.99072" lon="2.84328">
        <ele>120.3</ele>
        <time>2014-02-23T12:40:08Z</time>
      </trkpt>
      <trkpt lat="48.99071" lon="2.84331">
        <ele>120.78</ele>
        <time>2014-02-23T12:40:27Z</time>
      </trkpt>
      <trkpt lat="48.99072" lon="2.84333">
        <ele>121.26</ele>
        <time>2014-02-23T12:40:44Z</time>
      </trkpt>
      <trkpt lat="48.99072" lon="2.84334">
        <ele>121.26</ele>
        <time>2014-02-23T12:41:10Z</time>
      </trkpt>
      <trkpt lat="48.99071" lon="2.84336">
        <ele>121.74</ele>
        <time>2014-02-23T12:41:33Z</time>
      </trkpt>
      <trkpt lat="48.99062" lon="2.84346">
        <ele>124.15</ele>
        <time>2014-02-23T12:41:50Z</time>
      </trkpt>
      <trkpt lat="48.99049" lon="2.84361">
        <ele>127.51</ele>
        <time>2014-02-23T12:42:07Z</time>
      </trkpt>
      <trkpt lat="48.99032" lon="2.84381">
        <ele>127.99</ele>
        <time>2014-02-23T12:42:27Z</time>
      </trkpt>
      <trkpt lat="48.99021" lon="2.84392">
        <ele>128.95</ele>
        <time>2014-02-23T12:42:46Z</time>
      </trkpt>
      <trkpt lat="48.99007" lon="2.84409">
        <ele>130.88</ele>
        <time>2014-02-23T12:43:04Z</time>
      </trkpt>
      <trkpt lat="48.98999" lon="2.84417">
        <ele>130.4</ele>
        <time>2014-02-23T12:43:21Z</time>
      </trkpt>
      <trkpt lat="48.98994" lon="2.84421">
        <ele>130.4</ele>
        <time>2014-02-23T12:43:39Z</time>
      </trkpt>
      <trkpt lat="48.98989" lon="2.84424">
        <ele>132.8</ele>
        <time>2014-02-23T12:44:03Z</time>
      </trkpt>
      <trkpt lat="48.98982" lon="2.84434">
        <ele>134.72</ele>
        <time>2014-02-23T12:44:23Z</time>
      </trkpt>
      <trkpt lat="48.98967" lon="2.84455">
        <ele>133.76</ele>
        <time>2014-02-23T12:44:41Z</time>
      </trkpt>
      <trkpt lat="48.98963" lon="2.84463">
        <ele>133.76</ele>
        <time>2014-02-23T12:44:57Z</time>
      </trkpt>
      <trkpt lat="48.98957" lon="2.84473">
        <ele>134.72</ele>
        <time>2014-02-23T12:45:17Z</time>
      </trkpt>
      <trkpt lat="48.98943" lon="2.84494">
        <ele>138.09</ele>
        <time>2014-02-23T12:45:36Z</time>
      </trkpt>
      <trkpt lat="48.98933" lon="2.84509">
        <ele>137.61</ele>
        <time>2014-02-23T12:45:55Z</time>
      </trkpt>
      <trkpt lat="48.98913" lon="2.84543">
        <ele>137.61</ele>
        <time>2014-02-23T12:46:15Z</time>
      </trkpt>
      <trkpt lat="48.98907" lon="2.84551">
        <ele>138.09</ele>
        <time>2014-02-23T12:46:34Z</time>
      </trkpt>
      <trkpt lat="48.98887" lon="2.84568">
        <ele>141.45</ele>
        <time>2014-02-23T12:46:51Z</time>
      </trkpt>
      <trkpt lat="48.98879" lon="2.84574">
        <ele>143.85</ele>
        <time>2014-02-23T12:47:11Z</time>
      </trkpt>
      <trkpt lat="48.98876" lon="2.8458">
        <ele>145.78</ele>
        <time>2014-02-23T12:47:38Z</time>
      </trkpt>
      <trkpt lat="48.9886" lon="2.84609">
        <ele>148.66</ele>
        <time>2014-02-23T12:47:54Z</time>
      </trkpt>
      <trkpt lat="48.98847" lon="2.84628">
        <ele>150.58</ele>
        <time>2014-02-23T12:48:15Z</time>
      </trkpt>
      <trkpt lat="48.98836" lon="2.84646">
        <ele>149.62</ele>
        <time>2014-02-23T12:48:33Z</time>
      </trkpt>
      <trkpt lat="48.9883" lon="2.84656">
        <ele>149.14</ele>
        <time>2014-02-23T12:48:52Z</time>
      </trkpt>
      <trkpt lat="48.98813" lon="2.84686">
        <ele>150.58</ele>
        <time>2014-02-23T12:49:09Z</time>
      </trkpt>
      <trkpt lat="48.98804" lon="2.84703">
        <ele>152.51</ele>
        <time>2014-02-23T12:49:28Z</time>
      </trkpt>
      <trkpt lat="48.98796" lon="2.84714">
        <ele>152.99</ele>
        <time>2014-02-23T12:49:46Z</time>
      </trkpt>
      <trkpt lat="48.98787" lon="2.84726">
        <ele>151.06</ele>
        <time>2014-02-23T12:50:03Z</time>
      </trkpt>
      <trkpt lat="48.98767" lon="2.84756">
        <ele>151.54</ele>
        <time>2014-02-23T12:50:19Z</time>
      </trkpt>
      <trkpt lat="48.98746" lon="2.8478">
        <ele>153.47</ele>
        <time>2014-02-23T12:50:37Z</time>
      </trkpt>
      <trkpt lat="48.98744" lon="2.84768">
        <ele>153.47</ele>
        <time>2014-02-23T12:50:51Z</time>
      </trkpt>
      <trkpt lat="48.98749" lon="2.84762">
        <ele>155.87</ele>
        <time>2014-02-23T12:51:04Z</time>
      </trkpt>
      <trkpt lat="48.98749" lon="2.84741">
        <ele>157.79</ele>
        <time>2014-02-23T12:51:17Z</time>
      </trkpt>
      <trkpt lat="48.98754" lon="2.84715">
        <ele>156.35</ele>
        <time>2014-02-23T12:51:34Z</time>
      </trkpt>
      <trkpt lat="48.98754" lon="2.84694">
        <ele>154.91</ele>
        <time>2014-02-23T12:51:49Z</time>
      </trkpt>
      <trkpt lat="48.98748" lon="2.84674">
        <ele>153.95</ele>
        <time>2014-02-23T12:52:05Z</time>
      </trkpt>
      <trkpt lat="48.98733" lon="2.84655">
        <ele>154.91</ele>
        <time>2014-02-23T12:52:21Z</time>
      </trkpt>
      <trkpt lat="48.98716" lon="2.84639">
        <ele>156.35</ele>
        <time>2014-02-23T12:52:37Z</time>
      </trkpt>
      <trkpt lat="48.98704" lon="2.84623">
        <ele>160.68</ele>
        <time>2014-02-23T12:52:53Z</time>
      </trkpt>
      <trkpt lat="48.98692" lon="2.84609">
        <ele>161.16</ele>
        <time>2014-02-23T12:53:08Z</time>
      </trkpt>
      <trkpt lat="48.98686" lon="2.84601">
        <ele>160.68</ele>
        <time>2014-02-23T12:53:17Z</time>
      </trkpt>
      <trkpt lat="48.98675" lon="2.84588">
        <ele>154.43</ele>
        <time>2014-02-23T12:53:32Z</time>
      </trkpt>
      <trkpt lat="48.9867" lon="2.84581">
        <ele>154.91</ele>
        <time>2014-02-23T12:53:45Z</time>
      </trkpt>
      <trkpt lat="48.98672" lon="2.84581">
        <ele>154.91</ele>
        <time>2014-02-23T12:54:18Z</time>
      </trkpt>
      <trkpt lat="48.98667" lon="2.84582">
        <ele>156.35</ele>
        <time>2014-02-23T12:54:32Z</time>
      </trkpt>
      <trkpt lat="48.98667" lon="2.84585">
        <ele>158.27</ele>
        <time>2014-02-23T12:54:48Z</time>
      </trkpt>
      <trkpt lat="48.98666" lon="2.84588">
        <ele>158.75</ele>
        <time>2014-02-23T12:55:09Z</time>
      </trkpt>
      <trkpt lat="48.98667" lon="2.84591">
        <ele>162.6</ele>
        <time>2014-02-23T12:55:34Z</time>
      </trkpt>
      <trkpt lat="48.98667" lon="2.8459">
        <ele>163.08</ele>
        <time>2014-02-23T12:55:51Z</time>
      </trkpt>
      <trkpt lat="48.98664" lon="2.84577">
        <ele>162.6</ele>
        <time>2014-02-23T12:56:11Z</time>
      </trkpt>
      <trkpt lat="48.98678" lon="2.84576">
        <ele>163.08</ele>
        <time>2014-02-23T12:56:24Z</time>
      </trkpt>
      <trkpt lat="48.98676" lon="2.84573">
        <ele>161.64</ele>
        <time>2014-02-23T12:56:38Z</time>
      </trkpt>
      <trkpt lat="48.98675" lon="2.84574">
        <ele>160.68</ele>
        <time>2014-02-23T12:57:08Z</time>
      </trkpt>
      <trkpt lat="48.98674" lon="2.84574">
        <ele>160.2</ele>
        <time>2014-02-23T12:57:33Z</time>
      </trkpt>
      <trkpt lat="48.98673" lon="2.84575">
        <ele>161.16</ele>
        <time>2014-02-23T12:57:51Z</time>
      </trkpt>
      <trkpt lat="48.98672" lon="2.84576">
        <ele>161.16</ele>
        <time>2014-02-23T12:58:17Z</time>
      </trkpt>
      <trkpt lat="48.98671" lon="2.84577">
        <ele>161.16</ele>
        <time>2014-02-23T12:58:45Z</time>
      </trkpt>
      <trkpt lat="48.98674" lon="2.84579">
        <ele>160.2</ele>
        <time>2014-02-23T12:59:07Z</time>
      </trkpt>
      <trkpt lat="48.98677" lon="2.84582">
        <ele>159.72</ele>
        <time>2014-02-23T12:59:33Z</time>
      </trkpt>
      <trkpt lat="48.98676" lon="2.8458">
        <ele>159.24</ele>
        <time>2014-02-23T12:59:56Z</time>
      </trkpt>
      <trkpt lat="48.9867" lon="2.84585">
        <ele>157.79</ele>
        <time>2014-02-23T13:00:15Z</time>
      </trkpt>
      <trkpt lat="48.98658" lon="2.84604">
        <ele>158.27</ele>
        <time>2014-02-23T13:00:32Z</time>
      </trkpt>
      <trkpt lat="48.9866" lon="2.84631">
        <ele>151.54</ele>
        <time>2014-02-23T13:00:53Z</time>
      </trkpt>
      <trkpt lat="48.98665" lon="2.84648">
        <ele>143.85</ele>
        <time>2014-02-23T13:01:09Z</time>
      </trkpt>
      <trkpt lat="48.98673" lon="2.8467">
        <ele>138.09</ele>
        <time>2014-02-23T13:01:26Z</time>
      </trkpt>
      <trkpt lat="48.98688" lon="2.84697">
        <ele>136.16</ele>
        <time>2014-02-23T13:01:45Z</time>
      </trkpt>
      <trkpt lat="48.98697" lon="2.84716">
        <ele>142.41</ele>
        <time>2014-02-23T13:02:01Z</time>
      </trkpt>
      <trkpt lat="48.98708" lon="2.84741">
        <ele>144.82</ele>
        <time>2014-02-23T13:02:19Z</time>
      </trkpt>
      <trkpt lat="48.98725" lon="2.84762">
        <ele>142.41</ele>
        <time>2014-02-23T13:02:42Z</time>
      </trkpt>
      <trkpt lat="48.98739" lon="2.84784">
        <ele>142.89</ele>
        <time>2014-02-23T13:03:00Z</time>
      </trkpt>
      <trkpt lat="48.9874" lon="2.84792">
        <ele>145.3</ele>
        <time>2014-02-23T13:03:06Z</time>
      </trkpt>
      <trkpt lat="48.98731" lon="2.8481">
        <ele>147.7</ele>
        <time>2014-02-23T13:03:21Z</time>
      </trkpt>
      <trkpt lat="48.98721" lon="2.84821">
        <ele>144.82</ele>
        <time>2014-02-23T13:03:35Z</time>
      </trkpt>
      <trkpt lat="48.98712" lon="2.84833">
        <ele>144.82</ele>
        <time>2014-02-23T13:03:49Z</time>
      </trkpt>
      <trkpt lat="48.98712" lon="2.84833">
        <ele>145.3</ele>
        <time>2014-02-23T13:03:52Z</time>
      </trkpt>
      <trkpt lat="48.987" lon="2.84849">
        <ele>147.22</ele>
        <time>2014-02-23T13:04:08Z</time>
      </trkpt>
      <trkpt lat="48.98697" lon="2.84853">
        <ele>147.22</ele>
        <time>2014-02-23T13:04:12Z</time>
      </trkpt>
      <trkpt lat="48.98684" lon="2.84873">
        <ele>148.66</ele>
        <time>2014-02-23T13:04:28Z</time>
      </trkpt>
      <trkpt lat="48.98674" lon="2.84886">
        <ele>149.62</ele>
        <time>2014-02-23T13:04:44Z</time>
      </trkpt>
      <trkpt lat="48.98655" lon="2.8491">
        <ele>149.62</ele>
        <time>2014-02-23T13:05:00Z</time>
      </trkpt>
      <trkpt lat="48.98641" lon="2.84931">
        <ele>149.14</ele>
        <time>2014-02-23T13:05:15Z</time>
      </trkpt>
      <trkpt lat="48.98627" lon="2.84947">
        <ele>144.82</ele>
        <time>2014-02-23T13:05:32Z</time>
      </trkpt>
      <trkpt lat="48.98611" lon="2.84965">
        <ele>139.53</ele>
        <time>2014-02-23T13:05:51Z</time>
      </trkpt>
      <trkpt lat="48.986" lon="2.84981">
        <ele>135.68</ele>
        <time>2014-02-23T13:06:07Z</time>
      </trkpt>
      <trkpt lat="48.98589" lon="2.84993">
        <ele>136.16</ele>
        <time>2014-02-23T13:06:19Z</time>
      </trkpt>
      <trkpt lat="48.98577" lon="2.85009">
        <ele>136.16</ele>
        <time>2014-02-23T13:06:35Z</time>
      </trkpt>
      <trkpt lat="48.98566" lon="2.85026">
        <ele>136.64</ele>
        <time>2014-02-23T13:06:49Z</time>
      </trkpt>
      <trkpt lat="48.98555" lon="2.85048">
        <ele>136.64</ele>
        <time>2014-02-23T13:07:04Z</time>
      </trkpt>
      <trkpt lat="48.98554" lon="2.85054">
        <ele>136.64</ele>
        <time>2014-02-23T13:07:21Z</time>
      </trkpt>
      <trkpt lat="48.98557" lon="2.85071">
        <ele>135.68</ele>
        <time>2014-02-23T13:07:38Z</time>
      </trkpt>
      <trkpt lat="48.98558" lon="2.85085">
        <ele>136.16</ele>
        <time>2014-02-23T13:07:55Z</time>
      </trkpt>
      <trkpt lat="48.98554" lon="2.85119">
        <ele>136.16</ele>
        <time>2014-02-23T13:08:12Z</time>
      </trkpt>
      <trkpt lat="48.98552" lon="2.85131">
        <ele>136.64</ele>
        <time>2014-02-23T13:08:29Z</time>
      </trkpt>
      <trkpt lat="48.98553" lon="2.85136">
        <ele>135.68</ele>
        <time>2014-02-23T13:08:35Z</time>
      </trkpt>
      <trkpt lat="48.98552" lon="2.85174">
        <ele>133.28</ele>
        <time>2014-02-23T13:08:53Z</time>
      </trkpt>
      <trkpt lat="48.98552" lon="2.85203">
        <ele>132.32</ele>
        <time>2014-02-23T13:09:10Z</time>
      </trkpt>
      <trkpt lat="48.98555" lon="2.85232">
        <ele>132.8</ele>
        <time>2014-02-23T13:09:26Z</time>
      </trkpt>
      <trkpt lat="48.98558" lon="2.85258">
        <ele>133.28</ele>
        <time>2014-02-23T13:09:42Z</time>
      </trkpt>
      <trkpt lat="48.98562" lon="2.8528">
        <ele>129.43</ele>
        <time>2014-02-23T13:09:59Z</time>
      </trkpt>
      <trkpt lat="48.98569" lon="2.85309">
        <ele>125.11</ele>
        <time>2014-02-23T13:10:19Z</time>
      </trkpt>
      <trkpt lat="48.98573" lon="2.85336">
        <ele>124.63</ele>
        <time>2014-02-23T13:10:35Z</time>
      </trkpt>
      <trkpt lat="48.98575" lon="2.85341">
        <ele>125.11</ele>
        <time>2014-02-23T13:10:39Z</time>
      </trkpt>
      <trkpt lat="48.98584" lon="2.85371">
        <ele>126.55</ele>
        <time>2014-02-23T13:10:57Z</time>
      </trkpt>
      <trkpt lat="48.98591" lon="2.85392">
        <ele>121.74</ele>
        <time>2014-02-23T13:11:14Z</time>
      </trkpt>
      <trkpt lat="48.986" lon="2.85415">
        <ele>118.86</ele>
        <time>2014-02-23T13:11:32Z</time>
      </trkpt>
      <trkpt lat="48.98608" lon="2.85443">
        <ele>119.82</ele>
        <time>2014-02-23T13:11:50Z</time>
      </trkpt>
      <trkpt lat="48.98615" lon="2.85466">
        <ele>118.38</ele>
        <time>2014-02-23T13:12:09Z</time>
      </trkpt>
      <trkpt lat="48.98623" lon="2.85478">
        <ele>118.38</ele>
        <time>2014-02-23T13:12:24Z</time>
      </trkpt>
      <trkpt lat="48.98639" lon="2.85502">
        <ele>120.3</ele>
        <time>2014-02-23T13:12:41Z</time>
      </trkpt>
      <trkpt lat="48.98649" lon="2.85521">
        <ele>123.19</ele>
        <time>2014-02-23T13:12:58Z</time>
      </trkpt>
      <trkpt lat="48.98657" lon="2.85532">
        <ele>124.63</ele>
        <time>2014-02-23T13:13:16Z</time>
      </trkpt>
      <trkpt lat="48.98662" lon="2.85538">
        <ele>125.11</ele>
        <time>2014-02-23T13:13:33Z</time>
      </trkpt>
      <trkpt lat="48.98666" lon="2.85543">
        <ele>124.63</ele>
        <time>2014-02-23T13:13:52Z</time>
      </trkpt>
      <trkpt lat="48.98671" lon="2.85549">
        <ele>124.63</ele>
        <time>2014-02-23T13:14:11Z</time>
      </trkpt>
      <trkpt lat="48.98673" lon="2.85567">
        <ele>123.67</ele>
        <time>2014-02-23T13:14:25Z</time>
      </trkpt>
      <trkpt lat="48.98682" lon="2.8561">
        <ele>122.71</ele>
        <time>2014-02-23T13:14:43Z</time>
      </trkpt>
      <trkpt lat="48.98692" lon="2.85649">
        <ele>122.71</ele>
        <time>2014-02-23T13:15:03Z</time>
      </trkpt>
      <trkpt lat="48.98701" lon="2.85671">
        <ele>127.03</ele>
        <time>2014-02-23T13:15:19Z</time>
      </trkpt>
      <trkpt lat="48.98717" lon="2.85696">
        <ele>134.24</ele>
        <time>2014-02-23T13:15:36Z</time>
      </trkpt>
      <trkpt lat="48.98724" lon="2.85714">
        <ele>132.32</ele>
        <time>2014-02-23T13:15:54Z</time>
      </trkpt>
      <trkpt lat="48.98734" lon="2.85725">
        <ele>129.92</ele>
        <time>2014-02-23T13:16:12Z</time>
      </trkpt>
      <trkpt lat="48.98742" lon="2.85733">
        <ele>130.88</ele>
        <time>2014-02-23T13:16:29Z</time>
      </trkpt>
      <trkpt lat="48.98763" lon="2.85756">
        <ele>131.36</ele>
        <time>2014-02-23T13:16:46Z</time>
      </trkpt>
      <trkpt lat="48.98774" lon="2.85769">
        <ele>129.92</ele>
        <time>2014-02-23T13:17:02Z</time>
      </trkpt>
      <trkpt lat="48.98788" lon="2.85786">
        <ele>129.92</ele>
        <time>2014-02-23T13:17:22Z</time>
      </trkpt>
      <trkpt lat="48.9879" lon="2.85803">
        <ele>131.36</ele>
        <time>2014-02-23T13:17:38Z</time>
      </trkpt>
      <trkpt lat="48.98791" lon="2.85812">
        <ele>133.76</ele>
        <time>2014-02-23T13:17:54Z</time>
      </trkpt>
      <trkpt lat="48.98791" lon="2.85813">
        <ele>133.76</ele>
        <time>2014-02-23T13:18:15Z</time>
      </trkpt>
      <trkpt lat="48.98791" lon="2.85814">
        <ele>133.76</ele>
        <time>2014-02-23T13:18:35Z</time>
      </trkpt>
      <trkpt lat="48.98791" lon="2.85815">
        <ele>133.76</ele>
        <time>2014-02-23T13:18:59Z</time>
      </trkpt>
      <trkpt lat="48.98791" lon="2.85815">
        <ele>132.8</ele>
        <time>2014-02-23T13:19:28Z</time>
      </trkpt>
      <trkpt lat="48.98789" lon="2.85816">
        <ele>132.32</ele>
        <time>2014-02-23T13:20:02Z</time>
      </trkpt>
      <trkpt lat="48.98789" lon="2.85815">
        <ele>131.36</ele>
        <time>2014-02-23T13:20:28Z</time>
      </trkpt>
      <trkpt lat="48.98788" lon="2.85816">
        <ele>130.4</ele>
        <time>2014-02-23T13:21:06Z</time>
      </trkpt>
      <trkpt lat="48.98788" lon="2.85817">
        <ele>130.4</ele>
        <time>2014-02-23T13:21:24Z</time>
      </trkpt>
      <trkpt lat="48.98787" lon="2.85817">
        <ele>130.4</ele>
        <time>2014-02-23T13:21:44Z</time>
      </trkpt>
      <trkpt lat="48.98785" lon="2.85826">
        <ele>131.36</ele>
        <time>2014-02-23T13:22:03Z</time>
      </trkpt>
      <trkpt lat="48.98784" lon="2.85844">
        <ele>135.2</ele>
        <time>2014-02-23T13:22:23Z</time>
      </trkpt>
      <trkpt lat="48.98784" lon="2.85863">
        <ele>135.2</ele>
        <time>2014-02-23T13:22:37Z</time>
      </trkpt>
      <trkpt lat="48.98777" lon="2.85886">
        <ele>132.32</ele>
        <time>2014-02-23T13:22:54Z</time>
      </trkpt>
      <trkpt lat="48.98762" lon="2.85897">
        <ele>129.43</ele>
        <time>2014-02-23T13:23:11Z</time>
      </trkpt>
      <trkpt lat="48.98758" lon="2.85898">
        <ele>128.95</ele>
        <time>2014-02-23T13:23:15Z</time>
      </trkpt>
      <trkpt lat="48.98742" lon="2.85907">
        <ele>127.03</ele>
        <time>2014-02-23T13:23:34Z</time>
      </trkpt>
      <trkpt lat="48.98725" lon="2.85914">
        <ele>125.59</ele>
        <time>2014-02-23T13:23:52Z</time>
      </trkpt>
      <trkpt lat="48.98706" lon="2.85929">
        <ele>125.59</ele>
        <time>2014-02-23T13:24:12Z</time>
      </trkpt>
      <trkpt lat="48.98693" lon="2.85947">
        <ele>128.95</ele>
        <time>2014-02-23T13:24:29Z</time>
      </trkpt>
      <trkpt lat="48.98678" lon="2.8596">
        <ele>135.68</ele>
        <time>2014-02-23T13:24:45Z</time>
      </trkpt>
      <trkpt lat="48.98671" lon="2.85969">
        <ele>135.68</ele>
        <time>2014-02-23T13:24:55Z</time>
      </trkpt>
      <trkpt lat="48.98651" lon="2.85982">
        <ele>140.49</ele>
        <time>2014-02-23T13:25:14Z</time>
      </trkpt>
      <trkpt lat="48.98646" lon="2.8599">
        <ele>141.45</ele>
        <time>2014-02-23T13:25:21Z</time>
      </trkpt>
      <trkpt lat="48.98653" lon="2.86014">
        <ele>142.41</ele>
        <time>2014-02-23T13:25:35Z</time>
      </trkpt>
      <trkpt lat="48.98653" lon="2.86031">
        <ele>144.82</ele>
        <time>2014-02-23T13:25:45Z</time>
      </trkpt>
      <trkpt lat="48.98642" lon="2.86061">
        <ele>144.34</ele>
        <time>2014-02-23T13:26:02Z</time>
      </trkpt>
      <trkpt lat="48.98634" lon="2.86084">
        <ele>143.37</ele>
        <time>2014-02-23T13:26:18Z</time>
      </trkpt>
      <trkpt lat="48.98619" lon="2.8611">
        <ele>140.01</ele>
        <time>2014-02-23T13:26:35Z</time>
      </trkpt>
      <trkpt lat="48.9861" lon="2.86135">
        <ele>143.85</ele>
        <time>2014-02-23T13:26:49Z</time>
      </trkpt>
      <trkpt lat="48.98593" lon="2.86166">
        <ele>140.49</ele>
        <time>2014-02-23T13:27:09Z</time>
      </trkpt>
      <trkpt lat="48.98581" lon="2.86199">
        <ele>134.72</ele>
        <time>2014-02-23T13:27:28Z</time>
      </trkpt>
      <trkpt lat="48.98592" lon="2.86241">
        <ele>126.07</ele>
        <time>2014-02-23T13:27:48Z</time>
      </trkpt>
      <trkpt lat="48.98612" lon="2.86275">
        <ele>121.26</ele>
        <time>2014-02-23T13:28:11Z</time>
      </trkpt>
      <trkpt lat="48.98621" lon="2.86306">
        <ele>120.3</ele>
        <time>2014-02-23T13:28:30Z</time>
      </trkpt>
      <trkpt lat="48.98635" lon="2.86343">
        <ele>115.5</ele>
        <time>2014-02-23T13:28:52Z</time>
      </trkpt>
      <trkpt lat="48.98646" lon="2.86376">
        <ele>110.21</ele>
        <time>2014-02-23T13:29:10Z</time>
      </trkpt>
      <trkpt lat="48.98651" lon="2.86389">
        <ele>109.25</ele>
        <time>2014-02-23T13:29:20Z</time>
      </trkpt>
      <trkpt lat="48.98659" lon="2.86413">
        <ele>109.73</ele>
        <time>2014-02-23T13:29:37Z</time>
      </trkpt>
      <trkpt lat="48.98672" lon="2.86448">
        <ele>110.69</ele>
        <time>2014-02-23T13:30:00Z</time>
      </trkpt>
      <trkpt lat="48.98684" lon="2.86483">
        <ele>110.69</ele>
        <time>2014-02-23T13:30:22Z</time>
      </trkpt>
      <trkpt lat="48.98694" lon="2.86513">
        <ele>111.65</ele>
        <time>2014-02-23T13:30:42Z</time>
      </trkpt>
      <trkpt lat="48.98704" lon="2.86544">
        <ele>112.13</ele>
        <time>2014-02-23T13:31:01Z</time>
      </trkpt>
      <trkpt lat="48.98697" lon="2.8657">
        <ele>111.65</ele>
        <time>2014-02-23T13:31:19Z</time>
      </trkpt>
      <trkpt lat="48.98672" lon="2.86587">
        <ele>111.17</ele>
        <time>2014-02-23T13:31:43Z</time>
      </trkpt>
      <trkpt lat="48.98647" lon="2.86602">
        <ele>112.61</ele>
        <time>2014-02-23T13:32:07Z</time>
      </trkpt>
      <trkpt lat="48.98627" lon="2.86615">
        <ele>113.57</ele>
        <time>2014-02-23T13:32:26Z</time>
      </trkpt>
      <trkpt lat="48.98603" lon="2.86629">
        <ele>113.09</ele>
        <time>2014-02-23T13:32:48Z</time>
      </trkpt>
      <trkpt lat="48.98579" lon="2.86644">
        <ele>112.61</ele>
        <time>2014-02-23T13:33:08Z</time>
      </trkpt>
      <trkpt lat="48.98559" lon="2.86655">
        <ele>110.21</ele>
        <time>2014-02-23T13:33:25Z</time>
      </trkpt>
      <trkpt lat="48.98552" lon="2.86662">
        <ele>109.25</ele>
        <time>2014-02-23T13:33:32Z</time>
      </trkpt>
      <trkpt lat="48.98531" lon="2.86675">
        <ele>106.84</ele>
        <time>2014-02-23T13:33:52Z</time>
      </trkpt>
      <trkpt lat="48.98512" lon="2.86687">
        <ele>105.4</ele>
        <time>2014-02-23T13:34:10Z</time>
      </trkpt>
      <trkpt lat="48.98492" lon="2.867">
        <ele>105.88</ele>
        <time>2014-02-23T13:34:28Z</time>
      </trkpt>
      <trkpt lat="48.98471" lon="2.86714">
        <ele>103.96</ele>
        <time>2014-02-23T13:34:45Z</time>
      </trkpt>
      <trkpt lat="48.98446" lon="2.8673">
        <ele>103.96</ele>
        <time>2014-02-23T13:35:06Z</time>
      </trkpt>
      <trkpt lat="48.9842" lon="2.86746">
        <ele>103</ele>
        <time>2014-02-23T13:35:28Z</time>
      </trkpt>
      <trkpt lat="48.98393" lon="2.86763">
        <ele>102.04</ele>
        <time>2014-02-23T13:35:50Z</time>
      </trkpt>
      <trkpt lat="48.98365" lon="2.86784">
        <ele>100.6</ele>
        <time>2014-02-23T13:36:15Z</time>
      </trkpt>
      <trkpt lat="48.98339" lon="2.86804">
        <ele>100.11</ele>
        <time>2014-02-23T13:36:38Z</time>
      </trkpt>
      <trkpt lat="48.98312" lon="2.86825">
        <ele>99.63</ele>
        <time>2014-02-23T13:37:04Z</time>
      </trkpt>
      <trkpt lat="48.98285" lon="2.86843">
        <ele>100.11</ele>
        <time>2014-02-23T13:37:28Z</time>
      </trkpt>
      <trkpt lat="48.98267" lon="2.8686">
        <ele>98.19</ele>
        <time>2014-02-23T13:37:47Z</time>
      </trkpt>
      <trkpt lat="48.98252" lon="2.86875">
        <ele>98.67</ele>
        <time>2014-02-23T13:38:03Z</time>
      </trkpt>
      <trkpt lat="48.98264" lon="2.8689">
        <ele>100.11</ele>
        <time>2014-02-23T13:38:18Z</time>
      </trkpt>
      <trkpt lat="48.98285" lon="2.86907">
        <ele>101.56</ele>
        <time>2014-02-23T13:38:39Z</time>
      </trkpt>
      <trkpt lat="48.98304" lon="2.86923">
        <ele>101.56</ele>
        <time>2014-02-23T13:38:57Z</time>
      </trkpt>
      <trkpt lat="48.98303" lon="2.86949">
        <ele>103.96</ele>
        <time>2014-02-23T13:39:21Z</time>
      </trkpt>
      <trkpt lat="48.98288" lon="2.86962">
        <ele>102.04</ele>
        <time>2014-02-23T13:39:34Z</time>
      </trkpt>
      <trkpt lat="48.98266" lon="2.86947">
        <ele>101.56</ele>
        <time>2014-02-23T13:39:54Z</time>
      </trkpt>
      <trkpt lat="48.98246" lon="2.86927">
        <ele>100.11</ele>
        <time>2014-02-23T13:40:15Z</time>
      </trkpt>
      <trkpt lat="48.98224" lon="2.86906">
        <ele>100.6</ele>
        <time>2014-02-23T13:40:38Z</time>
      </trkpt>
      <trkpt lat="48.98206" lon="2.86903">
        <ele>102.04</ele>
        <time>2014-02-23T13:40:54Z</time>
      </trkpt>
      <trkpt lat="48.98187" lon="2.8691">
        <ele>101.08</ele>
        <time>2014-02-23T13:41:10Z</time>
      </trkpt>
      <trkpt lat="48.98164" lon="2.86914">
        <ele>100.6</ele>
        <time>2014-02-23T13:41:29Z</time>
      </trkpt>
      <trkpt lat="48.98139" lon="2.86924">
        <ele>101.08</ele>
        <time>2014-02-23T13:41:49Z</time>
      </trkpt>
      <trkpt lat="48.98117" lon="2.86931">
        <ele>100.6</ele>
        <time>2014-02-23T13:42:08Z</time>
      </trkpt>
      <trkpt lat="48.98096" lon="2.86935">
        <ele>102.04</ele>
        <time>2014-02-23T13:42:26Z</time>
      </trkpt>
      <trkpt lat="48.98077" lon="2.86943">
        <ele>100.11</ele>
        <time>2014-02-23T13:42:43Z</time>
      </trkpt>
      <trkpt lat="48.98072" lon="2.86944">
        <ele>100.6</ele>
        <time>2014-02-23T13:42:47Z</time>
      </trkpt>
      <trkpt lat="48.9805" lon="2.86954">
        <ele>101.08</ele>
        <time>2014-02-23T13:43:07Z</time>
      </trkpt>
      <trkpt lat="48.98033" lon="2.86963">
        <ele>102.04</ele>
        <time>2014-02-23T13:43:23Z</time>
      </trkpt>
      <trkpt lat="48.98013" lon="2.86971">
        <ele>102.52</ele>
        <time>2014-02-23T13:43:43Z</time>
      </trkpt>
      <trkpt lat="48.98005" lon="2.86974">
        <ele>102.04</ele>
        <time>2014-02-23T13:43:57Z</time>
      </trkpt>
      <trkpt lat="48.98004" lon="2.86974">
        <ele>102.04</ele>
        <time>2014-02-23T13:44:16Z</time>
      </trkpt>
      <trkpt lat="48.97998" lon="2.86976">
        <ele>102.04</ele>
        <time>2014-02-23T13:44:29Z</time>
      </trkpt>
      <trkpt lat="48.97984" lon="2.86988">
        <ele>102.04</ele>
        <time>2014-02-23T13:44:45Z</time>
      </trkpt>
      <trkpt lat="48.97969" lon="2.87005">
        <ele>102.52</ele>
        <time>2014-02-23T13:45:02Z</time>
      </trkpt>
      <trkpt lat="48.97953" lon="2.87019">
        <ele>103.96</ele>
        <time>2014-02-23T13:45:20Z</time>
      </trkpt>
      <trkpt lat="48.97941" lon="2.87029">
        <ele>106.36</ele>
        <time>2014-02-23T13:45:36Z</time>
      </trkpt>
      <trkpt lat="48.97927" lon="2.87043">
        <ele>109.25</ele>
        <time>2014-02-23T13:45:53Z</time>
      </trkpt>
      <trkpt lat="48.97907" lon="2.8706">
        <ele>109.73</ele>
        <time>2014-02-23T13:46:11Z</time>
      </trkpt>
      <trkpt lat="48.97905" lon="2.87061">
        <ele>109.25</ele>
        <time>2014-02-23T13:46:13Z</time>
      </trkpt>
      <trkpt lat="48.97901" lon="2.87066">
        <ele>109.73</ele>
        <time>2014-02-23T13:46:17Z</time>
      </trkpt>
      <trkpt lat="48.97879" lon="2.87082">
        <ele>113.57</ele>
        <time>2014-02-23T13:46:38Z</time>
      </trkpt>
      <trkpt lat="48.97862" lon="2.87103">
        <ele>114.05</ele>
        <time>2014-02-23T13:46:56Z</time>
      </trkpt>
      <trkpt lat="48.97855" lon="2.8711">
        <ele>113.57</ele>
        <time>2014-02-23T13:47:03Z</time>
      </trkpt>
      <trkpt lat="48.97848" lon="2.87121">
        <ele>113.09</ele>
        <time>2014-02-23T13:47:11Z</time>
      </trkpt>
      <trkpt lat="48.97834" lon="2.87143">
        <ele>114.53</ele>
        <time>2014-02-23T13:47:30Z</time>
      </trkpt>
      <trkpt lat="48.97821" lon="2.87163">
        <ele>116.94</ele>
        <time>2014-02-23T13:47:48Z</time>
      </trkpt>
      <trkpt lat="48.97807" lon="2.87181">
        <ele>118.38</ele>
        <time>2014-02-23T13:48:04Z</time>
      </trkpt>
      <trkpt lat="48.97797" lon="2.87197">
        <ele>120.78</ele>
        <time>2014-02-23T13:48:18Z</time>
      </trkpt>
      <trkpt lat="48.97784" lon="2.87219">
        <ele>121.74</ele>
        <time>2014-02-23T13:48:36Z</time>
      </trkpt>
      <trkpt lat="48.97768" lon="2.87242">
        <ele>121.26</ele>
        <time>2014-02-23T13:48:53Z</time>
      </trkpt>
      <trkpt lat="48.97759" lon="2.87257">
        <ele>112.13</ele>
        <time>2014-02-23T13:49:02Z</time>
      </trkpt>
      <trkpt lat="48.97747" lon="2.8728">
        <ele>109.73</ele>
        <time>2014-02-23T13:49:20Z</time>
      </trkpt>
      <trkpt lat="48.97737" lon="2.873">
        <ele>113.09</ele>
        <time>2014-02-23T13:49:36Z</time>
      </trkpt>
      <trkpt lat="48.97734" lon="2.87304">
        <ele>113.57</ele>
        <time>2014-02-23T13:49:39Z</time>
      </trkpt>
      <trkpt lat="48.97734" lon="2.87328">
        <ele>112.61</ele>
        <time>2014-02-23T13:49:53Z</time>
      </trkpt>
      <trkpt lat="48.97724" lon="2.87338">
        <ele>111.65</ele>
        <time>2014-02-23T13:50:08Z</time>
      </trkpt>
      <trkpt lat="48.97717" lon="2.87346">
        <ele>111.17</ele>
        <time>2014-02-23T13:50:23Z</time>
      </trkpt>
      <trkpt lat="48.9771" lon="2.87355">
        <ele>110.21</ele>
        <time>2014-02-23T13:50:34Z</time>
      </trkpt>
      <trkpt lat="48.97701" lon="2.87371">
        <ele>103.48</ele>
        <time>2014-02-23T13:50:49Z</time>
      </trkpt>
      <trkpt lat="48.97691" lon="2.87395">
        <ele>102.52</ele>
        <time>2014-02-23T13:51:07Z</time>
      </trkpt>
      <trkpt lat="48.9768" lon="2.87407">
        <ele>103</ele>
        <time>2014-02-23T13:51:20Z</time>
      </trkpt>
      <trkpt lat="48.97671" lon="2.87418">
        <ele>97.71</ele>
        <time>2014-02-23T13:51:33Z</time>
      </trkpt>
      <trkpt lat="48.97667" lon="2.87425">
        <ele>98.19</ele>
        <time>2014-02-23T13:51:49Z</time>
      </trkpt>
      <trkpt lat="48.97665" lon="2.8743">
        <ele>98.67</ele>
        <time>2014-02-23T13:51:52Z</time>
      </trkpt>
      <trkpt lat="48.97651" lon="2.87451">
        <ele>98.19</ele>
        <time>2014-02-23T13:52:08Z</time>
      </trkpt>
      <trkpt lat="48.97643" lon="2.87475">
        <ele>100.11</ele>
        <time>2014-02-23T13:52:25Z</time>
      </trkpt>
      <trkpt lat="48.97641" lon="2.87486">
        <ele>97.71</ele>
        <time>2014-02-23T13:52:40Z</time>
      </trkpt>
      <trkpt lat="48.97641" lon="2.87489">
        <ele>92.42</ele>
        <time>2014-02-23T13:52:59Z</time>
      </trkpt>
      <trkpt lat="48.9764" lon="2.87489">
        <ele>90.98</ele>
        <time>2014-02-23T13:53:15Z</time>
      </trkpt>
      <trkpt lat="48.97634" lon="2.87499">
        <ele>88.1</ele>
        <time>2014-02-23T13:53:33Z</time>
      </trkpt>
      <trkpt lat="48.97618" lon="2.87514">
        <ele>89.54</ele>
        <time>2014-02-23T13:53:51Z</time>
      </trkpt>
      <trkpt lat="48.97606" lon="2.87529">
        <ele>84.73</ele>
        <time>2014-02-23T13:54:07Z</time>
      </trkpt>
      <trkpt lat="48.97601" lon="2.87539">
        <ele>84.73</ele>
        <time>2014-02-23T13:54:21Z</time>
      </trkpt>
      <trkpt lat="48.97601" lon="2.87545">
        <ele>84.73</ele>
        <time>2014-02-23T13:54:34Z</time>
      </trkpt>
      <trkpt lat="48.97601" lon="2.87548">
        <ele>85.21</ele>
        <time>2014-02-23T13:54:51Z</time>
      </trkpt>
      <trkpt lat="48.97601" lon="2.87549">
        <ele>84.73</ele>
        <time>2014-02-23T13:55:17Z</time>
      </trkpt>
      <trkpt lat="48.97601" lon="2.8755">
        <ele>84.73</ele>
        <time>2014-02-23T13:55:46Z</time>
      </trkpt>
      <trkpt lat="48.97601" lon="2.8755">
        <ele>84.25</ele>
        <time>2014-02-23T13:56:08Z</time>
      </trkpt>
      <trkpt lat="48.97605" lon="2.87554">
        <ele>83.77</ele>
        <time>2014-02-23T13:56:21Z</time>
      </trkpt>
      <trkpt lat="48.97605" lon="2.87552">
        <ele>82.81</ele>
        <time>2014-02-23T13:56:35Z</time>
      </trkpt>
      <trkpt lat="48.97604" lon="2.87551">
        <ele>82.81</ele>
        <time>2014-02-23T13:56:42Z</time>
      </trkpt>
      <trkpt lat="48.97603" lon="2.87533">
        <ele>84.25</ele>
        <time>2014-02-23T13:56:56Z</time>
      </trkpt>
      <trkpt lat="48.97605" lon="2.87527">
        <ele>85.21</ele>
        <time>2014-02-23T13:57:04Z</time>
      </trkpt>
      <trkpt lat="48.97618" lon="2.8751">
        <ele>83.29</ele>
        <time>2014-02-23T13:57:21Z</time>
      </trkpt>
      <trkpt lat="48.97631" lon="2.87498">
        <ele>83.29</ele>
        <time>2014-02-23T13:57:36Z</time>
      </trkpt>
      <trkpt lat="48.97634" lon="2.87485">
        <ele>83.29</ele>
        <time>2014-02-23T13:57:49Z</time>
      </trkpt>
      <trkpt lat="48.97623" lon="2.8748">
        <ele>84.73</ele>
        <time>2014-02-23T13:58:05Z</time>
      </trkpt>
      <trkpt lat="48.97621" lon="2.8748">
        <ele>84.73</ele>
        <time>2014-02-23T13:58:07Z</time>
      </trkpt>
      <trkpt lat="48.97608" lon="2.8748">
        <ele>85.21</ele>
        <time>2014-02-23T13:58:23Z</time>
      </trkpt>
      <trkpt lat="48.97601" lon="2.87477">
        <ele>85.21</ele>
        <time>2014-02-23T13:58:36Z</time>
      </trkpt>
      <trkpt lat="48.97589" lon="2.87474">
        <ele>86.18</ele>
        <time>2014-02-23T13:58:50Z</time>
      </trkpt>
      <trkpt lat="48.97573" lon="2.8747">
        <ele>88.58</ele>
        <time>2014-02-23T13:59:05Z</time>
      </trkpt>
      <trkpt lat="48.97554" lon="2.87467">
        <ele>87.14</ele>
        <time>2014-02-23T13:59:20Z</time>
      </trkpt>
      <trkpt lat="48.9755" lon="2.87463">
        <ele>86.18</ele>
        <time>2014-02-23T13:59:24Z</time>
      </trkpt>
      <trkpt lat="48.97539" lon="2.87456">
        <ele>85.21</ele>
        <time>2014-02-23T13:59:36Z</time>
      </trkpt>
      <trkpt lat="48.97526" lon="2.87438">
        <ele>85.21</ele>
        <time>2014-02-23T13:59:54Z</time>
      </trkpt>
      <trkpt lat="48.97524" lon="2.87437">
        <ele>85.21</ele>
        <time>2014-02-23T13:59:55Z</time>
      </trkpt>
      <trkpt lat="48.97503" lon="2.87423">
        <ele>81.85</ele>
        <time>2014-02-23T14:00:14Z</time>
      </trkpt>
      <trkpt lat="48.97495" lon="2.87413">
        <ele>74.16</ele>
        <time>2014-02-23T14:00:29Z</time>
      </trkpt>
      <trkpt lat="48.97485" lon="2.87401">
        <ele>73.68</ele>
        <time>2014-02-23T14:00:45Z</time>
      </trkpt>
      <trkpt lat="48.97469" lon="2.87385">
        <ele>77.04</ele>
        <time>2014-02-23T14:01:01Z</time>
      </trkpt>
      <trkpt lat="48.97455" lon="2.87368">
        <ele>79.93</ele>
        <time>2014-02-23T14:01:19Z</time>
      </trkpt>
      <trkpt lat="48.97443" lon="2.87354">
        <ele>81.37</ele>
        <time>2014-02-23T14:01:33Z</time>
      </trkpt>
      <trkpt lat="48.97428" lon="2.8734">
        <ele>84.73</ele>
        <time>2014-02-23T14:01:49Z</time>
      </trkpt>
      <trkpt lat="48.97427" lon="2.87339">
        <ele>84.73</ele>
        <time>2014-02-23T14:01:50Z</time>
      </trkpt>
      <trkpt lat="48.97414" lon="2.87324">
        <ele>85.21</ele>
        <time>2014-02-23T14:02:05Z</time>
      </trkpt>
      <trkpt lat="48.97398" lon="2.87314">
        <ele>84.25</ele>
        <time>2014-02-23T14:02:21Z</time>
      </trkpt>
      <trkpt lat="48.97395" lon="2.8731">
        <ele>83.77</ele>
        <time>2014-02-23T14:02:24Z</time>
      </trkpt>
      <trkpt lat="48.97382" lon="2.87308">
        <ele>77.52</ele>
        <time>2014-02-23T14:02:42Z</time>
      </trkpt>
      <trkpt lat="48.9738" lon="2.87311">
        <ele>77.04</ele>
        <time>2014-02-23T14:02:46Z</time>
      </trkpt>
      <trkpt lat="48.97375" lon="2.8732">
        <ele>73.2</ele>
        <time>2014-02-23T14:02:57Z</time>
      </trkpt>
      <trkpt lat="48.97376" lon="2.87322">
        <ele>72.72</ele>
        <time>2014-02-23T14:03:00Z</time>
      </trkpt>
      <trkpt lat="48.9739" lon="2.8733">
        <ele>73.2</ele>
        <time>2014-02-23T14:03:19Z</time>
      </trkpt>
      <trkpt lat="48.97398" lon="2.87336">
        <ele>73.2</ele>
        <time>2014-02-23T14:03:28Z</time>
      </trkpt>
      <trkpt lat="48.97405" lon="2.87344">
        <ele>75.6</ele>
        <time>2014-02-23T14:03:38Z</time>
      </trkpt>
      <trkpt lat="48.97412" lon="2.87352">
        <ele>76.56</ele>
        <time>2014-02-23T14:03:47Z</time>
      </trkpt>
      <trkpt lat="48.97423" lon="2.87376">
        <ele>78.97</ele>
        <time>2014-02-23T14:04:06Z</time>
      </trkpt>
      <trkpt lat="48.97435" lon="2.87399">
        <ele>81.85</ele>
        <time>2014-02-23T14:04:24Z</time>
      </trkpt>
      <trkpt lat="48.97442" lon="2.87418">
        <ele>80.41</ele>
        <time>2014-02-23T14:04:36Z</time>
      </trkpt>
      <trkpt lat="48.97457" lon="2.87448">
        <ele>74.64</ele>
        <time>2014-02-23T14:04:54Z</time>
      </trkpt>
      <trkpt lat="48.97472" lon="2.87475">
        <ele>70.31</ele>
        <time>2014-02-23T14:05:11Z</time>
      </trkpt>
      <trkpt lat="48.9748" lon="2.87488">
        <ele>69.35</ele>
        <time>2014-02-23T14:05:24Z</time>
      </trkpt>
      <trkpt lat="48.97484" lon="2.87496">
        <ele>68.87</ele>
        <time>2014-02-23T14:05:29Z</time>
      </trkpt>
      <trkpt lat="48.975" lon="2.87525">
        <ele>63.1</ele>
        <time>2014-02-23T14:05:49Z</time>
      </trkpt>
      <trkpt lat="48.97501" lon="2.87526">
        <ele>63.1</ele>
        <time>2014-02-23T14:05:50Z</time>
      </trkpt>
      <trkpt lat="48.97505" lon="2.87531">
        <ele>63.58</ele>
        <time>2014-02-23T14:05:56Z</time>
      </trkpt>
      <trkpt lat="48.97511" lon="2.87554">
        <ele>64.55</ele>
        <time>2014-02-23T14:06:14Z</time>
      </trkpt>
      <trkpt lat="48.97518" lon="2.87576">
        <ele>65.51</ele>
        <time>2014-02-23T14:06:29Z</time>
      </trkpt>
      <trkpt lat="48.97521" lon="2.87585">
        <ele>66.47</ele>
        <time>2014-02-23T14:06:44Z</time>
      </trkpt>
      <trkpt lat="48.97526" lon="2.8759">
        <ele>68.87</ele>
        <time>2014-02-23T14:06:55Z</time>
      </trkpt>
      <trkpt lat="48.97523" lon="2.87588">
        <ele>71.27</ele>
        <time>2014-02-23T14:07:15Z</time>
      </trkpt>
      <trkpt lat="48.97526" lon="2.87589">
        <ele>70.79</ele>
        <time>2014-02-23T14:07:18Z</time>
      </trkpt>
      <trkpt lat="48.9752" lon="2.87584">
        <ele>69.83</ele>
        <time>2014-02-23T14:07:33Z</time>
      </trkpt>
      <trkpt lat="48.97519" lon="2.87585">
        <ele>70.79</ele>
        <time>2014-02-23T14:07:38Z</time>
      </trkpt>
      <trkpt lat="48.97512" lon="2.87593">
        <ele>70.31</ele>
        <time>2014-02-23T14:07:47Z</time>
      </trkpt>
      <trkpt lat="48.97495" lon="2.87609">
        <ele>72.24</ele>
        <time>2014-02-23T14:08:03Z</time>
      </trkpt>
      <trkpt lat="48.97479" lon="2.87622">
        <ele>67.43</ele>
        <time>2014-02-23T14:08:17Z</time>
      </trkpt>
      <trkpt lat="48.97463" lon="2.87643">
        <ele>63.1</ele>
        <time>2014-02-23T14:08:32Z</time>
      </trkpt>
      <trkpt lat="48.97448" lon="2.87675">
        <ele>54.45</ele>
        <time>2014-02-23T14:08:51Z</time>
      </trkpt>
      <trkpt lat="48.97434" lon="2.87702">
        <ele>50.13</ele>
        <time>2014-02-23T14:09:07Z</time>
      </trkpt>
      <trkpt lat="48.97433" lon="2.87706">
        <ele>49.65</ele>
        <time>2014-02-23T14:09:09Z</time>
      </trkpt>
      <trkpt lat="48.97425" lon="2.87739">
        <ele>46.28</ele>
        <time>2014-02-23T14:09:28Z</time>
      </trkpt>
      <trkpt lat="48.97422" lon="2.87743">
        <ele>46.76</ele>
        <time>2014-02-23T14:09:31Z</time>
      </trkpt>
      <trkpt lat="48.97417" lon="2.87756">
        <ele>49.65</ele>
        <time>2014-02-23T14:09:39Z</time>
      </trkpt>
      <trkpt lat="48.97414" lon="2.87768">
        <ele>51.09</ele>
        <time>2014-02-23T14:09:46Z</time>
      </trkpt>
      <trkpt lat="48.97397" lon="2.87797">
        <ele>51.09</ele>
        <time>2014-02-23T14:10:05Z</time>
      </trkpt>
      <trkpt lat="48.97383" lon="2.87822">
        <ele>49.65</ele>
        <time>2014-02-23T14:10:22Z</time>
      </trkpt>
      <trkpt lat="48.97372" lon="2.87842">
        <ele>53.01</ele>
        <time>2014-02-23T14:10:38Z</time>
      </trkpt>
      <trkpt lat="48.97356" lon="2.87862">
        <ele>53.97</ele>
        <time>2014-02-23T14:10:55Z</time>
      </trkpt>
      <trkpt lat="48.97345" lon="2.87879">
        <ele>56.86</ele>
        <time>2014-02-23T14:11:10Z</time>
      </trkpt>
      <trkpt lat="48.97327" lon="2.87902">
        <ele>66.47</ele>
        <time>2014-02-23T14:11:30Z</time>
      </trkpt>
      <trkpt lat="48.97315" lon="2.8792">
        <ele>72.24</ele>
        <time>2014-02-23T14:11:44Z</time>
      </trkpt>
      <trkpt lat="48.97299" lon="2.87942">
        <ele>75.12</ele>
        <time>2014-02-23T14:12:00Z</time>
      </trkpt>
      <trkpt lat="48.97286" lon="2.87956">
        <ele>80.41</ele>
        <time>2014-02-23T14:12:13Z</time>
      </trkpt>
      <trkpt lat="48.97278" lon="2.87971">
        <ele>84.73</ele>
        <time>2014-02-23T14:12:24Z</time>
      </trkpt>
      <trkpt lat="48.97271" lon="2.87977">
        <ele>84.25</ele>
        <time>2014-02-23T14:12:30Z</time>
      </trkpt>
      <trkpt lat="48.97255" lon="2.87995">
        <ele>83.29</ele>
        <time>2014-02-23T14:12:45Z</time>
      </trkpt>
      <trkpt lat="48.97251" lon="2.88003">
        <ele>84.25</ele>
        <time>2014-02-23T14:12:52Z</time>
      </trkpt>
      <trkpt lat="48.97239" lon="2.88017">
        <ele>86.18</ele>
        <time>2014-02-23T14:13:06Z</time>
      </trkpt>
      <trkpt lat="48.97235" lon="2.88022">
        <ele>87.14</ele>
        <time>2014-02-23T14:13:20Z</time>
      </trkpt>
      <trkpt lat="48.97233" lon="2.8802">
        <ele>87.62</ele>
        <time>2014-02-23T14:13:22Z</time>
      </trkpt>
      <trkpt lat="48.97205" lon="2.88022">
        <ele>86.66</ele>
        <time>2014-02-23T14:13:34Z</time>
      </trkpt>
      <trkpt lat="48.97196" lon="2.88035">
        <ele>87.14</ele>
        <time>2014-02-23T14:13:40Z</time>
      </trkpt>
      <trkpt lat="48.97176" lon="2.88058">
        <ele>83.29</ele>
        <time>2014-02-23T14:13:54Z</time>
      </trkpt>
      <trkpt lat="48.97162" lon="2.88074">
        <ele>76.08</ele>
        <time>2014-02-23T14:14:06Z</time>
      </trkpt>
      <trkpt lat="48.97133" lon="2.881">
        <ele>63.1</ele>
        <time>2014-02-23T14:14:16Z</time>
      </trkpt>
      <trkpt lat="48.97128" lon="2.88109">
        <ele>58.3</ele>
        <time>2014-02-23T14:14:22Z</time>
      </trkpt>
      <trkpt lat="48.97125" lon="2.88116">
        <ele>56.37</ele>
        <time>2014-02-23T14:14:26Z</time>
      </trkpt>
      <trkpt lat="48.97108" lon="2.8814">
        <ele>49.16</ele>
        <time>2014-02-23T14:14:47Z</time>
      </trkpt>
      <trkpt lat="48.97092" lon="2.88162">
        <ele>45.32</ele>
        <time>2014-02-23T14:15:07Z</time>
      </trkpt>
      <trkpt lat="48.97082" lon="2.8817">
        <ele>45.32</ele>
        <time>2014-02-23T14:15:16Z</time>
      </trkpt>
      <trkpt lat="48.97067" lon="2.88192">
        <ele>46.28</ele>
        <time>2014-02-23T14:15:35Z</time>
      </trkpt>
      <trkpt lat="48.97046" lon="2.88214">
        <ele>46.76</ele>
        <time>2014-02-23T14:15:56Z</time>
      </trkpt>
      <trkpt lat="48.97033" lon="2.88224">
        <ele>45.8</ele>
        <time>2014-02-23T14:16:11Z</time>
      </trkpt>
      <trkpt lat="48.97018" lon="2.88232">
        <ele>44.84</ele>
        <time>2014-02-23T14:16:30Z</time>
      </trkpt>
      <trkpt lat="48.97016" lon="2.88232">
        <ele>44.84</ele>
        <time>2014-02-23T14:16:31Z</time>
      </trkpt>
      <trkpt lat="48.9699" lon="2.88232">
        <ele>42.92</ele>
        <time>2014-02-23T14:16:53Z</time>
      </trkpt>
      <trkpt lat="48.96966" lon="2.88229">
        <ele>43.88</ele>
        <time>2014-02-23T14:17:15Z</time>
      </trkpt>
      <trkpt lat="48.96954" lon="2.88225">
        <ele>44.84</ele>
        <time>2014-02-23T14:17:25Z</time>
      </trkpt>
      <trkpt lat="48.96927" lon="2.88211">
        <ele>46.76</ele>
        <time>2014-02-23T14:17:46Z</time>
      </trkpt>
      <trkpt lat="48.96907" lon="2.882">
        <ele>45.8</ele>
        <time>2014-02-23T14:18:06Z</time>
      </trkpt>
      <trkpt lat="48.96886" lon="2.88191">
        <ele>52.05</ele>
        <time>2014-02-23T14:18:23Z</time>
      </trkpt>
      <trkpt lat="48.96861" lon="2.88184">
        <ele>56.37</ele>
        <time>2014-02-23T14:18:45Z</time>
      </trkpt>
      <trkpt lat="48.96834" lon="2.88169">
        <ele>60.7</ele>
        <time>2014-02-23T14:19:07Z</time>
      </trkpt>
      <trkpt lat="48.96813" lon="2.88163">
        <ele>59.74</ele>
        <time>2014-02-23T14:19:26Z</time>
      </trkpt>
      <trkpt lat="48.96792" lon="2.88154">
        <ele>60.7</ele>
        <time>2014-02-23T14:19:47Z</time>
      </trkpt>
      <trkpt lat="48.96765" lon="2.88145">
        <ele>65.99</ele>
        <time>2014-02-23T14:20:06Z</time>
      </trkpt>
      <trkpt lat="48.96743" lon="2.88132">
        <ele>61.18</ele>
        <time>2014-02-23T14:20:28Z</time>
      </trkpt>
      <trkpt lat="48.96722" lon="2.88124">
        <ele>61.18</ele>
        <time>2014-02-23T14:20:47Z</time>
      </trkpt>
      <trkpt lat="48.96715" lon="2.88124">
        <ele>61.66</ele>
        <time>2014-02-23T14:20:54Z</time>
      </trkpt>
      <trkpt lat="48.96695" lon="2.88115">
        <ele>60.22</ele>
        <time>2014-02-23T14:21:13Z</time>
      </trkpt>
      <trkpt lat="48.96673" lon="2.88108">
        <ele>57.34</ele>
        <time>2014-02-23T14:21:35Z</time>
      </trkpt>
      <trkpt lat="48.96647" lon="2.88096">
        <ele>57.82</ele>
        <time>2014-02-23T14:22:00Z</time>
      </trkpt>
      <trkpt lat="48.96627" lon="2.88091">
        <ele>54.93</ele>
        <time>2014-02-23T14:22:19Z</time>
      </trkpt>
      <trkpt lat="48.96603" lon="2.88085">
        <ele>55.89</ele>
        <time>2014-02-23T14:22:39Z</time>
      </trkpt>
      <trkpt lat="48.96597" lon="2.88085">
        <ele>55.41</ele>
        <time>2014-02-23T14:22:45Z</time>
      </trkpt>
      <trkpt lat="48.96573" lon="2.88073">
        <ele>55.89</ele>
        <time>2014-02-23T14:23:05Z</time>
      </trkpt>
      <trkpt lat="48.9655" lon="2.88065">
        <ele>55.41</ele>
        <time>2014-02-23T14:23:26Z</time>
      </trkpt>
      <trkpt lat="48.96538" lon="2.88065">
        <ele>55.89</ele>
        <time>2014-02-23T14:23:39Z</time>
      </trkpt>
      <trkpt lat="48.96508" lon="2.88042">
        <ele>56.37</ele>
        <time>2014-02-23T14:24:01Z</time>
      </trkpt>
      <trkpt lat="48.96492" lon="2.8803">
        <ele>53.97</ele>
        <time>2014-02-23T14:24:19Z</time>
      </trkpt>
      <trkpt lat="48.96475" lon="2.88025">
        <ele>53.01</ele>
        <time>2014-02-23T14:24:36Z</time>
      </trkpt>
      <trkpt lat="48.96454" lon="2.88023">
        <ele>53.01</ele>
        <time>2014-02-23T14:24:53Z</time>
      </trkpt>
      <trkpt lat="48.96437" lon="2.88004">
        <ele>50.13</ele>
        <time>2014-02-23T14:25:10Z</time>
      </trkpt>
      <trkpt lat="48.9642" lon="2.87991">
        <ele>47.24</ele>
        <time>2014-02-23T14:25:28Z</time>
      </trkpt>
      <trkpt lat="48.9639" lon="2.87977">
        <ele>47.24</ele>
        <time>2014-02-23T14:25:51Z</time>
      </trkpt>
      <trkpt lat="48.96384" lon="2.87971">
        <ele>48.68</ele>
        <time>2014-02-23T14:26:07Z</time>
      </trkpt>
      <trkpt lat="48.96361" lon="2.87977">
        <ele>49.16</ele>
        <time>2014-02-23T14:26:46Z</time>
      </trkpt>
      <trkpt lat="48.96333" lon="2.87964">
        <ele>52.53</ele>
        <time>2014-02-23T14:27:03Z</time>
      </trkpt>
      <trkpt lat="48.96318" lon="2.87966">
        <ele>49.65</ele>
        <time>2014-02-23T14:27:19Z</time>
      </trkpt>
      <trkpt lat="48.96307" lon="2.87952">
        <ele>49.65</ele>
        <time>2014-02-23T14:27:28Z</time>
      </trkpt>
      <trkpt lat="48.96287" lon="2.87942">
        <ele>43.88</ele>
        <time>2014-02-23T14:27:46Z</time>
      </trkpt>
      <trkpt lat="48.96271" lon="2.87929">
        <ele>40.99</ele>
        <time>2014-02-23T14:28:02Z</time>
      </trkpt>
      <trkpt lat="48.9625" lon="2.87923">
        <ele>39.07</ele>
        <time>2014-02-23T14:28:19Z</time>
      </trkpt>
      <trkpt lat="48.96226" lon="2.87904">
        <ele>38.11</ele>
        <time>2014-02-23T14:28:41Z</time>
      </trkpt>
      <trkpt lat="48.96219" lon="2.8789">
        <ele>36.19</ele>
        <time>2014-02-23T14:28:49Z</time>
      </trkpt>
      <trkpt lat="48.96209" lon="2.87866">
        <ele>33.3</ele>
        <time>2014-02-23T14:29:09Z</time>
      </trkpt>
      <trkpt lat="48.96192" lon="2.87841">
        <ele>40.51</ele>
        <time>2014-02-23T14:29:30Z</time>
      </trkpt>
      <trkpt lat="48.96182" lon="2.87817">
        <ele>39.55</ele>
        <time>2014-02-23T14:29:49Z</time>
      </trkpt>
      <trkpt lat="48.96183" lon="2.87806">
        <ele>40.03</ele>
        <time>2014-02-23T14:30:08Z</time>
      </trkpt>
      <trkpt lat="48.96176" lon="2.87796">
        <ele>40.51</ele>
        <time>2014-02-23T14:30:25Z</time>
      </trkpt>
      <trkpt lat="48.96167" lon="2.87791">
        <ele>40.03</ele>
        <time>2014-02-23T14:30:40Z</time>
      </trkpt>
      <trkpt lat="48.96165" lon="2.87787">
        <ele>40.51</ele>
        <time>2014-02-23T14:31:02Z</time>
      </trkpt>
      <trkpt lat="48.96164" lon="2.87784">
        <ele>41.47</ele>
        <time>2014-02-23T14:31:29Z</time>
      </trkpt>
      <trkpt lat="48.96008" lon="2.87825">
        <ele>52.05</ele>
        <time>2014-02-23T14:51:43Z</time>
      </trkpt>
      <trkpt lat="48.96013" lon="2.87814">
        <ele>59.74</ele>
        <time>2014-02-23T14:52:00Z</time>
      </trkpt>
      <trkpt lat="48.96021" lon="2.8781">
        <ele>62.14</ele>
        <time>2014-02-23T14:52:13Z</time>
      </trkpt>
      <trkpt lat="48.96031" lon="2.878">
        <ele>66.47</ele>
        <time>2014-02-23T14:52:27Z</time>
      </trkpt>
      <trkpt lat="48.96044" lon="2.87814">
        <ele>52.53</ele>
        <time>2014-02-23T14:52:42Z</time>
      </trkpt>
      <trkpt lat="48.96059" lon="2.8781">
        <ele>52.53</ele>
        <time>2014-02-23T14:52:58Z</time>
      </trkpt>
      <trkpt lat="48.96065" lon="2.87806">
        <ele>55.89</ele>
        <time>2014-02-23T14:53:12Z</time>
      </trkpt>
      <trkpt lat="48.96077" lon="2.87813">
        <ele>55.41</ele>
        <time>2014-02-23T14:53:31Z</time>
      </trkpt>
      <trkpt lat="48.96082" lon="2.87814">
        <ele>53.49</ele>
        <time>2014-02-23T14:53:42Z</time>
      </trkpt>
      <trkpt lat="48.96098" lon="2.87819">
        <ele>52.53</ele>
        <time>2014-02-23T14:53:57Z</time>
      </trkpt>
      <trkpt lat="48.96093" lon="2.87829">
        <ele>49.16</ele>
        <time>2014-02-23T14:54:07Z</time>
      </trkpt>
      <trkpt lat="48.961" lon="2.87844">
        <ele>47.72</ele>
        <time>2014-02-23T14:54:23Z</time>
      </trkpt>
      <trkpt lat="48.96109" lon="2.8784">
        <ele>46.28</ele>
        <time>2014-02-23T14:54:37Z</time>
      </trkpt>
      <trkpt lat="48.9612" lon="2.87841">
        <ele>45.8</ele>
        <time>2014-02-23T14:54:51Z</time>
      </trkpt>
      <trkpt lat="48.96134" lon="2.87841">
        <ele>45.8</ele>
        <time>2014-02-23T14:55:07Z</time>
      </trkpt>
      <trkpt lat="48.96135" lon="2.87841">
        <ele>45.8</ele>
        <time>2014-02-23T14:55:08Z</time>
      </trkpt>
      <trkpt lat="48.96153" lon="2.87839">
        <ele>45.32</ele>
        <time>2014-02-23T14:55:25Z</time>
      </trkpt>
      <trkpt lat="48.96161" lon="2.8784">
        <ele>47.72</ele>
        <time>2014-02-23T14:55:40Z</time>
      </trkpt>
      <trkpt lat="48.96162" lon="2.87842">
        <ele>47.72</ele>
        <time>2014-02-23T14:55:56Z</time>
      </trkpt>
      <trkpt lat="48.96166" lon="2.87859">
        <ele>46.76</ele>
        <time>2014-02-23T14:56:14Z</time>
      </trkpt>
      <trkpt lat="48.96167" lon="2.8786">
        <ele>47.24</ele>
        <time>2014-02-23T14:56:44Z</time>
      </trkpt>
      <trkpt lat="48.96166" lon="2.87863">
        <ele>47.72</ele>
        <time>2014-02-23T14:56:59Z</time>
      </trkpt>
      <trkpt lat="48.96165" lon="2.87868">
        <ele>48.2</ele>
        <time>2014-02-23T14:57:23Z</time>
      </trkpt>
      <trkpt lat="48.96162" lon="2.8788">
        <ele>46.28</ele>
        <time>2014-02-23T14:57:38Z</time>
      </trkpt>
      <trkpt lat="48.96142" lon="2.87889">
        <ele>40.99</ele>
        <time>2014-02-23T14:57:57Z</time>
      </trkpt>
      <trkpt lat="48.96129" lon="2.87891">
        <ele>41.47</ele>
        <time>2014-02-23T14:58:16Z</time>
      </trkpt>
      <trkpt lat="48.96111" lon="2.87887">
        <ele>38.11</ele>
        <time>2014-02-23T14:58:31Z</time>
      </trkpt>
      <trkpt lat="48.96108" lon="2.87886">
        <ele>38.11</ele>
        <time>2014-02-23T14:58:32Z</time>
      </trkpt>
      <trkpt lat="48.96098" lon="2.87882">
        <ele>39.55</ele>
        <time>2014-02-23T14:58:38Z</time>
      </trkpt>
      <trkpt lat="48.96089" lon="2.87844">
        <ele>46.28</ele>
        <time>2014-02-23T14:58:57Z</time>
      </trkpt>
      <trkpt lat="48.96089" lon="2.87814">
        <ele>48.2</ele>
        <time>2014-02-23T14:59:18Z</time>
      </trkpt>
      <trkpt lat="48.96079" lon="2.87814">
        <ele>47.72</ele>
        <time>2014-02-23T14:59:35Z</time>
      </trkpt>
      <trkpt lat="48.96068" lon="2.87811">
        <ele>47.24</ele>
        <time>2014-02-23T14:59:50Z</time>
      </trkpt>
      <trkpt lat="48.96059" lon="2.87819">
        <ele>46.28</ele>
        <time>2014-02-23T14:59:58Z</time>
      </trkpt>
      <trkpt lat="48.96056" lon="2.87831">
        <ele>47.24</ele>
        <time>2014-02-23T15:00:03Z</time>
      </trkpt>
      <trkpt lat="48.96049" lon="2.87869">
        <ele>47.24</ele>
        <time>2014-02-23T15:00:25Z</time>
      </trkpt>
      <trkpt lat="48.96049" lon="2.87892">
        <ele>47.72</ele>
        <time>2014-02-23T15:00:39Z</time>
      </trkpt>
      <trkpt lat="48.96047" lon="2.87906">
        <ele>48.2</ele>
        <time>2014-02-23T15:00:51Z</time>
      </trkpt>
      <trkpt lat="48.96044" lon="2.87928">
        <ele>49.16</ele>
        <time>2014-02-23T15:01:09Z</time>
      </trkpt>
      <trkpt lat="48.9604" lon="2.87936">
        <ele>47.72</ele>
        <time>2014-02-23T15:01:24Z</time>
      </trkpt>
      <trkpt lat="48.96034" lon="2.87945">
        <ele>44.84</ele>
        <time>2014-02-23T15:01:32Z</time>
      </trkpt>
      <trkpt lat="48.96023" lon="2.87953">
        <ele>43.88</ele>
        <time>2014-02-23T15:01:44Z</time>
      </trkpt>
      <trkpt lat="48.96003" lon="2.87943">
        <ele>42.92</ele>
        <time>2014-02-23T15:02:03Z</time>
      </trkpt>
      <trkpt lat="48.95999" lon="2.87939">
        <ele>42.92</ele>
        <time>2014-02-23T15:02:07Z</time>
      </trkpt>
      <trkpt lat="48.95974" lon="2.87939">
        <ele>46.76</ele>
        <time>2014-02-23T15:02:25Z</time>
      </trkpt>
      <trkpt lat="48.95973" lon="2.87941">
        <ele>48.2</ele>
        <time>2014-02-23T15:02:40Z</time>
      </trkpt>
      <trkpt lat="48.95962" lon="2.87937">
        <ele>48.2</ele>
        <time>2014-02-23T15:02:51Z</time>
      </trkpt>
      <trkpt lat="48.95939" lon="2.8793">
        <ele>48.68</ele>
        <time>2014-02-23T15:03:11Z</time>
      </trkpt>
      <trkpt lat="48.95916" lon="2.87915">
        <ele>53.97</ele>
        <time>2014-02-23T15:03:31Z</time>
      </trkpt>
      <trkpt lat="48.95915" lon="2.87915">
        <ele>54.45</ele>
        <time>2014-02-23T15:03:32Z</time>
      </trkpt>
      <trkpt lat="48.95905" lon="2.8791">
        <ele>54.45</ele>
        <time>2014-02-23T15:03:40Z</time>
      </trkpt>
      <trkpt lat="48.95884" lon="2.87908">
        <ele>55.41</ele>
        <time>2014-02-23T15:03:59Z</time>
      </trkpt>
      <trkpt lat="48.95879" lon="2.87906">
        <ele>56.37</ele>
        <time>2014-02-23T15:04:07Z</time>
      </trkpt>
      <trkpt lat="48.95878" lon="2.87889">
        <ele>53.97</ele>
        <time>2014-02-23T15:04:25Z</time>
      </trkpt>
      <trkpt lat="48.95875" lon="2.87864">
        <ele>52.53</ele>
        <time>2014-02-23T15:04:39Z</time>
      </trkpt>
      <trkpt lat="48.9587" lon="2.87824">
        <ele>51.09</ele>
        <time>2014-02-23T15:05:01Z</time>
      </trkpt>
      <trkpt lat="48.95873" lon="2.87803">
        <ele>46.28</ele>
        <time>2014-02-23T15:05:15Z</time>
      </trkpt>
      <trkpt lat="48.95869" lon="2.87781">
        <ele>40.99</ele>
        <time>2014-02-23T15:05:29Z</time>
      </trkpt>
      <trkpt lat="48.95864" lon="2.87762">
        <ele>38.59</ele>
        <time>2014-02-23T15:05:39Z</time>
      </trkpt>
      <trkpt lat="48.95862" lon="2.87732">
        <ele>43.4</ele>
        <time>2014-02-23T15:05:53Z</time>
      </trkpt>
      <trkpt lat="48.95861" lon="2.87702">
        <ele>45.8</ele>
        <time>2014-02-23T15:06:10Z</time>
      </trkpt>
      <trkpt lat="48.95858" lon="2.87688">
        <ele>43.4</ele>
        <time>2014-02-23T15:06:28Z</time>
      </trkpt>
      <trkpt lat="48.95858" lon="2.87676">
        <ele>41.95</ele>
        <time>2014-02-23T15:06:41Z</time>
      </trkpt>
      <trkpt lat="48.95855" lon="2.87656">
        <ele>40.99</ele>
        <time>2014-02-23T15:06:52Z</time>
      </trkpt>
      <trkpt lat="48.95841" lon="2.87634">
        <ele>36.67</ele>
        <time>2014-02-23T15:07:09Z</time>
      </trkpt>
      <trkpt lat="48.95833" lon="2.87609">
        <ele>40.99</ele>
        <time>2014-02-23T15:07:24Z</time>
      </trkpt>
      <trkpt lat="48.95833" lon="2.87583">
        <ele>40.99</ele>
        <time>2014-02-23T15:07:40Z</time>
      </trkpt>
      <trkpt lat="48.95837" lon="2.87572">
        <ele>38.59</ele>
        <time>2014-02-23T15:07:48Z</time>
      </trkpt>
      <trkpt lat="48.95842" lon="2.87538">
        <ele>38.59</ele>
        <time>2014-02-23T15:08:06Z</time>
      </trkpt>
      <trkpt lat="48.95841" lon="2.87508">
        <ele>41.95</ele>
        <time>2014-02-23T15:08:24Z</time>
      </trkpt>
      <trkpt lat="48.9585" lon="2.87491">
        <ele>41.47</ele>
        <time>2014-02-23T15:08:40Z</time>
      </trkpt>
      <trkpt lat="48.9585" lon="2.8749">
        <ele>41.47</ele>
        <time>2014-02-23T15:08:53Z</time>
      </trkpt>
      <trkpt lat="48.9585" lon="2.87491">
        <ele>41.95</ele>
        <time>2014-02-23T15:09:15Z</time>
      </trkpt>
      <trkpt lat="48.9585" lon="2.87491">
        <ele>41.47</ele>
        <time>2014-02-23T15:09:25Z</time>
      </trkpt>
      <trkpt lat="48.95839" lon="2.8747">
        <ele>44.36</ele>
        <time>2014-02-23T15:09:41Z</time>
      </trkpt>
      <trkpt lat="48.95826" lon="2.87448">
        <ele>45.8</ele>
        <time>2014-02-23T15:09:56Z</time>
      </trkpt>
      <trkpt lat="48.95811" lon="2.87444">
        <ele>45.32</ele>
        <time>2014-02-23T15:10:13Z</time>
      </trkpt>
      <trkpt lat="48.95793" lon="2.8744">
        <ele>44.84</ele>
        <time>2014-02-23T15:10:31Z</time>
      </trkpt>
      <trkpt lat="48.95779" lon="2.87432">
        <ele>46.28</ele>
        <time>2014-02-23T15:10:47Z</time>
      </trkpt>
      <trkpt lat="48.95774" lon="2.87414">
        <ele>48.2</ele>
        <time>2014-02-23T15:11:00Z</time>
      </trkpt>
      <trkpt lat="48.95776" lon="2.874">
        <ele>47.72</ele>
        <time>2014-02-23T15:11:15Z</time>
      </trkpt>
      <trkpt lat="48.95776" lon="2.87382">
        <ele>42.92</ele>
        <time>2014-02-23T15:11:30Z</time>
      </trkpt>
      <trkpt lat="48.95775" lon="2.87378">
        <ele>41.95</ele>
        <time>2014-02-23T15:11:53Z</time>
      </trkpt>
      <trkpt lat="48.95773" lon="2.87377">
        <ele>40.99</ele>
        <time>2014-02-23T15:12:16Z</time>
      </trkpt>
      <trkpt lat="48.95772" lon="2.87374">
        <ele>40.99</ele>
        <time>2014-02-23T15:12:43Z</time>
      </trkpt>
      <trkpt lat="48.95771" lon="2.87371">
        <ele>40.99</ele>
        <time>2014-02-23T15:13:12Z</time>
      </trkpt>
      <trkpt lat="48.95765" lon="2.87366">
        <ele>42.44</ele>
        <time>2014-02-23T15:13:30Z</time>
      </trkpt>
      <trkpt lat="48.95751" lon="2.87366">
        <ele>41.95</ele>
        <time>2014-02-23T15:13:49Z</time>
      </trkpt>
      <trkpt lat="48.9574" lon="2.87362">
        <ele>40.51</ele>
        <time>2014-02-23T15:14:02Z</time>
      </trkpt>
      <trkpt lat="48.95728" lon="2.87362">
        <ele>38.59</ele>
        <time>2014-02-23T15:14:20Z</time>
      </trkpt>
      <trkpt lat="48.95727" lon="2.87363">
        <ele>37.63</ele>
        <time>2014-02-23T15:14:23Z</time>
      </trkpt>
      <trkpt lat="48.95724" lon="2.87362">
        <ele>37.63</ele>
        <time>2014-02-23T15:14:25Z</time>
      </trkpt>
      <trkpt lat="48.95699" lon="2.87359">
        <ele>38.59</ele>
        <time>2014-02-23T15:14:42Z</time>
      </trkpt>
      <trkpt lat="48.95717" lon="2.87334">
        <ele>46.76</ele>
        <time>2014-02-23T15:15:36Z</time>
      </trkpt>
      <trkpt lat="48.95731" lon="2.87338">
        <ele>61.18</ele>
        <time>2014-02-23T15:15:58Z</time>
      </trkpt>
      <trkpt lat="48.95726" lon="2.87342">
        <ele>62.62</ele>
        <time>2014-02-23T15:16:24Z</time>
      </trkpt>
      <trkpt lat="48.95715" lon="2.87355">
        <ele>62.14</ele>
        <time>2014-02-23T15:16:58Z</time>
      </trkpt>
      <trkpt lat="48.95716" lon="2.87357">
        <ele>62.14</ele>
        <time>2014-02-23T15:17:06Z</time>
      </trkpt>
      <trkpt lat="48.9578" lon="2.87339">
        <ele>64.07</ele>
        <time>2014-02-23T15:17:37Z</time>
      </trkpt>
      <trkpt lat="48.95774" lon="2.87347">
        <ele>65.51</ele>
        <time>2014-02-23T15:18:04Z</time>
      </trkpt>
    </trkseg>
  </trk>
</gpx>